Time,TemperatureF,DewpointF,PressureIn,WindDirection,WindDirectionDegrees,WindSpeedMPH,WindSpeedGustMPH,Humidity,HourlyPrecipIn,Conditions,Clouds,dailyrainin,SoftwareType,DateUTC
2013-10-10 00:00:00,45.9,38.4,30.36,ESE,105,0.0,1.0,75,0.00,,---,0.00,VWS V14.01,2013-10-10 04:00:00,
2013-10-10 00:01:00,45.9,38.4,30.36,East,86,0.0,1.0,75,0.00,,---,0.00,VWS V14.01,2013-10-10 04:01:00,
2013-10-10 00:02:00,45.7,38.6,30.36,East,101,0.0,1.0,76,0.00,,---,0.00,VWS V14.01,2013-10-10 04:02:00,
2013-10-10 00:03:00,45.6,38.5,30.36,East,94,2.0,2.0,76,0.00,,---,0.00,VWS V14.01,2013-10-10 04:03:00,
2013-10-10 00:04:00,45.6,38.8,30.36,ESE,114,1.0,2.0,77,0.00,,---,0.00,VWS V14.01,2013-10-10 04:04:00,
2013-10-10 00:05:00,45.6,38.8,30.36,ESE,106,0.0,1.0,77,0.00,,---,0.00,VWS V14.01,2013-10-10 04:05:00,
2013-10-10 00:06:00,45.5,38.7,30.36,ESE,117,0.0,2.0,77,0.00,,---,0.00,VWS V14.01,2013-10-10 04:06:00,
2013-10-10 00:07:00,45.4,39.0,30.37,ESE,105,0.0,1.0,78,0.00,,---,0.00,VWS V14.01,2013-10-10 04:07:00,
2013-10-10 00:08:00,45.2,38.8,30.36,ESE,105,0.0,1.0,78,0.00,,---,0.00,VWS V14.01,2013-10-10 04:08:00,
2013-10-10 00:09:00,45.3,38.9,30.36,East,93,0.0,2.0,78,0.00,,---,0.00,VWS V14.01,2013-10-10 04:09:00,
2013-10-10 00:10:00,45.0,38.6,30.37,ESE,106,0.0,1.0,78,0.00,,---,0.00,VWS V14.01,2013-10-10 04:10:00,
2013-10-10 00:11:00,45.0,38.6,30.36,ESE,105,0.0,1.0,78,0.00,,---,0.00,VWS V14.01,2013-10-10 04:11:00,
2013-10-10 00:12:00,44.9,38.5,30.37,ESE,105,0.0,1.0,78,0.00,,---,0.00,VWS V14.01,2013-10-10 04:12:00,
2013-10-10 00:13:00,44.9,38.8,30.37,East,98,1.0,1.0,79,0.00,,---,0.00,VWS V14.01,2013-10-10 04:13:00,
2013-10-10 00:14:00,45.5,39.0,30.36,ESE,108,0.0,1.0,78,0.00,,---,0.00,VWS V14.01,2013-10-10 04:14:00,
2013-10-10 00:15:00,44.8,38.7,30.36,East,97,0.0,1.0,79,0.00,,---,0.00,VWS V14.01,2013-10-10 04:15:00,
2013-10-10 00:16:00,44.8,38.7,30.37,East,98,0.0,1.0,79,0.00,,---,0.00,VWS V14.01,2013-10-10 04:16:00,
2013-10-10 00:17:00,44.8,38.4,30.36,East,97,0.0,1.0,78,0.00,,---,0.00,VWS V14.01,2013-10-10 04:17:00,
2013-10-10 00:18:00,44.8,38.7,30.36,East,98,1.0,1.0,79,0.00,,---,0.00,VWS V14.01,2013-10-10 04:18:00,
2013-10-10 00:19:00,45.8,39.3,30.36,East,99,1.0,1.0,78,0.00,,---,0.00,VWS V14.01,2013-10-10 04:19:00,
2013-10-10 00:20:00,44.8,38.4,30.37,East,97,0.0,1.0,78,0.00,,---,0.00,VWS V14.01,2013-10-10 04:20:00,
2013-10-10 00:21:00,44.8,38.4,30.36,East,98,0.0,1.0,78,0.00,,---,0.00,VWS V14.01,2013-10-10 04:21:00,
2013-10-10 00:22:00,44.8,38.4,30.36,East,97,0.0,1.0,78,0.00,,---,0.00,VWS V14.01,2013-10-10 04:22:00,
2013-10-10 00:23:00,44.8,38.4,30.36,East,97,0.0,1.0,78,0.00,,---,0.00,VWS V14.01,2013-10-10 04:23:00,
2013-10-10 00:24:00,45.9,39.4,30.36,East,96,1.0,1.0,78,0.00,,---,0.00,VWS V14.01,2013-10-10 04:24:00,
2013-10-10 00:25:00,44.8,38.7,30.37,East,91,1.0,1.0,79,0.00,,---,0.00,VWS V14.01,2013-10-10 04:25:00,
2013-10-10 00:26:00,44.8,38.7,30.36,East,90,1.0,1.0,79,0.00,,---,0.00,VWS V14.01,2013-10-10 04:26:00,
2013-10-10 00:27:00,44.7,38.6,30.36,East,91,0.0,1.0,79,0.00,,---,0.00,VWS V14.01,2013-10-10 04:27:00,
2013-10-10 00:28:00,44.6,38.8,30.37,East,91,0.0,1.0,80,0.00,,---,0.00,VWS V14.01,2013-10-10 04:28:00,
2013-10-10 00:29:00,45.4,39.0,30.36,East,94,0.0,2.0,78,0.00,,---,0.00,VWS V14.01,2013-10-10 04:29:00,
2013-10-10 00:30:00,44.3,38.5,30.37,East,90,0.0,1.0,80,0.00,,---,0.00,VWS V14.01,2013-10-10 04:30:00,
2013-10-10 00:31:00,44.2,38.4,30.37,East,90,0.0,1.0,80,0.00,,---,0.00,VWS V14.01,2013-10-10 04:31:00,
2013-10-10 00:32:00,44.0,38.2,30.37,East,90,0.0,1.0,80,0.00,,---,0.00,VWS V14.01,2013-10-10 04:32:00,
2013-10-10 00:33:00,44.0,38.5,30.37,East,90,0.0,1.0,81,0.00,,---,0.00,VWS V14.01,2013-10-10 04:33:00,
2013-10-10 00:34:00,44.7,38.9,30.36,East,92,0.0,1.0,80,0.00,,---,0.00,VWS V14.01,2013-10-10 04:34:00,
2013-10-10 00:35:00,43.8,38.4,30.37,East,90,0.0,1.0,81,0.00,,---,0.00,VWS V14.01,2013-10-10 04:35:00,
2013-10-10 00:36:00,43.8,38.4,30.37,East,90,0.0,1.0,81,0.00,,---,0.00,VWS V14.01,2013-10-10 04:36:00,
2013-10-10 00:37:00,43.8,38.4,30.37,East,90,0.0,1.0,81,0.00,,---,0.00,VWS V14.01,2013-10-10 04:37:00,
2013-10-10 00:38:00,43.8,38.4,30.37,East,90,0.0,1.0,81,0.00,,---,0.00,VWS V14.01,2013-10-10 04:38:00,
2013-10-10 00:39:00,43.9,38.1,30.36,East,88,1.0,2.0,80,0.00,,---,0.00,VWS V14.01,2013-10-10 04:39:00,
2013-10-10 00:40:00,43.9,38.5,30.37,East,90,1.0,1.0,81,0.00,,---,0.00,VWS V14.01,2013-10-10 04:40:00,
2013-10-10 00:41:00,43.9,38.5,30.37,East,90,1.0,1.0,81,0.00,,---,0.00,VWS V14.01,2013-10-10 04:41:00,
2013-10-10 00:42:00,43.9,38.5,30.37,East,90,1.0,1.0,81,0.00,,---,0.00,VWS V14.01,2013-10-10 04:42:00,
2013-10-10 00:43:00,44.0,38.5,30.37,East,90,1.0,1.0,81,0.00,,---,0.00,VWS V14.01,2013-10-10 04:43:00,
2013-10-10 00:44:00,43.4,38.6,30.36,East,90,0.0,1.0,83,0.00,,---,0.00,VWS V14.01,2013-10-10 04:44:00,
2013-10-10 00:45:00,44.0,38.2,30.37,East,90,1.0,1.0,80,0.00,,---,0.00,VWS V14.01,2013-10-10 04:45:00,
2013-10-10 00:46:00,44.0,38.5,30.37,East,90,1.0,1.0,81,0.00,,---,0.00,VWS V14.01,2013-10-10 04:46:00,
2013-10-10 00:47:00,44.0,38.5,30.37,East,91,0.0,1.0,81,0.00,,---,0.00,VWS V14.01,2013-10-10 04:47:00,
2013-10-10 00:48:00,44.0,38.5,30.37,East,91,0.0,1.0,81,0.00,,---,0.00,VWS V14.01,2013-10-10 04:48:00,
2013-10-10 00:49:00,44.0,38.2,30.37,East,90,0.0,1.0,80,0.00,,---,0.00,VWS V14.01,2013-10-10 04:49:00,
2013-10-10 00:50:00,43.6,39.1,30.36,East,94,1.0,2.0,84,0.00,,---,0.00,VWS V14.01,2013-10-10 04:50:00,
2013-10-10 00:51:00,44.0,38.2,30.37,East,90,0.0,1.0,80,0.00,,---,0.00,VWS V14.01,2013-10-10 04:51:00,
2013-10-10 00:52:00,44.1,38.3,30.37,East,90,1.0,1.0,80,0.00,,---,0.00,VWS V14.01,2013-10-10 04:52:00,
2013-10-10 00:53:00,44.2,38.4,30.37,East,90,0.0,1.0,80,0.00,,---,0.00,VWS V14.01,2013-10-10 04:53:00,
2013-10-10 00:54:00,44.2,38.1,30.37,East,90,0.0,1.0,79,0.00,,---,0.00,VWS V14.01,2013-10-10 04:54:00,
2013-10-10 00:55:00,43.9,39.1,30.36,East,82,0.0,2.0,83,0.00,,---,0.00,VWS V14.01,2013-10-10 04:55:00,
2013-10-10 00:56:00,44.5,38.1,30.37,East,90,0.0,1.0,78,0.00,,---,0.00,VWS V14.01,2013-10-10 04:56:00,
2013-10-10 00:57:00,44.6,38.2,30.37,East,90,0.0,1.0,78,0.00,,---,0.00,VWS V14.01,2013-10-10 04:57:00,
2013-10-10 00:58:00,44.8,38.4,30.37,East,90,0.0,0.0,78,0.00,,---,0.00,VWS V14.01,2013-10-10 04:58:00,
2013-10-10 00:59:00,44.9,38.1,30.37,East,91,0.0,1.0,77,0.00,,---,0.00,VWS V14.01,2013-10-10 04:59:00,
2013-10-10 01:00:00,44.2,39.1,30.36,SE,128,0.0,2.0,82,0.00,,---,0.00,VWS V14.01,2013-10-10 05:00:00,
2013-10-10 01:01:00,45.1,38.3,30.37,East,90,0.0,2.0,77,0.00,,---,0.00,VWS V14.01,2013-10-10 05:01:00,
2013-10-10 01:02:00,45.1,38.3,30.37,East,90,0.0,2.0,77,0.00,,---,0.00,VWS V14.01,2013-10-10 05:02:00,
2013-10-10 01:03:00,45.1,38.3,30.36,East,90,0.0,2.0,77,0.00,,---,0.00,VWS V14.01,2013-10-10 05:03:00,
2013-10-10 01:04:00,45.0,38.2,30.37,East,90,0.0,2.0,77,0.00,,---,0.00,VWS V14.01,2013-10-10 05:04:00,
2013-10-10 01:05:00,44.1,39.3,30.35,East,85,0.0,1.0,83,0.00,,---,0.00,VWS V14.01,2013-10-10 05:05:00,
2013-10-10 01:06:00,44.8,38.4,30.37,East,90,1.0,1.0,78,0.00,,---,0.00,VWS V14.01,2013-10-10 05:06:00,
2013-10-10 01:07:00,44.7,38.3,30.37,East,90,1.0,1.0,78,0.00,,---,0.00,VWS V14.01,2013-10-10 05:07:00,
2013-10-10 01:08:00,44.5,38.1,30.37,East,90,1.0,1.0,78,0.00,,---,0.00,VWS V14.01,2013-10-10 05:08:00,
2013-10-10 01:09:00,44.4,38.3,30.36,East,87,0.0,1.0,79,0.00,,---,0.00,VWS V14.01,2013-10-10 05:09:00,
2013-10-10 01:10:00,43.7,38.6,30.36,East,91,1.0,1.0,82,0.00,,---,0.00,VWS V14.01,2013-10-10 05:10:00,
2013-10-10 01:11:00,44.3,38.2,30.36,East,88,0.0,1.0,79,0.00,,---,0.00,VWS V14.01,2013-10-10 05:11:00,
2013-10-10 01:12:00,44.3,38.2,30.36,East,88,0.0,1.0,79,0.00,,---,0.00,VWS V14.01,2013-10-10 05:12:00,
2013-10-10 01:13:00,44.3,38.2,30.36,East,88,0.0,1.0,79,0.00,,---,0.00,VWS V14.01,2013-10-10 05:13:00,
2013-10-10 01:14:00,44.4,38.0,30.36,East,88,0.0,0.0,78,0.00,,---,0.00,VWS V14.01,2013-10-10 05:14:00,
2013-10-10 01:15:00,43.2,39.0,30.36,ESE,116,0.0,1.0,85,0.00,,---,0.00,VWS V14.01,2013-10-10 05:15:00,
2013-10-10 01:16:00,44.6,38.2,30.36,East,88,0.0,1.0,78,0.00,,---,0.00,VWS V14.01,2013-10-10 05:16:00,
2013-10-10 01:17:00,44.7,38.3,30.36,East,88,0.0,1.0,78,0.00,,---,0.00,VWS V14.01,2013-10-10 05:17:00,
2013-10-10 01:18:00,44.7,38.3,30.36,East,88,1.0,1.0,78,0.00,,---,0.00,VWS V14.01,2013-10-10 05:18:00,
2013-10-10 01:19:00,44.7,38.3,30.36,East,88,1.0,1.0,78,0.00,,---,0.00,VWS V14.01,2013-10-10 05:19:00,
2013-10-10 01:20:00,43.0,38.8,30.36,SE,141,1.0,1.0,85,0.00,,---,0.00,VWS V14.01,2013-10-10 05:20:00,
2013-10-10 01:21:00,44.5,38.1,30.36,East,88,1.0,1.0,78,0.00,,---,0.00,VWS V14.01,2013-10-10 05:21:00,
2013-10-10 01:22:00,44.4,38.0,30.36,East,87,0.0,1.0,78,0.00,,---,0.00,VWS V14.01,2013-10-10 05:22:00,
2013-10-10 01:23:00,44.4,38.3,30.36,East,87,0.0,1.0,79,0.00,,---,0.00,VWS V14.01,2013-10-10 05:23:00,
2013-10-10 01:24:00,44.4,38.3,30.36,East,87,0.0,1.0,79,0.00,,---,0.00,VWS V14.01,2013-10-10 05:24:00,
2013-10-10 01:25:00,43.1,38.9,30.36,ESE,106,1.0,2.0,85,0.00,,---,0.00,VWS V14.01,2013-10-10 05:25:00,
2013-10-10 01:26:00,44.4,38.0,30.36,East,87,0.0,1.0,78,0.00,,---,0.00,VWS V14.01,2013-10-10 05:26:00,
2013-10-10 01:27:00,44.5,38.1,30.36,East,88,0.0,1.0,78,0.00,,---,0.00,VWS V14.01,2013-10-10 05:27:00,
2013-10-10 01:28:00,44.6,38.2,30.36,East,87,0.0,1.0,78,0.00,,---,0.00,VWS V14.01,2013-10-10 05:28:00,
2013-10-10 01:29:00,44.7,38.3,30.36,East,88,0.0,1.0,78,0.00,,---,0.00,VWS V14.01,2013-10-10 05:29:00,
2013-10-10 01:30:00,43.5,39.3,30.36,ESE,110,2.0,2.0,85,0.00,,---,0.00,VWS V14.01,2013-10-10 05:30:00,
2013-10-10 01:31:00,44.9,38.1,30.36,ESE,102,0.0,1.0,77,0.00,,---,0.00,VWS V14.01,2013-10-10 05:31:00,
2013-10-10 01:32:00,45.1,38.3,30.36,ESE,110,0.0,1.0,77,0.00,,---,0.00,VWS V14.01,2013-10-10 05:32:00,
2013-10-10 01:33:00,45.1,38.3,30.36,ESE,110,0.0,1.0,77,0.00,,---,0.00,VWS V14.01,2013-10-10 05:33:00,
2013-10-10 01:34:00,45.2,38.1,30.36,East,96,0.0,1.0,76,0.00,,---,0.00,VWS V14.01,2013-10-10 05:34:00,
2013-10-10 01:35:00,43.6,39.4,30.36,ESE,121,1.0,2.0,85,0.00,,---,0.00,VWS V14.01,2013-10-10 05:35:00,
2013-10-10 01:36:00,45.2,38.1,30.36,East,96,0.0,1.0,76,0.00,,---,0.00,VWS V14.01,2013-10-10 05:36:00,
2013-10-10 01:37:00,45.3,38.2,30.36,East,96,1.0,1.0,76,0.00,,---,0.00,VWS V14.01,2013-10-10 05:37:00,
2013-10-10 01:38:00,45.3,38.2,30.36,East,96,0.0,1.0,76,0.00,,---,0.00,VWS V14.01,2013-10-10 05:38:00,
2013-10-10 01:39:00,45.4,38.0,30.36,East,96,0.0,1.0,75,0.00,,---,0.00,VWS V14.01,2013-10-10 05:39:00,
2013-10-10 01:40:00,43.6,39.4,30.35,SE,136,1.0,3.0,85,0.00,,---,0.00,VWS V14.01,2013-10-10 05:40:00,
2013-10-10 01:41:00,45.6,38.2,30.36,East,89,0.0,1.0,75,0.00,,---,0.00,VWS V14.01,2013-10-10 05:41:00,
2013-10-10 01:42:00,45.7,38.2,30.36,East,89,0.0,1.0,75,0.00,,---,0.00,VWS V14.01,2013-10-10 05:42:00,
2013-10-10 01:43:00,45.8,38.0,30.36,East,89,0.0,1.0,74,0.00,,---,0.00,VWS V14.01,2013-10-10 05:43:00,
2013-10-10 01:44:00,45.9,38.1,30.36,East,89,0.0,1.0,74,0.00,,---,0.00,VWS V14.01,2013-10-10 05:44:00,
2013-10-10 01:45:00,43.8,39.3,30.36,SE,139,1.0,3.0,84,0.00,,---,0.00,VWS V14.01,2013-10-10 05:45:00,
2013-10-10 01:46:00,45.9,38.1,30.36,ESE,120,0.0,1.0,74,0.00,,---,0.00,VWS V14.01,2013-10-10 05:46:00,
2013-10-10 01:47:00,45.9,38.1,30.36,East,94,0.0,1.0,74,0.00,,---,0.00,VWS V14.01,2013-10-10 05:47:00,
2013-10-10 01:48:00,45.9,38.4,30.36,East,94,0.0,1.0,75,0.00,,---,0.00,VWS V14.01,2013-10-10 05:48:00,
2013-10-10 01:49:00,45.8,38.3,30.36,East,94,0.0,1.0,75,0.00,,---,0.00,VWS V14.01,2013-10-10 05:49:00,
2013-10-10 01:50:00,43.9,39.7,30.36,SSE,152,2.0,3.0,85,0.00,,---,0.00,VWS V14.01,2013-10-10 05:50:00,
2013-10-10 01:51:00,45.7,38.2,30.36,East,94,0.0,1.0,75,0.00,,---,0.00,VWS V14.01,2013-10-10 05:51:00,
2013-10-10 01:52:00,45.7,38.2,30.36,East,94,0.0,1.0,75,0.00,,---,0.00,VWS V14.01,2013-10-10 05:52:00,
2013-10-10 01:53:00,45.8,38.3,30.36,East,94,0.0,1.0,75,0.00,,---,0.00,VWS V14.01,2013-10-10 05:53:00,
2013-10-10 01:54:00,45.8,38.3,30.36,East,94,0.0,1.0,75,0.00,,---,0.00,VWS V14.01,2013-10-10 05:54:00,
2013-10-10 01:55:00,44.1,39.6,30.36,SE,135,1.0,3.0,84,0.00,,---,0.00,VWS V14.01,2013-10-10 05:55:00,
2013-10-10 01:56:00,46.0,38.5,30.36,East,94,0.0,1.0,75,0.00,,---,0.00,VWS V14.01,2013-10-10 05:56:00,
2013-10-10 01:57:00,46.0,38.5,30.36,East,93,1.0,1.0,75,0.00,,---,0.00,VWS V14.01,2013-10-10 05:57:00,
2013-10-10 01:58:00,46.0,38.5,30.36,East,94,1.0,1.0,75,0.00,,---,0.00,VWS V14.01,2013-10-10 05:58:00,
2013-10-10 01:59:00,45.9,38.4,30.36,East,86,1.0,1.0,75,0.00,,---,0.00,VWS V14.01,2013-10-10 05:59:00,
2013-10-10 02:00:00,45.9,38.4,30.36,East,86,0.0,1.0,75,0.00,,---,0.00,VWS V14.01,2013-10-10 06:00:00,
2013-10-10 02:01:00,44.2,39.7,30.35,SE,138,1.0,2.0,84,0.00,,---,0.00,VWS V14.01,2013-10-10 06:01:00,
2013-10-10 02:02:00,45.6,38.5,30.36,East,94,2.0,2.0,76,0.00,,---,0.00,VWS V14.01,2013-10-10 06:02:00,
2013-10-10 02:03:00,45.6,38.8,30.36,ESE,114,1.0,2.0,77,0.00,,---,0.00,VWS V14.01,2013-10-10 06:03:00,
2013-10-10 02:04:00,45.6,38.8,30.36,ESE,115,0.0,2.0,77,0.00,,---,0.00,VWS V14.01,2013-10-10 06:04:00,
2013-10-10 02:05:00,45.5,38.7,30.36,ESE,117,0.0,2.0,77,0.00,,---,0.00,VWS V14.01,2013-10-10 06:05:00,
2013-10-10 02:06:00,44.2,39.7,30.35,SSE,158,2.0,3.0,84,0.00,,---,0.00,VWS V14.01,2013-10-10 06:06:00,
2013-10-10 02:07:00,45.4,39.0,30.36,East,94,1.0,2.0,78,0.00,,---,0.00,VWS V14.01,2013-10-10 06:07:00,
2013-10-10 02:08:00,45.3,38.9,30.36,East,93,0.0,2.0,78,0.00,,---,0.00,VWS V14.01,2013-10-10 06:08:00,
2013-10-10 02:09:00,45.3,38.9,30.36,East,96,0.0,1.0,78,0.00,,---,0.00,VWS V14.01,2013-10-10 06:09:00,
2013-10-10 02:10:00,45.3,39.2,30.36,East,97,0.0,1.0,79,0.00,,---,0.00,VWS V14.01,2013-10-10 06:10:00,
2013-10-10 02:11:00,44.2,39.7,30.35,ESE,102,1.0,3.0,84,0.00,,---,0.00,VWS V14.01,2013-10-10 06:11:00,
2013-10-10 02:12:00,45.4,39.0,30.36,ESE,108,0.0,1.0,78,0.00,,---,0.00,VWS V14.01,2013-10-10 06:12:00,
2013-10-10 02:13:00,45.5,39.0,30.36,ESE,108,0.0,1.0,78,0.00,,---,0.00,VWS V14.01,2013-10-10 06:13:00,
2013-10-10 02:14:00,45.6,39.2,30.36,East,99,0.0,1.0,78,0.00,,---,0.00,VWS V14.01,2013-10-10 06:14:00,
2013-10-10 02:15:00,45.6,39.2,30.36,East,99,0.0,1.0,78,0.00,,---,0.00,VWS V14.01,2013-10-10 06:15:00,
2013-10-10 02:16:00,44.0,39.8,30.35,SE,131,1.0,2.0,85,0.00,,---,0.00,VWS V14.01,2013-10-10 06:16:00,
2013-10-10 02:17:00,45.8,39.3,30.36,East,98,0.0,1.0,78,0.00,,---,0.00,VWS V14.01,2013-10-10 06:17:00,
2013-10-10 02:18:00,45.8,39.3,30.36,East,99,1.0,1.0,78,0.00,,---,0.00,VWS V14.01,2013-10-10 06:18:00,
2013-10-10 02:19:00,45.9,39.4,30.36,SE,140,0.0,1.0,78,0.00,,---,0.00,VWS V14.01,2013-10-10 06:19:00,
2013-10-10 02:20:00,45.9,39.4,30.36,SE,132,0.0,1.0,78,0.00,,---,0.00,VWS V14.01,2013-10-10 06:20:00,
2013-10-10 02:21:00,44.0,39.8,30.34,ESE,105,1.0,2.0,85,0.00,,---,0.00,VWS V14.01,2013-10-10 06:21:00,
2013-10-10 02:22:00,45.9,39.4,30.36,East,96,1.0,1.0,78,0.00,,---,0.00,VWS V14.01,2013-10-10 06:22:00,
2013-10-10 02:23:00,45.9,39.4,30.36,East,96,1.0,1.0,78,0.00,,---,0.00,VWS V14.01,2013-10-10 06:23:00,
2013-10-10 02:24:00,45.8,39.3,30.36,East,93,1.0,1.0,78,0.00,,---,0.00,VWS V14.01,2013-10-10 06:24:00,
2013-10-10 02:25:00,45.7,38.9,30.36,East,94,1.0,2.0,77,0.00,,---,0.00,VWS V14.01,2013-10-10 06:25:00,
2013-10-10 02:26:00,44.0,40.1,30.34,ESE,107,1.0,1.0,86,0.00,,---,0.00,VWS V14.01,2013-10-10 06:26:00,
2013-10-10 02:27:00,45.5,39.0,30.36,East,94,0.0,2.0,78,0.00,,---,0.00,VWS V14.01,2013-10-10 06:27:00,
2013-10-10 02:28:00,45.4,39.0,30.36,East,94,0.0,2.0,78,0.00,,---,0.00,VWS V14.01,2013-10-10 06:28:00,
2013-10-10 02:29:00,45.2,38.8,30.36,East,92,1.0,2.0,78,0.00,,---,0.00,VWS V14.01,2013-10-10 06:29:00,
2013-10-10 02:30:00,45.0,38.9,30.36,East,92,1.0,1.0,79,0.00,,---,0.00,VWS V14.01,2013-10-10 06:30:00,
2013-10-10 02:31:00,43.9,40.0,30.34,ESE,110,0.0,2.0,86,0.00,,---,0.00,VWS V14.01,2013-10-10 06:31:00,
2013-10-10 02:32:00,44.8,38.7,30.36,East,91,0.0,1.0,79,0.00,,---,0.00,VWS V14.01,2013-10-10 06:32:00,
2013-10-10 02:33:00,44.7,38.9,30.36,East,92,0.0,1.0,80,0.00,,---,0.00,VWS V14.01,2013-10-10 06:33:00,
2013-10-10 02:34:00,44.6,38.8,30.36,East,94,1.0,1.0,80,0.00,,---,0.00,VWS V14.01,2013-10-10 06:34:00,
2013-10-10 02:35:00,44.6,38.8,30.36,East,94,1.0,1.0,80,0.00,,---,0.00,VWS V14.01,2013-10-10 06:35:00,
2013-10-10 02:36:00,43.9,40.3,30.34,SE,127,1.0,1.0,87,0.00,,---,0.00,VWS V14.01,2013-10-10 06:36:00,
2013-10-10 02:37:00,44.1,38.3,30.36,East,88,1.0,2.0,80,0.00,,---,0.00,VWS V14.01,2013-10-10 06:37:00,
2013-10-10 02:38:00,43.9,38.1,30.36,East,88,1.0,2.0,80,0.00,,---,0.00,VWS V14.01,2013-10-10 06:38:00,
2013-10-10 02:39:00,43.7,38.3,30.36,East,88,1.0,2.0,81,0.00,,---,0.00,VWS V14.01,2013-10-10 06:39:00,
2013-10-10 02:40:00,43.6,38.2,30.36,East,87,0.0,2.0,81,0.00,,---,0.00,VWS V14.01,2013-10-10 06:40:00,
2013-10-10 02:41:00,43.8,39.9,30.33,SE,135,1.0,2.0,86,0.00,,---,0.00,VWS V14.01,2013-10-10 06:41:00,
2013-10-10 02:42:00,43.4,38.6,30.36,East,90,0.0,1.0,83,0.00,,---,0.00,VWS V14.01,2013-10-10 06:42:00,
2013-10-10 02:43:00,43.4,38.6,30.36,East,90,0.0,1.0,83,0.00,,---,0.00,VWS V14.01,2013-10-10 06:43:00,
2013-10-10 02:44:00,43.4,38.6,30.36,East,90,0.0,1.0,83,0.00,,---,0.00,VWS V14.01,2013-10-10 06:44:00,
2013-10-10 02:45:00,43.4,38.6,30.36,East,90,0.0,1.0,83,0.00,,---,0.00,VWS V14.01,2013-10-10 06:45:00,
2013-10-10 02:46:00,43.6,40.0,30.33,ESE,104,1.0,2.0,87,0.00,,---,0.00,VWS V14.01,2013-10-10 06:46:00,
2013-10-10 02:47:00,43.5,39.0,30.36,East,94,1.0,1.0,84,0.00,,---,0.00,VWS V14.01,2013-10-10 06:47:00,
2013-10-10 02:48:00,43.5,39.0,30.36,East,94,1.0,1.0,84,0.00,,---,0.00,VWS V14.01,2013-10-10 06:48:00,
2013-10-10 02:49:00,43.6,39.1,30.36,East,94,1.0,2.0,84,0.00,,---,0.00,VWS V14.01,2013-10-10 06:49:00,
2013-10-10 02:50:00,43.7,39.2,30.36,East,94,0.0,2.0,84,0.00,,---,0.00,VWS V14.01,2013-10-10 06:50:00,
2013-10-10 02:51:00,43.5,39.9,30.33,ESE,113,1.0,2.0,87,0.00,,---,0.00,VWS V14.01,2013-10-10 06:51:00,
2013-10-10 02:52:00,43.9,39.1,30.36,East,89,1.0,2.0,83,0.00,,---,0.00,VWS V14.01,2013-10-10 06:52:00,
2013-10-10 02:53:00,43.9,39.1,30.36,East,87,1.0,2.0,83,0.00,,---,0.00,VWS V14.01,2013-10-10 06:53:00,
2013-10-10 02:54:00,43.9,39.1,30.36,East,82,0.0,2.0,83,0.00,,---,0.00,VWS V14.01,2013-10-10 06:54:00,
2013-10-10 02:55:00,44.0,39.2,30.36,ENE,73,1.0,2.0,83,0.00,,---,0.00,VWS V14.01,2013-10-10 06:55:00,
2013-10-10 02:56:00,43.3,39.7,30.33,ESE,112,1.0,3.0,87,0.00,,---,0.00,VWS V14.01,2013-10-10 06:56:00,
2013-10-10 02:57:00,44.2,39.4,30.36,East,84,0.0,2.0,83,0.00,,---,0.00,VWS V14.01,2013-10-10 06:57:00,
2013-10-10 02:58:00,44.2,39.1,30.36,SE,128,0.0,2.0,82,0.00,,---,0.00,VWS V14.01,2013-10-10 06:58:00,
2013-10-10 02:59:00,44.2,39.1,30.36,SE,128,0.0,2.0,82,0.00,,---,0.00,VWS V14.01,2013-10-10 06:59:00,
2013-10-10 03:00:00,44.2,39.1,30.36,East,85,0.0,2.0,82,0.00,,---,0.00,VWS V14.01,2013-10-10 07:00:00,
2013-10-10 03:01:00,43.5,40.2,30.33,SE,142,3.0,3.0,88,0.00,,---,0.00,VWS V14.01,2013-10-10 07:01:00,
2013-10-10 03:02:00,44.1,39.3,30.36,East,85,0.0,1.0,83,0.00,,---,0.00,VWS V14.01,2013-10-10 07:02:00,
2013-10-10 03:03:00,44.1,39.0,30.36,East,84,1.0,1.0,82,0.00,,---,0.00,VWS V14.01,2013-10-10 07:03:00,
2013-10-10 03:04:00,44.1,39.3,30.35,East,85,0.0,1.0,83,0.00,,---,0.00,VWS V14.01,2013-10-10 07:04:00,
2013-10-10 03:05:00,44.1,39.3,30.35,East,85,1.0,1.0,83,0.00,,---,0.00,VWS V14.01,2013-10-10 07:05:00,
2013-10-10 03:06:00,43.8,40.2,30.33,SSE,150,3.0,4.0,87,0.00,,---,0.00,VWS V14.01,2013-10-10 07:06:00,
2013-10-10 03:07:00,44.0,38.9,30.35,East,91,0.0,1.0,82,0.00,,---,0.00,VWS V14.01,2013-10-10 07:07:00,
2013-10-10 03:08:00,43.9,38.8,30.36,East,91,0.0,1.0,82,0.00,,---,0.00,VWS V14.01,2013-10-10 07:08:00,
2013-10-10 03:09:00,43.7,38.6,30.36,East,91,1.0,1.0,82,0.00,,---,0.00,VWS V14.01,2013-10-10 07:09:00,
2013-10-10 03:10:00,43.5,38.7,30.36,East,92,0.0,1.0,83,0.00,,---,0.00,VWS V14.01,2013-10-10 07:10:00,
2013-10-10 03:11:00,44.0,40.4,30.33,SSE,153,2.0,4.0,87,0.00,,---,0.00,VWS V14.01,2013-10-10 07:11:00,
2013-10-10 03:12:00,43.3,38.8,30.36,East,96,1.0,1.0,84,0.00,,---,0.00,VWS V14.01,2013-10-10 07:12:00,
2013-10-10 03:13:00,43.2,38.7,30.35,SE,146,1.0,1.0,84,0.00,,---,0.00,VWS V14.01,2013-10-10 07:13:00,
2013-10-10 03:14:00,43.2,39.0,30.36,ESE,116,0.0,1.0,85,0.00,,---,0.00,VWS V14.01,2013-10-10 07:14:00,
2013-10-10 03:15:00,43.2,39.0,30.36,ESE,115,0.0,1.0,85,0.00,,---,0.00,VWS V14.01,2013-10-10 07:15:00,
2013-10-10 03:16:00,44.2,40.6,30.33,SE,134,1.0,5.0,87,0.00,,---,0.00,VWS V14.01,2013-10-10 07:16:00,
2013-10-10 03:17:00,43.1,38.9,30.36,ESE,118,1.0,1.0,85,0.00,,---,0.00,VWS V14.01,2013-10-10 07:17:00,
2013-10-10 03:18:00,43.0,38.8,30.35,SE,132,1.0,1.0,85,0.00,,---,0.00,VWS V14.01,2013-10-10 07:18:00,
2013-10-10 03:19:00,43.0,38.8,30.36,SE,141,1.0,1.0,85,0.00,,---,0.00,VWS V14.01,2013-10-10 07:19:00,
2013-10-10 03:20:00,43.0,38.8,30.35,SE,132,1.0,1.0,85,0.00,,---,0.00,VWS V14.01,2013-10-10 07:20:00,
2013-10-10 03:21:00,44.2,40.6,30.33,SSE,156,4.0,5.0,87,0.00,,---,0.00,VWS V14.01,2013-10-10 07:21:00,
2013-10-10 03:22:00,43.0,39.1,30.36,ESE,117,1.0,2.0,86,0.00,,---,0.00,VWS V14.01,2013-10-10 07:22:00,
2013-10-10 03:23:00,43.1,39.2,30.36,ESE,113,0.0,2.0,86,0.00,,---,0.00,VWS V14.01,2013-10-10 07:23:00,
2013-10-10 03:24:00,43.1,38.9,30.36,ESE,106,1.0,2.0,85,0.00,,---,0.00,VWS V14.01,2013-10-10 07:24:00,
2013-10-10 03:25:00,43.2,39.0,30.36,ESE,117,2.0,2.0,85,0.00,,---,0.00,VWS V14.01,2013-10-10 07:25:00,
2013-10-10 03:26:00,44.2,40.6,30.33,SE,135,3.0,5.0,87,0.00,,---,0.00,VWS V14.01,2013-10-10 07:26:00,
2013-10-10 03:27:00,43.4,39.2,30.36,ESE,117,1.0,2.0,85,0.00,,---,0.00,VWS V14.01,2013-10-10 07:27:00,
2013-10-10 03:28:00,43.5,39.3,30.36,SE,125,2.0,2.0,85,0.00,,---,0.00,VWS V14.01,2013-10-10 07:28:00,
2013-10-10 03:29:00,43.5,39.3,30.36,ESE,110,2.0,2.0,85,0.00,,---,0.00,VWS V14.01,2013-10-10 07:29:00,
2013-10-10 03:30:00,43.6,39.4,30.36,ESE,107,1.0,2.0,85,0.00,,---,0.00,VWS V14.01,2013-10-10 07:30:00,
2013-10-10 03:31:00,44.3,40.7,30.33,SE,132,1.0,4.0,87,0.00,,---,0.00,VWS V14.01,2013-10-10 07:31:00,
2013-10-10 03:32:00,43.6,39.4,30.36,SE,131,2.0,2.0,85,0.00,,---,0.00,VWS V14.01,2013-10-10 07:32:00,
2013-10-10 03:33:00,43.6,39.4,30.36,SE,131,2.0,2.0,85,0.00,,---,0.00,VWS V14.01,2013-10-10 07:33:00,
2013-10-10 03:34:00,43.6,39.4,30.36,ESE,121,1.0,2.0,85,0.00,,---,0.00,VWS V14.01,2013-10-10 07:34:00,
2013-10-10 03:35:00,43.7,39.2,30.35,East,96,1.0,2.0,84,0.00,,---,0.00,VWS V14.01,2013-10-10 07:35:00,
2013-10-10 03:36:00,44.3,40.7,30.33,SSE,167,3.0,3.0,87,0.00,,---,0.00,VWS V14.01,2013-10-10 07:36:00,
2013-10-10 03:37:00,43.6,39.1,30.35,SE,135,1.0,2.0,84,0.00,,---,0.00,VWS V14.01,2013-10-10 07:37:00,
2013-10-10 03:38:00,43.6,39.1,30.36,SSE,150,2.0,2.0,84,0.00,,---,0.00,VWS V14.01,2013-10-10 07:38:00,
2013-10-10 03:39:00,43.6,39.4,30.35,SE,136,1.0,3.0,85,0.00,,---,0.00,VWS V14.01,2013-10-10 07:39:00,
2013-10-10 03:40:00,43.6,39.4,30.35,SE,128,1.0,3.0,85,0.00,,---,0.00,VWS V14.01,2013-10-10 07:40:00,
2013-10-10 03:41:00,44.3,40.7,30.33,SSE,148,1.0,3.0,87,0.00,,---,0.00,VWS V14.01,2013-10-10 07:41:00,
2013-10-10 03:42:00,43.7,39.5,30.35,SE,132,0.0,3.0,85,0.00,,---,0.00,VWS V14.01,2013-10-10 07:42:00,
2013-10-10 03:43:00,43.7,39.5,30.35,SE,126,1.0,3.0,85,0.00,,---,0.00,VWS V14.01,2013-10-10 07:43:00,
2013-10-10 03:44:00,43.8,39.3,30.36,SE,139,1.0,3.0,84,0.00,,---,0.00,VWS V14.01,2013-10-10 07:44:00,
2013-10-10 03:45:00,43.8,39.3,30.36,ESE,107,2.0,3.0,84,0.00,,---,0.00,VWS V14.01,2013-10-10 07:45:00,
2013-10-10 03:46:00,44.3,40.7,30.32,SE,139,0.0,2.0,87,0.00,,---,0.00,VWS V14.01,2013-10-10 07:46:00,
2013-10-10 03:47:00,43.8,39.3,30.36,ESE,114,1.0,3.0,84,0.00,,---,0.00,VWS V14.01,2013-10-10 07:47:00,
2013-10-10 03:48:00,43.9,39.7,30.36,SE,136,1.0,3.0,85,0.00,,---,0.00,VWS V14.01,2013-10-10 07:48:00,
2013-10-10 03:49:00,43.9,39.7,30.36,SSE,152,2.0,3.0,85,0.00,,---,0.00,VWS V14.01,2013-10-10 07:49:00,
2013-10-10 03:50:00,44.0,39.5,30.36,SE,128,2.0,3.0,84,0.00,,---,0.00,VWS V14.01,2013-10-10 07:50:00,
2013-10-10 03:51:00,44.3,40.7,30.32,ESE,120,0.0,2.0,87,0.00,,---,0.00,VWS V14.01,2013-10-10 07:51:00,
2013-10-10 03:52:00,44.0,39.5,30.36,SE,132,1.0,2.0,84,0.00,,---,0.00,VWS V14.01,2013-10-10 07:52:00,
2013-10-10 03:53:00,44.1,39.6,30.36,SE,138,2.0,2.0,84,0.00,,---,0.00,VWS V14.01,2013-10-10 07:53:00,
2013-10-10 03:54:00,44.1,39.6,30.36,SE,135,1.0,3.0,84,0.00,,---,0.00,VWS V14.01,2013-10-10 07:54:00,
2013-10-10 03:55:00,44.1,39.6,30.35,SSE,149,2.0,3.0,84,0.00,,---,0.00,VWS V14.01,2013-10-10 07:55:00,
2013-10-10 03:56:00,44.3,40.7,30.32,SE,131,0.0,1.0,87,0.00,,---,0.00,VWS V14.01,2013-10-10 07:56:00,
2013-10-10 03:57:00,44.1,39.6,30.35,SSE,153,1.0,3.0,84,0.00,,---,0.00,VWS V14.01,2013-10-10 07:57:00,
2013-10-10 03:58:00,44.1,39.6,30.35,SE,139,1.0,3.0,84,0.00,,---,0.00,VWS V14.01,2013-10-10 07:58:00,
2013-10-10 03:59:00,44.1,39.6,30.35,SE,143,2.0,3.0,84,0.00,,---,0.00,VWS V14.01,2013-10-10 07:59:00,
2013-10-10 04:00:00,44.2,39.7,30.35,SE,138,1.0,2.0,84,0.00,,---,0.00,VWS V14.01,2013-10-10 08:00:00,
2013-10-10 04:01:00,44.3,40.7,30.32,SE,131,0.0,1.0,87,0.00,,---,0.00,VWS V14.01,2013-10-10 08:01:00,
2013-10-10 04:02:00,44.2,39.7,30.35,SE,134,1.0,2.0,84,0.00,,---,0.00,VWS V14.01,2013-10-10 08:02:00,
2013-10-10 04:03:00,44.1,39.6,30.35,SE,146,3.0,3.0,84,0.00,,---,0.00,VWS V14.01,2013-10-10 08:03:00,
2013-10-10 04:04:00,44.2,39.7,30.35,SSE,148,2.0,3.0,84,0.00,,---,0.00,VWS V14.01,2013-10-10 08:04:00,
2013-10-10 04:05:00,44.2,39.7,30.35,SSE,158,2.0,3.0,84,0.00,,---,0.00,VWS V14.01,2013-10-10 08:05:00,
2013-10-10 04:06:00,44.2,40.6,30.31,ESE,115,0.0,1.0,87,0.00,,---,0.00,VWS V14.01,2013-10-10 08:06:00,
2013-10-10 04:07:00,44.2,40.0,30.35,SE,131,0.0,3.0,85,0.00,,---,0.00,VWS V14.01,2013-10-10 08:07:00,
2013-10-10 04:08:00,44.2,40.0,30.35,SE,128,1.0,3.0,85,0.00,,---,0.00,VWS V14.01,2013-10-10 08:08:00,
2013-10-10 04:09:00,44.2,39.7,30.35,SE,146,1.0,3.0,84,0.00,,---,0.00,VWS V14.01,2013-10-10 08:09:00,
2013-10-10 04:10:00,44.2,39.7,30.35,ESE,102,1.0,3.0,84,0.00,,---,0.00,VWS V14.01,2013-10-10 08:10:00,
2013-10-10 04:11:00,44.2,40.6,30.31,ESE,116,0.0,0.0,87,0.00,,---,0.00,VWS V14.01,2013-10-10 08:11:00,
2013-10-10 04:12:00,44.1,39.6,30.35,SE,132,1.0,2.0,84,0.00,,---,0.00,VWS V14.01,2013-10-10 08:12:00,
2013-10-10 04:13:00,44.0,39.8,30.35,SE,136,1.0,2.0,85,0.00,,---,0.00,VWS V14.01,2013-10-10 08:13:00,
2013-10-10 04:14:00,44.0,39.8,30.35,SE,134,1.0,2.0,85,0.00,,---,0.00,VWS V14.01,2013-10-10 08:14:00,
2013-10-10 04:15:00,44.0,39.8,30.35,SE,131,1.0,2.0,85,0.00,,---,0.00,VWS V14.01,2013-10-10 08:15:00,
2013-10-10 04:16:00,44.0,40.4,30.31,ESE,116,0.0,0.0,87,0.00,,---,0.00,VWS V14.01,2013-10-10 08:16:00,
2013-10-10 04:17:00,44.0,39.8,30.35,SE,146,1.0,2.0,85,0.00,,---,0.00,VWS V14.01,2013-10-10 08:17:00,
2013-10-10 04:18:00,44.0,39.8,30.35,ESE,111,1.0,2.0,85,0.00,,---,0.00,VWS V14.01,2013-10-10 08:18:00,
2013-10-10 04:19:00,44.0,39.8,30.34,ESE,117,1.0,2.0,85,0.00,,---,0.00,VWS V14.01,2013-10-10 08:19:00,
2013-10-10 04:20:00,44.0,39.8,30.34,ESE,105,1.0,2.0,85,0.00,,---,0.00,VWS V14.01,2013-10-10 08:20:00,
2013-10-10 04:21:00,43.8,40.2,30.31,ESE,108,0.0,1.0,87,0.00,,---,0.00,VWS V14.01,2013-10-10 08:21:00,
2013-10-10 04:22:00,44.0,39.8,30.34,SSE,156,0.0,2.0,85,0.00,,---,0.00,VWS V14.01,2013-10-10 08:22:00,
2013-10-10 04:23:00,44.0,39.8,30.34,ESE,122,0.0,2.0,85,0.00,,---,0.00,VWS V14.01,2013-10-10 08:23:00,
2013-10-10 04:24:00,44.0,40.1,30.34,ESE,118,1.0,2.0,86,0.00,,---,0.00,VWS V14.01,2013-10-10 08:24:00,
2013-10-10 04:25:00,44.0,40.1,30.34,ESE,107,1.0,1.0,86,0.00,,---,0.00,VWS V14.01,2013-10-10 08:25:00,
2013-10-10 04:26:00,43.7,40.1,30.31,ESE,102,0.0,2.0,87,0.00,,---,0.00,VWS V14.01,2013-10-10 08:26:00,
2013-10-10 04:27:00,43.9,40.0,30.34,ESE,104,0.0,2.0,86,0.00,,---,0.00,VWS V14.01,2013-10-10 08:27:00,
2013-10-10 04:28:00,43.9,40.0,30.34,ESE,104,1.0,2.0,86,0.00,,---,0.00,VWS V14.01,2013-10-10 08:28:00,
2013-10-10 04:29:00,43.9,40.0,30.34,ESE,105,0.0,2.0,86,0.00,,---,0.00,VWS V14.01,2013-10-10 08:29:00,
2013-10-10 04:30:00,43.9,40.0,30.34,ESE,110,0.0,2.0,86,0.00,,---,0.00,VWS V14.01,2013-10-10 08:30:00,
2013-10-10 04:31:00,43.8,39.9,30.34,ESE,104,1.0,2.0,86,0.00,,---,0.00,VWS V14.01,2013-10-10 08:31:00,
2013-10-10 04:32:00,43.7,40.1,30.31,East,81,1.0,1.0,87,0.00,,---,0.00,VWS V14.01,2013-10-10 08:32:00,
2013-10-10 04:33:00,43.8,39.9,30.34,ESE,110,0.0,1.0,86,0.00,,---,0.00,VWS V14.01,2013-10-10 08:33:00,
2013-10-10 04:34:00,43.9,40.0,30.34,ESE,115,1.0,1.0,86,0.00,,---,0.00,VWS V14.01,2013-10-10 08:34:00,
2013-10-10 04:35:00,43.9,40.3,30.34,SE,127,1.0,1.0,87,0.00,,---,0.00,VWS V14.01,2013-10-10 08:35:00,
2013-10-10 04:36:00,43.9,40.0,30.34,ESE,108,1.0,2.0,86,0.00,,---,0.00,VWS V14.01,2013-10-10 08:36:00,
2013-10-10 04:37:00,43.5,40.2,30.31,East,83,0.0,1.0,88,0.00,,---,0.00,VWS V14.01,2013-10-10 08:37:00,
2013-10-10 04:38:00,43.9,40.0,30.33,East,97,1.0,2.0,86,0.00,,---,0.00,VWS V14.01,2013-10-10 08:38:00,
2013-10-10 04:39:00,43.9,40.0,30.33,ESE,118,1.0,2.0,86,0.00,,---,0.00,VWS V14.01,2013-10-10 08:39:00,
2013-10-10 04:40:00,43.8,39.9,30.33,SE,135,1.0,2.0,86,0.00,,---,0.00,VWS V14.01,2013-10-10 08:40:00,
2013-10-10 04:41:00,43.8,39.9,30.33,ESE,104,1.0,2.0,86,0.00,,---,0.00,VWS V14.01,2013-10-10 08:41:00,
2013-10-10 04:42:00,43.4,40.1,30.31,East,85,0.0,1.0,88,0.00,,---,0.00,VWS V14.01,2013-10-10 08:42:00,
2013-10-10 04:43:00,43.7,40.1,30.33,ESE,108,1.0,1.0,87,0.00,,---,0.00,VWS V14.01,2013-10-10 08:43:00,
2013-10-10 04:44:00,43.6,40.0,30.33,ESE,114,1.0,2.0,87,0.00,,---,0.00,VWS V14.01,2013-10-10 08:44:00,
2013-10-10 04:45:00,43.6,40.0,30.33,ESE,104,1.0,2.0,87,0.00,,---,0.00,VWS V14.01,2013-10-10 08:45:00,
2013-10-10 04:46:00,43.6,40.0,30.33,ESE,108,1.0,2.0,87,0.00,,---,0.00,VWS V14.01,2013-10-10 08:46:00,
2013-10-10 04:47:00,43.5,40.2,30.31,East,88,0.0,1.0,88,0.00,,---,0.00,VWS V14.01,2013-10-10 08:47:00,
2013-10-10 04:48:00,43.5,39.9,30.33,ESE,108,1.0,2.0,87,0.00,,---,0.00,VWS V14.01,2013-10-10 08:48:00,
2013-10-10 04:49:00,43.5,39.9,30.34,East,101,1.0,2.0,87,0.00,,---,0.00,VWS V14.01,2013-10-10 08:49:00,
2013-10-10 04:50:00,43.5,39.9,30.33,ESE,113,1.0,2.0,87,0.00,,---,0.00,VWS V14.01,2013-10-10 08:50:00,
2013-10-10 04:51:00,43.4,39.8,30.33,SE,129,2.0,2.0,87,0.00,,---,0.00,VWS V14.01,2013-10-10 08:51:00,
2013-10-10 04:52:00,43.5,40.2,30.31,East,87,1.0,1.0,88,0.00,,---,0.00,VWS V14.01,2013-10-10 08:52:00,
2013-10-10 04:53:00,43.3,39.7,30.34,SE,128,1.0,3.0,87,0.00,,---,0.00,VWS V14.01,2013-10-10 08:53:00,
2013-10-10 04:54:00,43.3,39.7,30.33,ESE,111,2.0,3.0,87,0.00,,---,0.00,VWS V14.01,2013-10-10 08:54:00,
2013-10-10 04:55:00,43.3,39.7,30.33,ESE,112,1.0,3.0,87,0.00,,---,0.00,VWS V14.01,2013-10-10 08:55:00,
2013-10-10 04:56:00,43.3,39.7,30.33,SE,132,2.0,3.0,87,0.00,,---,0.00,VWS V14.01,2013-10-10 08:56:00,
2013-10-10 04:57:00,43.2,40.2,30.31,East,88,0.0,1.0,89,0.00,,---,0.00,VWS V14.01,2013-10-10 08:57:00,
2013-10-10 04:58:00,43.4,40.1,30.34,SSE,149,3.0,3.0,88,0.00,,---,0.00,VWS V14.01,2013-10-10 08:58:00,
2013-10-10 04:59:00,43.4,40.1,30.34,ESE,120,2.0,3.0,88,0.00,,---,0.00,VWS V14.01,2013-10-10 08:59:00,
2013-10-10 05:00:00,43.5,40.2,30.33,SE,142,3.0,3.0,88,0.00,,---,0.00,VWS V14.01,2013-10-10 09:00:00,
2013-10-10 05:01:00,43.5,40.2,30.33,SE,138,3.0,4.0,88,0.00,,---,0.00,VWS V14.01,2013-10-10 09:01:00,
2013-10-10 05:02:00,43.2,40.2,30.31,East,88,1.0,1.0,89,0.00,,---,0.00,VWS V14.01,2013-10-10 09:02:00,
2013-10-10 05:03:00,43.6,40.3,30.33,SE,139,2.0,4.0,88,0.00,,---,0.00,VWS V14.01,2013-10-10 09:03:00,
2013-10-10 05:04:00,43.7,40.4,30.33,SE,144,2.0,4.0,88,0.00,,---,0.00,VWS V14.01,2013-10-10 09:04:00,
2013-10-10 05:05:00,43.8,40.2,30.33,SSE,150,3.0,4.0,87,0.00,,---,0.00,VWS V14.01,2013-10-10 09:05:00,
2013-10-10 05:06:00,43.8,40.2,30.33,SSE,149,3.0,3.0,87,0.00,,---,0.00,VWS V14.01,2013-10-10 09:06:00,
2013-10-10 05:07:00,42.7,39.7,30.31,East,88,0.0,2.0,89,0.00,,---,0.00,VWS V14.01,2013-10-10 09:07:00,
2013-10-10 05:08:00,43.9,40.3,30.33,SE,140,2.0,4.0,87,0.00,,---,0.00,VWS V14.01,2013-10-10 09:08:00,
2013-10-10 05:09:00,43.9,40.3,30.33,SE,129,3.0,4.0,87,0.00,,---,0.00,VWS V14.01,2013-10-10 09:09:00,
2013-10-10 05:10:00,44.0,40.4,30.33,SSE,153,2.0,4.0,87,0.00,,---,0.00,VWS V14.01,2013-10-10 09:10:00,
2013-10-10 05:11:00,44.1,40.5,30.33,SE,143,2.0,4.0,87,0.00,,---,0.00,VWS V14.01,2013-10-10 09:11:00,
2013-10-10 05:12:00,42.6,39.9,30.31,East,88,0.0,1.0,90,0.00,,---,0.00,VWS V14.01,2013-10-10 09:12:00,
2013-10-10 05:13:00,44.1,40.5,30.33,SSE,148,3.0,4.0,87,0.00,,---,0.00,VWS V14.01,2013-10-10 09:13:00,
2013-10-10 05:14:00,44.1,40.5,30.33,SSE,165,4.0,5.0,87,0.00,,---,0.00,VWS V14.01,2013-10-10 09:14:00,
2013-10-10 05:15:00,44.2,40.6,30.33,SE,134,1.0,5.0,87,0.00,,---,0.00,VWS V14.01,2013-10-10 09:15:00,
2013-10-10 05:16:00,44.2,40.6,30.33,SE,126,2.0,5.0,87,0.00,,---,0.00,VWS V14.01,2013-10-10 09:16:00,
2013-10-10 05:17:00,42.2,38.9,30.31,East,88,0.0,0.0,88,0.00,,---,0.00,VWS V14.01,2013-10-10 09:17:00,
2013-10-10 05:18:00,44.2,40.6,30.33,SSE,153,3.0,5.0,87,0.00,,---,0.00,VWS V14.01,2013-10-10 09:18:00,
2013-10-10 05:19:00,44.2,40.6,30.33,SE,144,3.0,5.0,87,0.00,,---,0.00,VWS V14.01,2013-10-10 09:19:00,
2013-10-10 05:20:00,44.2,40.6,30.33,SSE,156,4.0,5.0,87,0.00,,---,0.00,VWS V14.01,2013-10-10 09:20:00,
2013-10-10 05:21:00,44.2,40.6,30.33,SE,146,4.0,5.0,87,0.00,,---,0.00,VWS V14.01,2013-10-10 09:21:00,
2013-10-10 05:22:00,41.4,38.4,30.31,East,88,0.0,1.0,89,0.00,,---,0.00,VWS V14.01,2013-10-10 09:22:00,
2013-10-10 05:23:00,44.2,40.6,30.33,SSE,158,2.0,5.0,87,0.00,,---,0.00,VWS V14.01,2013-10-10 09:23:00,
2013-10-10 05:24:00,44.2,40.6,30.33,SSE,162,3.0,5.0,87,0.00,,---,0.00,VWS V14.01,2013-10-10 09:24:00,
2013-10-10 05:25:00,44.2,40.6,30.33,SE,135,3.0,5.0,87,0.00,,---,0.00,VWS V14.01,2013-10-10 09:25:00,
2013-10-10 05:26:00,44.3,40.7,30.33,SSE,158,2.0,4.0,87,0.00,,---,0.00,VWS V14.01,2013-10-10 09:26:00,
2013-10-10 05:27:00,40.9,38.5,30.31,East,88,0.0,1.0,91,0.00,,---,0.00,VWS V14.01,2013-10-10 09:27:00,
2013-10-10 05:28:00,44.3,40.7,30.33,SE,144,2.0,4.0,87,0.00,,---,0.00,VWS V14.01,2013-10-10 09:28:00,
2013-10-10 05:29:00,44.3,40.7,30.33,SE,131,2.0,4.0,87,0.00,,---,0.00,VWS V14.01,2013-10-10 09:29:00,
2013-10-10 05:30:00,44.3,40.7,30.33,SE,132,1.0,4.0,87,0.00,,---,0.00,VWS V14.01,2013-10-10 09:30:00,
2013-10-10 05:31:00,44.3,40.7,30.33,SSE,149,2.0,4.0,87,0.00,,---,0.00,VWS V14.01,2013-10-10 09:31:00,
2013-10-10 05:32:00,40.8,38.7,30.31,East,88,0.0,1.0,92,0.00,,---,0.00,VWS V14.01,2013-10-10 09:32:00,
2013-10-10 05:33:00,44.3,40.7,30.33,SE,132,1.0,3.0,87,0.00,,---,0.00,VWS V14.01,2013-10-10 09:33:00,
2013-10-10 05:34:00,44.3,40.7,30.33,ESE,121,1.0,3.0,87,0.00,,---,0.00,VWS V14.01,2013-10-10 09:34:00,
2013-10-10 05:35:00,44.3,40.7,30.33,SSE,167,3.0,3.0,87,0.00,,---,0.00,VWS V14.01,2013-10-10 09:35:00,
2013-10-10 05:36:00,44.3,40.7,30.33,SE,132,1.0,3.0,87,0.00,,---,0.00,VWS V14.01,2013-10-10 09:36:00,
2013-10-10 05:37:00,40.3,37.9,30.31,East,87,0.0,0.0,91,0.00,,---,0.00,VWS V14.01,2013-10-10 09:37:00,
2013-10-10 05:38:00,44.4,40.8,30.33,SSE,153,2.0,3.0,87,0.00,,---,0.00,VWS V14.01,2013-10-10 09:38:00,
2013-10-10 05:39:00,44.3,40.7,30.33,ESE,114,1.0,3.0,87,0.00,,---,0.00,VWS V14.01,2013-10-10 09:39:00,
2013-10-10 05:40:00,44.3,40.7,30.33,SSE,148,1.0,3.0,87,0.00,,---,0.00,VWS V14.01,2013-10-10 09:40:00,
2013-10-10 05:41:00,44.3,40.7,30.32,SSE,155,1.0,2.0,87,0.00,,---,0.00,VWS V14.01,2013-10-10 09:41:00,
2013-10-10 05:42:00,40.5,38.6,30.31,East,87,0.0,2.0,93,0.00,,---,0.00,VWS V14.01,2013-10-10 09:42:00,
2013-10-10 05:43:00,44.3,40.7,30.32,SE,139,0.0,2.0,87,0.00,,---,0.00,VWS V14.01,2013-10-10 09:43:00,
2013-10-10 05:44:00,44.3,40.7,30.32,SE,139,0.0,2.0,87,0.00,,---,0.00,VWS V14.01,2013-10-10 09:44:00,
2013-10-10 05:45:00,44.3,40.7,30.32,SE,139,0.0,2.0,87,0.00,,---,0.00,VWS V14.01,2013-10-10 09:45:00,
2013-10-10 05:46:00,44.3,40.7,30.32,ESE,108,1.0,2.0,87,0.00,,---,0.00,VWS V14.01,2013-10-10 09:46:00,
2013-10-10 05:47:00,40.8,38.9,30.31,East,87,0.0,1.0,93,0.00,,---,0.00,VWS V14.01,2013-10-10 09:47:00,
2013-10-10 05:48:00,44.3,40.7,30.32,ESE,113,0.0,1.0,87,0.00,,---,0.00,VWS V14.01,2013-10-10 09:48:00,
2013-10-10 05:49:00,44.3,40.7,30.32,SE,139,0.0,2.0,87,0.00,,---,0.00,VWS V14.01,2013-10-10 09:49:00,
2013-10-10 05:50:00,44.3,40.7,30.32,ESE,120,0.0,2.0,87,0.00,,---,0.00,VWS V14.01,2013-10-10 09:50:00,
2013-10-10 05:51:00,44.3,40.7,30.32,ESE,113,1.0,2.0,87,0.00,,---,0.00,VWS V14.01,2013-10-10 09:51:00,
2013-10-10 05:52:00,40.8,38.9,30.31,East,87,0.0,1.0,93,0.00,,---,0.00,VWS V14.01,2013-10-10 09:52:00,
2013-10-10 05:53:00,44.3,40.7,30.32,SE,125,0.0,2.0,87,0.00,,---,0.00,VWS V14.01,2013-10-10 09:53:00,
2013-10-10 05:54:00,44.3,40.7,30.32,SE,131,0.0,1.0,87,0.00,,---,0.00,VWS V14.01,2013-10-10 09:54:00,
2013-10-10 05:55:00,44.3,40.7,30.32,SE,131,0.0,1.0,87,0.00,,---,0.00,VWS V14.01,2013-10-10 09:55:00,
2013-10-10 05:56:00,44.4,40.8,30.32,SE,131,0.0,1.0,87,0.00,,---,0.00,VWS V14.01,2013-10-10 09:56:00,
2013-10-10 05:57:00,41.3,39.4,30.31,East,87,0.0,1.0,93,0.00,,---,0.00,VWS V14.01,2013-10-10 09:57:00,
2013-10-10 05:58:00,44.4,40.8,30.32,SE,131,0.0,1.0,87,0.00,,---,0.00,VWS V14.01,2013-10-10 09:58:00,
2013-10-10 05:59:00,44.3,40.7,30.32,SE,131,0.0,0.0,87,0.00,,---,0.00,VWS V14.01,2013-10-10 09:59:00,
2013-10-10 06:00:00,44.3,40.7,30.32,SE,131,0.0,1.0,87,0.00,,---,0.00,VWS V14.01,2013-10-10 10:00:00,
2013-10-10 06:01:00,44.3,40.7,30.32,SE,131,0.0,1.0,87,0.00,,---,0.00,VWS V14.01,2013-10-10 10:01:00,
2013-10-10 06:02:00,41.9,39.8,30.31,East,88,0.0,1.0,92,0.00,,---,0.00,VWS V14.01,2013-10-10 10:02:00,
2013-10-10 06:03:00,44.2,40.6,30.31,ESE,117,0.0,1.0,87,0.00,,---,0.00,VWS V14.01,2013-10-10 10:03:00,
2013-10-10 06:04:00,44.2,40.6,30.31,ESE,117,0.0,1.0,87,0.00,,---,0.00,VWS V14.01,2013-10-10 10:04:00,
2013-10-10 06:05:00,44.2,40.6,30.31,ESE,115,0.0,1.0,87,0.00,,---,0.00,VWS V14.01,2013-10-10 10:05:00,
2013-10-10 06:06:00,44.2,40.6,30.31,ESE,116,0.0,1.0,87,0.00,,---,0.00,VWS V14.01,2013-10-10 10:06:00,
2013-10-10 06:07:00,42.0,39.6,30.31,East,88,0.0,1.0,91,0.00,,---,0.00,VWS V14.01,2013-10-10 10:07:00,
2013-10-10 06:08:00,44.2,40.6,30.31,ESE,115,0.0,1.0,87,0.00,,---,0.00,VWS V14.01,2013-10-10 10:08:00,
2013-10-10 06:09:00,44.2,40.6,30.31,ESE,116,0.0,1.0,87,0.00,,---,0.00,VWS V14.01,2013-10-10 10:09:00,
2013-10-10 06:10:00,44.2,40.6,30.31,ESE,116,0.0,0.0,87,0.00,,---,0.00,VWS V14.01,2013-10-10 10:10:00,
2013-10-10 06:11:00,44.2,40.6,30.31,ESE,116,0.0,0.0,87,0.00,,---,0.00,VWS V14.01,2013-10-10 10:11:00,
2013-10-10 06:12:00,41.8,39.4,30.31,East,88,0.0,0.0,91,0.00,,---,0.00,VWS V14.01,2013-10-10 10:12:00,
2013-10-10 06:13:00,44.1,40.5,30.31,ESE,115,0.0,0.0,87,0.00,,---,0.00,VWS V14.01,2013-10-10 10:13:00,
2013-10-10 06:14:00,44.1,40.5,30.31,ESE,116,0.0,0.0,87,0.00,,---,0.00,VWS V14.01,2013-10-10 10:14:00,
2013-10-10 06:15:00,44.0,40.4,30.31,ESE,116,0.0,0.0,87,0.00,,---,0.00,VWS V14.01,2013-10-10 10:15:00,
2013-10-10 06:16:00,43.9,40.3,30.31,ESE,116,0.0,0.0,87,0.00,,---,0.00,VWS V14.01,2013-10-10 10:16:00,
2013-10-10 06:17:00,41.4,39.0,30.31,East,87,0.0,1.0,91,0.00,,---,0.00,VWS V14.01,2013-10-10 10:17:00,
2013-10-10 06:18:00,43.9,40.3,30.31,ESE,116,0.0,1.0,87,0.00,,---,0.00,VWS V14.01,2013-10-10 10:18:00,
2013-10-10 06:19:00,43.9,40.3,30.31,ESE,116,0.0,1.0,87,0.00,,---,0.00,VWS V14.01,2013-10-10 10:19:00,
2013-10-10 06:20:00,43.8,40.2,30.31,ESE,108,0.0,1.0,87,0.00,,---,0.00,VWS V14.01,2013-10-10 10:20:00,
2013-10-10 06:21:00,43.8,40.5,30.31,East,94,1.0,2.0,88,0.00,,---,0.00,VWS V14.01,2013-10-10 10:21:00,
2013-10-10 06:22:00,41.1,39.0,30.31,East,87,0.0,0.0,92,0.00,,---,0.00,VWS V14.01,2013-10-10 10:22:00,
2013-10-10 06:23:00,43.8,40.5,30.31,ESE,102,0.0,2.0,88,0.00,,---,0.00,VWS V14.01,2013-10-10 10:23:00,
2013-10-10 06:24:00,43.8,40.5,30.31,ESE,102,0.0,2.0,88,0.00,,---,0.00,VWS V14.01,2013-10-10 10:24:00,
2013-10-10 06:25:00,43.7,40.1,30.31,ESE,102,0.0,2.0,87,0.00,,---,0.00,VWS V14.01,2013-10-10 10:25:00,
2013-10-10 06:26:00,43.7,40.1,30.31,East,101,0.0,1.0,87,0.00,,---,0.00,VWS V14.01,2013-10-10 10:26:00,
2013-10-10 06:27:00,41.5,39.1,30.31,East,88,0.0,1.0,91,0.00,,---,0.00,VWS V14.01,2013-10-10 10:27:00,
2013-10-10 06:28:00,43.7,40.4,30.31,ESE,102,1.0,1.0,88,0.00,,---,0.00,VWS V14.01,2013-10-10 10:28:00,
2013-10-10 06:29:00,43.7,40.4,30.31,East,81,0.0,1.0,88,0.00,,---,0.00,VWS V14.01,2013-10-10 10:29:00,
2013-10-10 06:30:00,43.7,40.4,30.31,East,81,1.0,1.0,88,0.00,,---,0.00,VWS V14.01,2013-10-10 10:30:00,
2013-10-10 06:31:00,43.7,40.1,30.31,East,81,1.0,1.0,87,0.00,,---,0.00,VWS V14.01,2013-10-10 10:31:00,
2013-10-10 06:32:00,41.6,39.2,30.31,East,88,0.0,1.0,91,0.00,,---,0.00,VWS V14.01,2013-10-10 10:32:00,
2013-10-10 06:33:00,43.6,40.3,30.31,East,82,1.0,1.0,88,0.00,,---,0.00,VWS V14.01,2013-10-10 10:33:00,
2013-10-10 06:34:00,43.5,40.2,30.31,East,84,1.0,1.0,88,0.00,,---,0.00,VWS V14.01,2013-10-10 10:34:00,
2013-10-10 06:35:00,43.5,40.2,30.31,East,83,1.0,1.0,88,0.00,,---,0.00,VWS V14.01,2013-10-10 10:35:00,
2013-10-10 06:36:00,43.5,40.2,30.31,East,83,0.0,1.0,88,0.00,,---,0.00,VWS V14.01,2013-10-10 10:36:00,
2013-10-10 06:37:00,42.0,39.6,30.31,SSE,149,0.0,1.0,91,0.00,,---,0.00,VWS V14.01,2013-10-10 10:37:00,
2013-10-10 06:38:00,43.4,40.1,30.31,East,85,1.0,1.0,88,0.00,,---,0.00,VWS V14.01,2013-10-10 10:38:00,
2013-10-10 06:39:00,43.4,40.1,30.31,East,85,0.0,1.0,88,0.00,,---,0.00,VWS V14.01,2013-10-10 10:39:00,
2013-10-10 06:40:00,43.4,40.1,30.31,East,85,0.0,1.0,88,0.00,,---,0.00,VWS V14.01,2013-10-10 10:40:00,
2013-10-10 06:41:00,43.4,40.1,30.31,East,85,0.0,1.0,88,0.00,,---,0.00,VWS V14.01,2013-10-10 10:41:00,
2013-10-10 06:42:00,42.1,39.4,30.32,SSE,154,0.0,1.0,90,0.00,,---,0.00,VWS V14.01,2013-10-10 10:42:00,
2013-10-10 06:43:00,43.5,40.2,30.31,East,87,0.0,1.0,88,0.00,,---,0.00,VWS V14.01,2013-10-10 10:43:00,
2013-10-10 06:44:00,43.5,40.2,30.31,East,88,0.0,1.0,88,0.00,,---,0.00,VWS V14.01,2013-10-10 10:44:00,
2013-10-10 06:45:00,43.5,40.2,30.31,East,88,0.0,1.0,88,0.00,,---,0.00,VWS V14.01,2013-10-10 10:45:00,
2013-10-10 06:46:00,43.5,40.2,30.31,East,88,0.0,1.0,88,0.00,,---,0.00,VWS V14.01,2013-10-10 10:46:00,
2013-10-10 06:47:00,42.0,39.3,30.32,South,177,2.0,3.0,90,0.00,,---,0.00,VWS V14.01,2013-10-10 10:47:00,
2013-10-10 06:48:00,43.6,40.3,30.31,East,88,0.0,0.0,88,0.00,,---,0.00,VWS V14.01,2013-10-10 10:48:00,
2013-10-10 06:49:00,43.5,40.2,30.31,East,87,1.0,1.0,88,0.00,,---,0.00,VWS V14.01,2013-10-10 10:49:00,
2013-10-10 06:50:00,43.5,40.2,30.31,East,88,1.0,1.0,88,0.00,,---,0.00,VWS V14.01,2013-10-10 10:50:00,
2013-10-10 06:51:00,43.5,40.2,30.31,East,87,1.0,1.0,88,0.00,,---,0.00,VWS V14.01,2013-10-10 10:51:00,
2013-10-10 06:52:00,42.3,39.3,30.32,South,181,3.0,3.0,89,0.00,,---,0.00,VWS V14.01,2013-10-10 10:52:00,
2013-10-10 06:53:00,43.4,40.1,30.31,East,88,1.0,1.0,88,0.00,,---,0.00,VWS V14.01,2013-10-10 10:53:00,
2013-10-10 06:54:00,43.3,40.0,30.31,East,88,1.0,1.0,88,0.00,,---,0.00,VWS V14.01,2013-10-10 10:54:00,
2013-10-10 06:55:00,43.2,39.9,30.31,East,88,1.0,1.0,88,0.00,,---,0.00,VWS V14.01,2013-10-10 10:55:00,
2013-10-10 06:56:00,43.2,40.2,30.31,East,88,0.0,1.0,89,0.00,,---,0.00,VWS V14.01,2013-10-10 10:56:00,
2013-10-10 06:57:00,42.8,39.8,30.32,South,169,2.0,4.0,89,0.00,,---,0.00,VWS V14.01,2013-10-10 10:57:00,
2013-10-10 06:58:00,43.1,40.1,30.31,East,88,1.0,1.0,89,0.00,,---,0.00,VWS V14.01,2013-10-10 10:58:00,
2013-10-10 06:59:00,43.2,40.2,30.31,East,87,0.0,1.0,89,0.00,,---,0.00,VWS V14.01,2013-10-10 10:59:00,
2013-10-10 07:00:00,43.2,40.2,30.31,East,88,1.0,1.0,89,0.00,,---,0.00,VWS V14.01,2013-10-10 11:00:00,
2013-10-10 07:01:00,43.2,40.2,30.31,East,88,1.0,1.0,89,0.00,,---,0.00,VWS V14.01,2013-10-10 11:01:00,
2013-10-10 07:02:00,43.1,39.8,30.32,SSE,150,2.0,4.0,88,0.00,,---,0.00,VWS V14.01,2013-10-10 11:02:00,
2013-10-10 07:03:00,43.1,40.1,30.31,East,88,2.0,2.0,89,0.00,,---,0.00,VWS V14.01,2013-10-10 11:03:00,
2013-10-10 07:04:00,42.9,39.6,30.31,East,89,1.0,2.0,88,0.00,,---,0.00,VWS V14.01,2013-10-10 11:04:00,
2013-10-10 07:05:00,42.8,39.5,30.31,East,87,1.0,2.0,88,0.00,,---,0.00,VWS V14.01,2013-10-10 11:05:00,
2013-10-10 07:06:00,42.7,39.7,30.31,East,88,0.0,2.0,89,0.00,,---,0.00,VWS V14.01,2013-10-10 11:06:00,
2013-10-10 07:07:00,43.3,39.7,30.32,SE,128,1.0,3.0,87,0.00,,---,0.00,VWS V14.01,2013-10-10 11:07:00,
2013-10-10 07:08:00,42.6,39.6,30.31,East,87,0.0,2.0,89,0.00,,---,0.00,VWS V14.01,2013-10-10 11:08:00,
2013-10-10 07:09:00,42.6,39.9,30.31,East,88,1.0,2.0,90,0.00,,---,0.00,VWS V14.01,2013-10-10 11:09:00,
2013-10-10 07:10:00,42.6,39.9,30.31,East,88,0.0,1.0,90,0.00,,---,0.00,VWS V14.01,2013-10-10 11:10:00,
2013-10-10 07:11:00,42.6,39.9,30.31,East,88,0.0,1.0,90,0.00,,---,0.00,VWS V14.01,2013-10-10 11:11:00,
2013-10-10 07:12:00,43.3,39.7,30.32,SE,126,2.0,4.0,87,0.00,,---,0.00,VWS V14.01,2013-10-10 11:12:00,
2013-10-10 07:13:00,42.6,39.9,30.31,East,88,0.0,1.0,90,0.00,,---,0.00,VWS V14.01,2013-10-10 11:13:00,
2013-10-10 07:14:00,42.5,39.5,30.31,East,88,0.0,0.0,89,0.00,,---,0.00,VWS V14.01,2013-10-10 11:14:00,
2013-10-10 07:15:00,42.4,39.4,30.31,East,88,0.0,0.0,89,0.00,,---,0.00,VWS V14.01,2013-10-10 11:15:00,
2013-10-10 07:16:00,42.2,38.9,30.31,East,88,0.0,0.0,88,0.00,,---,0.00,VWS V14.01,2013-10-10 11:16:00,
2013-10-10 07:17:00,43.4,39.8,30.32,SE,128,1.0,4.0,87,0.00,,---,0.00,VWS V14.01,2013-10-10 11:17:00,
2013-10-10 07:18:00,41.9,38.6,30.31,East,87,0.0,0.0,88,0.00,,---,0.00,VWS V14.01,2013-10-10 11:18:00,
2013-10-10 07:19:00,41.8,38.5,30.31,East,87,0.0,0.0,88,0.00,,---,0.00,VWS V14.01,2013-10-10 11:19:00,
2013-10-10 07:20:00,41.5,38.5,30.31,East,88,0.0,1.0,89,0.00,,---,0.00,VWS V14.01,2013-10-10 11:20:00,
2013-10-10 07:21:00,41.4,38.4,30.31,East,88,0.0,1.0,89,0.00,,---,0.00,VWS V14.01,2013-10-10 11:21:00,
2013-10-10 07:22:00,43.5,39.9,30.32,SE,136,2.0,3.0,87,0.00,,---,0.00,VWS V14.01,2013-10-10 11:22:00,
2013-10-10 07:23:00,41.1,38.4,30.31,East,88,0.0,1.0,90,0.00,,---,0.00,VWS V14.01,2013-10-10 11:23:00,
2013-10-10 07:24:00,40.9,38.2,30.31,East,88,0.0,1.0,90,0.00,,---,0.00,VWS V14.01,2013-10-10 11:24:00,
2013-10-10 07:25:00,40.9,38.5,30.31,East,88,0.0,1.0,91,0.00,,---,0.00,VWS V14.01,2013-10-10 11:25:00,
2013-10-10 07:26:00,40.9,38.5,30.31,East,88,0.0,1.0,91,0.00,,---,0.00,VWS V14.01,2013-10-10 11:26:00,
2013-10-10 07:27:00,43.8,40.2,30.32,SSE,158,3.0,5.0,87,0.00,,---,0.00,VWS V14.01,2013-10-10 11:27:00,
2013-10-10 07:28:00,40.9,38.8,30.31,East,88,0.0,1.0,92,0.00,,---,0.00,VWS V14.01,2013-10-10 11:28:00,
2013-10-10 07:29:00,40.9,38.8,30.31,East,88,0.0,1.0,92,0.00,,---,0.00,VWS V14.01,2013-10-10 11:29:00,
2013-10-10 07:30:00,40.8,38.7,30.31,East,88,0.0,1.0,92,0.00,,---,0.00,VWS V14.01,2013-10-10 11:30:00,
2013-10-10 07:31:00,40.8,38.7,30.31,East,88,0.0,1.0,92,0.00,,---,0.00,VWS V14.01,2013-10-10 11:31:00,
2013-10-10 07:32:00,44.0,40.1,30.32,SSE,150,2.0,6.0,86,0.00,,---,0.00,VWS V14.01,2013-10-10 11:32:00,
2013-10-10 07:33:00,40.6,38.2,30.31,East,87,0.0,0.0,91,0.00,,---,0.00,VWS V14.01,2013-10-10 11:33:00,
2013-10-10 07:34:00,40.5,38.1,30.31,East,88,0.0,0.0,91,0.00,,---,0.00,VWS V14.01,2013-10-10 11:34:00,
2013-10-10 07:35:00,40.4,38.0,30.31,East,87,0.0,0.0,91,0.00,,---,0.00,VWS V14.01,2013-10-10 11:35:00,
2013-10-10 07:36:00,40.3,37.9,30.31,East,87,0.0,0.0,91,0.00,,---,0.00,VWS V14.01,2013-10-10 11:36:00,
2013-10-10 07:37:00,44.3,40.4,30.32,SSE,150,3.0,4.0,86,0.00,,---,0.00,VWS V14.01,2013-10-10 11:37:00,
2013-10-10 07:38:00,40.3,38.2,30.31,East,87,0.0,0.0,92,0.00,,---,0.00,VWS V14.01,2013-10-10 11:38:00,
2013-10-10 07:39:00,40.3,38.4,30.31,East,87,0.0,0.0,93,0.00,,---,0.00,VWS V14.01,2013-10-10 11:39:00,
2013-10-10 07:40:00,40.4,38.5,30.31,East,87,0.0,0.0,93,0.00,,---,0.00,VWS V14.01,2013-10-10 11:40:00,
2013-10-10 07:41:00,40.5,38.6,30.31,East,87,0.0,2.0,93,0.00,,---,0.00,VWS V14.01,2013-10-10 11:41:00,
2013-10-10 07:42:00,44.8,40.6,30.32,SE,146,1.0,4.0,85,0.00,,---,0.00,VWS V14.01,2013-10-10 11:42:00,
2013-10-10 07:43:00,40.7,39.1,30.31,East,88,0.0,2.0,94,0.00,,---,0.00,VWS V14.01,2013-10-10 11:43:00,
2013-10-10 07:44:00,40.8,39.2,30.31,East,88,0.0,2.0,94,0.00,,---,0.00,VWS V14.01,2013-10-10 11:44:00,
2013-10-10 07:45:00,40.8,38.9,30.31,East,88,0.0,2.0,93,0.00,,---,0.00,VWS V14.01,2013-10-10 11:45:00,
2013-10-10 07:46:00,40.8,38.9,30.31,East,87,0.0,1.0,93,0.00,,---,0.00,VWS V14.01,2013-10-10 11:46:00,
2013-10-10 07:47:00,45.3,41.1,30.32,SSE,162,3.0,5.0,85,0.00,,---,0.00,VWS V14.01,2013-10-10 11:47:00,
2013-10-10 07:48:00,40.8,38.9,30.31,East,87,0.0,1.0,93,0.00,,---,0.00,VWS V14.01,2013-10-10 11:48:00,
2013-10-10 07:49:00,40.8,38.9,30.31,East,88,0.0,1.0,93,0.00,,---,0.00,VWS V14.01,2013-10-10 11:49:00,
2013-10-10 07:50:00,40.8,38.9,30.31,East,88,0.0,1.0,93,0.00,,---,0.00,VWS V14.01,2013-10-10 11:50:00,
2013-10-10 07:51:00,40.8,38.9,30.31,East,87,0.0,1.0,93,0.00,,---,0.00,VWS V14.01,2013-10-10 11:51:00,
2013-10-10 07:52:00,45.5,41.0,30.32,SSE,165,5.0,6.0,84,0.00,,---,0.00,VWS V14.01,2013-10-10 11:52:00,
2013-10-10 07:53:00,41.0,39.1,30.31,East,88,0.0,0.0,93,0.00,,---,0.00,VWS V14.01,2013-10-10 11:53:00,
2013-10-10 07:54:00,41.0,39.1,30.31,East,88,0.0,0.0,93,0.00,,---,0.00,VWS V14.01,2013-10-10 11:54:00,
2013-10-10 07:55:00,41.1,39.2,30.31,East,88,0.0,1.0,93,0.00,,---,0.00,VWS V14.01,2013-10-10 11:55:00,
2013-10-10 07:56:00,41.3,39.4,30.31,East,87,0.0,1.0,93,0.00,,---,0.00,VWS V14.01,2013-10-10 11:56:00,
2013-10-10 07:57:00,45.6,41.0,30.32,SSE,156,2.0,5.0,84,0.00,,---,0.00,VWS V14.01,2013-10-10 11:57:00,
2013-10-10 07:58:00,41.7,39.8,30.31,East,87,0.0,1.0,93,0.00,,---,0.00,VWS V14.01,2013-10-10 11:58:00,
2013-10-10 07:59:00,41.8,39.7,30.31,East,88,0.0,1.0,92,0.00,,---,0.00,VWS V14.01,2013-10-10 11:59:00,
2013-10-10 08:00:00,41.9,39.8,30.31,East,88,0.0,1.0,92,0.00,,---,0.00,VWS V14.01,2013-10-10 12:00:00,
2013-10-10 08:01:00,41.9,39.8,30.31,East,88,0.0,1.0,92,0.00,,---,0.00,VWS V14.01,2013-10-10 12:01:00,
2013-10-10 08:02:00,45.7,41.2,30.31,SSE,160,6.0,6.0,84,0.00,,---,0.00,VWS V14.01,2013-10-10 12:02:00,
2013-10-10 08:03:00,41.9,39.5,30.31,East,88,0.0,1.0,91,0.00,,---,0.00,VWS V14.01,2013-10-10 12:03:00,
2013-10-10 08:04:00,42.0,39.6,30.31,East,87,1.0,1.0,91,0.00,,---,0.00,VWS V14.01,2013-10-10 12:04:00,
2013-10-10 08:05:00,42.0,39.6,30.31,East,87,0.0,1.0,91,0.00,,---,0.00,VWS V14.01,2013-10-10 12:05:00,
2013-10-10 08:06:00,42.0,39.6,30.31,East,88,0.0,1.0,91,0.00,,---,0.00,VWS V14.01,2013-10-10 12:06:00,
2013-10-10 08:07:00,46.0,41.1,30.31,South,169,3.0,6.0,83,0.00,,---,0.00,VWS V14.01,2013-10-10 12:07:00,
2013-10-10 08:08:00,42.0,39.6,30.31,East,87,0.0,1.0,91,0.00,,---,0.00,VWS V14.01,2013-10-10 12:08:00,
2013-10-10 08:09:00,41.9,39.5,30.31,East,88,0.0,1.0,91,0.00,,---,0.00,VWS V14.01,2013-10-10 12:09:00,
2013-10-10 08:10:00,41.9,39.5,30.31,East,88,0.0,0.0,91,0.00,,---,0.00,VWS V14.01,2013-10-10 12:10:00,
2013-10-10 08:11:00,41.8,39.4,30.31,East,88,0.0,0.0,91,0.00,,---,0.00,VWS V14.01,2013-10-10 12:11:00,
2013-10-10 08:12:00,46.2,41.3,30.31,SE,146,4.0,6.0,83,0.00,,---,0.00,VWS V14.01,2013-10-10 12:12:00,
2013-10-10 08:13:00,41.7,39.3,30.31,East,88,0.0,1.0,91,0.00,,---,0.00,VWS V14.01,2013-10-10 12:13:00,
2013-10-10 08:14:00,41.6,39.2,30.31,East,87,0.0,1.0,91,0.00,,---,0.00,VWS V14.01,2013-10-10 12:14:00,
2013-10-10 08:15:00,41.5,39.1,30.31,East,88,0.0,1.0,91,0.00,,---,0.00,VWS V14.01,2013-10-10 12:15:00,
2013-10-10 08:16:00,41.4,39.0,30.31,East,87,0.0,1.0,91,0.00,,---,0.00,VWS V14.01,2013-10-10 12:16:00,
2013-10-10 08:17:00,46.4,41.2,30.31,SSE,150,4.0,6.0,82,0.00,,---,0.00,VWS V14.01,2013-10-10 12:17:00,
2013-10-10 08:18:00,41.1,38.7,30.31,East,88,0.0,1.0,91,0.00,,---,0.00,VWS V14.01,2013-10-10 12:18:00,
2013-10-10 08:19:00,41.1,39.0,30.31,East,88,0.0,1.0,92,0.00,,---,0.00,VWS V14.01,2013-10-10 12:19:00,
2013-10-10 08:20:00,41.0,38.9,30.31,East,87,0.0,0.0,92,0.00,,---,0.00,VWS V14.01,2013-10-10 12:20:00,
2013-10-10 08:21:00,41.1,39.0,30.31,East,87,0.0,0.0,92,0.00,,---,0.00,VWS V14.01,2013-10-10 12:21:00,
2013-10-10 08:22:00,46.7,41.2,30.31,SSE,149,4.0,5.0,81,0.00,,---,0.00,VWS V14.01,2013-10-10 12:22:00,
2013-10-10 08:23:00,41.2,39.1,30.31,East,88,1.0,1.0,92,0.00,,---,0.00,VWS V14.01,2013-10-10 12:23:00,
2013-10-10 08:24:00,41.3,39.2,30.31,East,88,0.0,1.0,92,0.00,,---,0.00,VWS V14.01,2013-10-10 12:24:00,
2013-10-10 08:25:00,41.5,39.3,30.31,East,88,0.0,1.0,92,0.00,,---,0.00,VWS V14.01,2013-10-10 12:25:00,
2013-10-10 08:26:00,41.5,39.1,30.31,East,88,0.0,1.0,91,0.00,,---,0.00,VWS V14.01,2013-10-10 12:26:00,
2013-10-10 08:27:00,46.9,41.4,30.31,SSE,152,1.0,5.0,81,0.00,,---,0.00,VWS V14.01,2013-10-10 12:27:00,
2013-10-10 08:28:00,41.6,39.2,30.31,East,88,0.0,1.0,91,0.00,,---,0.00,VWS V14.01,2013-10-10 12:28:00,
2013-10-10 08:29:00,41.6,39.2,30.31,East,87,0.0,1.0,91,0.00,,---,0.00,VWS V14.01,2013-10-10 12:29:00,
2013-10-10 08:30:00,41.6,39.2,30.31,East,88,0.0,1.0,91,0.00,,---,0.00,VWS V14.01,2013-10-10 12:30:00,
2013-10-10 08:31:00,41.6,39.2,30.31,East,88,0.0,1.0,91,0.00,,---,0.00,VWS V14.01,2013-10-10 12:31:00,
2013-10-10 08:32:00,47.1,41.3,30.31,SE,139,4.0,6.0,80,0.00,,---,0.00,VWS V14.01,2013-10-10 12:32:00,
2013-10-10 08:33:00,41.7,39.3,30.31,ESE,122,0.0,1.0,91,0.00,,---,0.00,VWS V14.01,2013-10-10 12:33:00,
2013-10-10 08:34:00,41.8,39.4,30.32,ESE,121,0.0,1.0,91,0.00,,---,0.00,VWS V14.01,2013-10-10 12:34:00,
2013-10-10 08:35:00,41.9,39.5,30.32,ESE,121,0.0,1.0,91,0.00,,---,0.00,VWS V14.01,2013-10-10 12:35:00,
2013-10-10 08:36:00,42.0,39.6,30.31,SSE,149,0.0,1.0,91,0.00,,---,0.00,VWS V14.01,2013-10-10 12:36:00,
2013-10-10 08:37:00,47.2,41.0,30.31,SSE,150,3.0,7.0,79,0.00,,---,0.00,VWS V14.01,2013-10-10 12:37:00,
2013-10-10 08:38:00,42.1,39.4,30.32,SSE,149,0.0,0.0,90,0.00,,---,0.00,VWS V14.01,2013-10-10 12:38:00,
2013-10-10 08:39:00,42.1,39.4,30.32,SE,146,0.0,1.0,90,0.00,,---,0.00,VWS V14.01,2013-10-10 12:39:00,
2013-10-10 08:40:00,42.1,39.4,30.32,SE,146,1.0,1.0,90,0.00,,---,0.00,VWS V14.01,2013-10-10 12:40:00,
2013-10-10 08:41:00,42.1,39.4,30.32,SSE,154,0.0,1.0,90,0.00,,---,0.00,VWS V14.01,2013-10-10 12:41:00,
2013-10-10 08:42:00,47.2,41.0,30.31,SSE,150,2.0,7.0,79,0.00,,---,0.00,VWS V14.01,2013-10-10 12:42:00,
2013-10-10 08:43:00,42.0,39.3,30.32,SSE,160,0.0,1.0,90,0.00,,---,0.00,VWS V14.01,2013-10-10 12:43:00,
2013-10-10 08:44:00,42.0,39.0,30.32,SSE,154,2.0,2.0,89,0.00,,---,0.00,VWS V14.01,2013-10-10 12:44:00,
2013-10-10 08:45:00,42.0,39.3,30.32,SSE,158,1.0,2.0,90,0.00,,---,0.00,VWS V14.01,2013-10-10 12:45:00,
2013-10-10 08:46:00,42.0,39.3,30.32,South,177,2.0,3.0,90,0.00,,---,0.00,VWS V14.01,2013-10-10 12:46:00,
2013-10-10 08:47:00,47.3,40.8,30.31,SSE,153,5.0,6.0,78,0.00,,---,0.00,VWS V14.01,2013-10-10 12:47:00,
2013-10-10 08:48:00,42.1,39.1,30.32,SE,143,1.0,3.0,89,0.00,,---,0.00,VWS V14.01,2013-10-10 12:48:00,
2013-10-10 08:49:00,42.1,39.4,30.32,SSE,156,1.0,3.0,90,0.00,,---,0.00,VWS V14.01,2013-10-10 12:49:00,
2013-10-10 08:50:00,42.2,39.5,30.32,SSE,162,2.0,3.0,90,0.00,,---,0.00,VWS V14.01,2013-10-10 12:50:00,
2013-10-10 08:51:00,42.3,39.3,30.32,South,181,3.0,3.0,89,0.00,,---,0.00,VWS V14.01,2013-10-10 12:51:00,
2013-10-10 08:52:00,47.5,41.0,30.31,SSE,153,3.0,6.0,78,0.00,,---,0.00,VWS V14.01,2013-10-10 12:52:00,
2013-10-10 08:53:00,42.5,39.5,30.32,SSE,166,2.0,3.0,89,0.00,,---,0.00,VWS V14.01,2013-10-10 12:53:00,
2013-10-10 08:54:00,42.6,39.6,30.32,SSE,153,2.0,3.0,89,0.00,,---,0.00,VWS V14.01,2013-10-10 12:54:00,
2013-10-10 08:55:00,42.7,39.7,30.32,SE,144,2.0,4.0,89,0.00,,---,0.00,VWS V14.01,2013-10-10 12:55:00,
2013-10-10 08:56:00,42.8,39.8,30.32,South,169,2.0,4.0,89,0.00,,---,0.00,VWS V14.01,2013-10-10 12:56:00,
2013-10-10 08:57:00,47.7,40.5,30.31,SE,139,4.0,6.0,76,0.00,,---,0.00,VWS V14.01,2013-10-10 12:57:00,
2013-10-10 08:58:00,42.9,39.6,30.32,SSE,149,2.0,4.0,88,0.00,,---,0.00,VWS V14.01,2013-10-10 12:58:00,
2013-10-10 08:59:00,43.0,39.7,30.32,South,171,3.0,4.0,88,0.00,,---,0.00,VWS V14.01,2013-10-10 12:59:00,
2013-10-10 09:00:00,43.1,39.8,30.32,SSE,166,3.0,4.0,88,0.00,,---,0.00,VWS V14.01,2013-10-10 13:00:00,
2013-10-10 09:01:00,43.1,39.8,30.32,SSE,150,2.0,4.0,88,0.00,,---,0.00,VWS V14.01,2013-10-10 13:01:00,
2013-10-10 09:02:00,48.0,41.2,30.31,SSE,154,2.0,6.0,77,0.00,,---,0.00,VWS V14.01,2013-10-10 13:02:00,
2013-10-10 09:03:00,43.2,39.9,30.32,SE,146,3.0,4.0,88,0.00,,---,0.00,VWS V14.01,2013-10-10 13:03:00,
2013-10-10 09:04:00,43.3,40.0,30.32,SE,139,1.0,4.0,88,0.00,,---,0.00,VWS V14.01,2013-10-10 13:04:00,
2013-10-10 09:05:00,43.3,39.7,30.32,SSE,150,2.0,4.0,87,0.00,,---,0.00,VWS V14.01,2013-10-10 13:05:00,
2013-10-10 09:06:00,43.3,39.7,30.32,SE,128,1.0,3.0,87,0.00,,---,0.00,VWS V14.01,2013-10-10 13:06:00,
2013-10-10 09:07:00,48.5,41.3,30.31,SSE,150,5.0,6.0,76,0.00,,---,0.00,VWS V14.01,2013-10-10 13:07:00,
2013-10-10 09:08:00,43.3,39.7,30.32,ESE,114,3.0,3.0,87,0.00,,---,0.00,VWS V14.01,2013-10-10 13:08:00,
2013-10-10 09:09:00,43.4,39.8,30.32,SE,146,3.0,4.0,87,0.00,,---,0.00,VWS V14.01,2013-10-10 13:09:00,
2013-10-10 09:10:00,43.4,39.8,30.32,SSE,156,2.0,4.0,87,0.00,,---,0.00,VWS V14.01,2013-10-10 13:10:00,
2013-10-10 09:11:00,43.3,39.7,30.32,SE,126,2.0,4.0,87,0.00,,---,0.00,VWS V14.01,2013-10-10 13:11:00,
2013-10-10 09:12:00,48.9,39.9,30.31,ESE,115,7.0,8.0,71,0.00,,---,0.00,VWS V14.01,2013-10-10 13:12:00,
2013-10-10 09:13:00,43.3,39.7,30.32,SE,132,1.0,4.0,87,0.00,,---,0.00,VWS V14.01,2013-10-10 13:13:00,
2013-10-10 09:14:00,43.3,39.7,30.32,SSE,159,1.0,4.0,87,0.00,,---,0.00,VWS V14.01,2013-10-10 13:14:00,
2013-10-10 09:15:00,43.3,39.7,30.32,SE,132,1.0,4.0,87,0.00,,---,0.00,VWS V14.01,2013-10-10 13:15:00,
2013-10-10 09:16:00,43.4,39.8,30.32,SE,128,1.0,4.0,87,0.00,,---,0.00,VWS V14.01,2013-10-10 13:16:00,
2013-10-10 09:17:00,49.1,39.8,30.31,SE,131,4.0,7.0,70,0.00,,---,0.00,VWS V14.01,2013-10-10 13:17:00,
2013-10-10 09:18:00,43.4,39.8,30.32,SE,143,2.0,4.0,87,0.00,,---,0.00,VWS V14.01,2013-10-10 13:18:00,
2013-10-10 09:19:00,43.4,39.8,30.32,SSE,159,2.0,4.0,87,0.00,,---,0.00,VWS V14.01,2013-10-10 13:19:00,
2013-10-10 09:20:00,43.5,39.9,30.32,SE,146,1.0,4.0,87,0.00,,---,0.00,VWS V14.01,2013-10-10 13:20:00,
2013-10-10 09:21:00,43.5,39.9,30.32,SE,136,2.0,3.0,87,0.00,,---,0.00,VWS V14.01,2013-10-10 13:21:00,
2013-10-10 09:22:00,49.4,39.7,30.31,SE,126,3.0,7.0,69,0.00,,---,0.00,VWS V14.01,2013-10-10 13:22:00,
2013-10-10 09:23:00,43.6,40.0,30.32,SE,139,2.0,5.0,87,0.00,,---,0.00,VWS V14.01,2013-10-10 13:23:00,
2013-10-10 09:24:00,43.7,40.1,30.32,SSE,166,3.0,5.0,87,0.00,,---,0.00,VWS V14.01,2013-10-10 13:24:00,
2013-10-10 09:25:00,43.7,40.1,30.32,SE,139,2.0,5.0,87,0.00,,---,0.00,VWS V14.01,2013-10-10 13:25:00,
2013-10-10 09:26:00,43.8,40.2,30.32,SSE,158,3.0,5.0,87,0.00,,---,0.00,VWS V14.01,2013-10-10 13:26:00,
2013-10-10 09:27:00,49.5,38.6,30.31,ESE,118,6.0,8.0,66,0.00,,---,0.00,VWS V14.01,2013-10-10 13:27:00,
2013-10-10 09:28:00,43.9,40.0,30.32,ESE,117,2.0,5.0,86,0.00,,---,0.00,VWS V14.01,2013-10-10 13:28:00,
2013-10-10 09:29:00,44.0,40.1,30.32,SE,141,3.0,5.0,86,0.00,,---,0.00,VWS V14.01,2013-10-10 13:29:00,
2013-10-10 09:30:00,44.0,40.1,30.32,SSE,160,4.0,6.0,86,0.00,,---,0.00,VWS V14.01,2013-10-10 13:30:00,
2013-10-10 09:31:00,44.0,40.1,30.32,SSE,150,2.0,6.0,86,0.00,,---,0.00,VWS V14.01,2013-10-10 13:31:00,
2013-10-10 09:32:00,49.5,38.6,30.31,SE,127,5.0,9.0,66,0.00,,---,0.00,VWS V14.01,2013-10-10 13:32:00,
2013-10-10 09:33:00,44.1,40.2,30.32,SSE,149,2.0,6.0,86,0.00,,---,0.00,VWS V14.01,2013-10-10 13:33:00,
2013-10-10 09:34:00,44.1,40.2,30.32,South,169,4.0,6.0,86,0.00,,---,0.00,VWS V14.01,2013-10-10 13:34:00,
2013-10-10 09:35:00,44.2,40.3,30.32,SSE,156,2.0,4.0,86,0.00,,---,0.00,VWS V14.01,2013-10-10 13:35:00,
2013-10-10 09:36:00,44.3,40.4,30.32,SSE,150,3.0,4.0,86,0.00,,---,0.00,VWS V14.01,2013-10-10 13:36:00,
2013-10-10 09:37:00,49.7,39.2,30.31,SSE,154,3.0,7.0,67,0.00,,---,0.00,VWS V14.01,2013-10-10 13:37:00,
2013-10-10 09:38:00,44.5,40.6,30.31,ESE,115,3.0,4.0,86,0.00,,---,0.00,VWS V14.01,2013-10-10 13:38:00,
2013-10-10 09:39:00,44.6,40.7,30.32,SE,141,2.0,4.0,86,0.00,,---,0.00,VWS V14.01,2013-10-10 13:39:00,
2013-10-10 09:40:00,44.7,40.8,30.32,SSE,156,4.0,4.0,86,0.00,,---,0.00,VWS V14.01,2013-10-10 13:40:00,
2013-10-10 09:41:00,44.8,40.6,30.32,SE,146,1.0,4.0,85,0.00,,---,0.00,VWS V14.01,2013-10-10 13:41:00,
2013-10-10 09:42:00,50.0,39.5,30.31,SE,134,6.0,6.0,67,0.00,,---,0.00,VWS V14.01,2013-10-10 13:42:00,
2013-10-10 09:43:00,45.0,40.8,30.32,SSE,165,4.0,4.0,85,0.00,,---,0.00,VWS V14.01,2013-10-10 13:43:00,
2013-10-10 09:44:00,45.1,40.9,30.32,SSE,156,3.0,4.0,85,0.00,,---,0.00,VWS V14.01,2013-10-10 13:44:00,
2013-10-10 09:45:00,45.2,41.0,30.32,SSE,158,4.0,4.0,85,0.00,,---,0.00,VWS V14.01,2013-10-10 13:45:00,
2013-10-10 09:46:00,45.3,41.1,30.32,SSE,162,3.0,5.0,85,0.00,,---,0.00,VWS V14.01,2013-10-10 13:46:00,
2013-10-10 09:47:00,50.1,39.2,30.31,SE,143,3.0,5.0,66,0.00,,---,0.00,VWS V14.01,2013-10-10 13:47:00,
2013-10-10 09:48:00,45.4,40.9,30.32,SSE,148,4.0,6.0,84,0.00,,---,0.00,VWS V14.01,2013-10-10 13:48:00,
2013-10-10 09:49:00,45.4,40.9,30.32,SSE,158,3.0,6.0,84,0.00,,---,0.00,VWS V14.01,2013-10-10 13:49:00,
2013-10-10 09:50:00,45.5,41.0,30.32,SE,144,3.0,6.0,84,0.00,,---,0.00,VWS V14.01,2013-10-10 13:50:00,
2013-10-10 09:51:00,45.5,41.0,30.32,SSE,165,5.0,6.0,84,0.00,,---,0.00,VWS V14.01,2013-10-10 13:51:00,
2013-10-10 09:52:00,50.3,38.2,30.31,SSE,149,4.0,5.0,63,0.00,,---,0.00,VWS V14.01,2013-10-10 13:52:00,
2013-10-10 09:53:00,45.6,41.0,30.31,SSE,153,3.0,5.0,84,0.00,,---,0.00,VWS V14.01,2013-10-10 13:53:00,
2013-10-10 09:54:00,45.6,41.0,30.32,SSE,156,4.0,5.0,84,0.00,,---,0.00,VWS V14.01,2013-10-10 13:54:00,
2013-10-10 09:55:00,45.6,41.0,30.32,SSE,154,3.0,5.0,84,0.00,,---,0.00,VWS V14.01,2013-10-10 13:55:00,
2013-10-10 09:56:00,45.6,41.0,30.32,SSE,156,2.0,5.0,84,0.00,,---,0.00,VWS V14.01,2013-10-10 13:56:00,
2013-10-10 09:57:00,50.5,38.0,30.31,SSE,149,1.0,6.0,62,0.00,,---,0.00,VWS V14.01,2013-10-10 13:57:00,
2013-10-10 09:58:00,45.7,41.2,30.31,South,184,3.0,5.0,84,0.00,,---,0.00,VWS V14.01,2013-10-10 13:58:00,
2013-10-10 09:59:00,45.7,41.2,30.32,SE,131,3.0,5.0,84,0.00,,---,0.00,VWS V14.01,2013-10-10 13:59:00,
2013-10-10 10:00:00,45.7,41.2,30.31,SSE,165,4.0,5.0,84,0.00,,---,0.00,VWS V14.01,2013-10-10 14:00:00,
2013-10-10 10:01:00,45.7,41.2,30.31,SSE,160,6.0,6.0,84,0.00,,---,0.00,VWS V14.01,2013-10-10 14:01:00,
2013-10-10 10:02:00,50.9,38.8,30.31,SE,126,2.0,5.0,63,0.00,,---,0.00,VWS V14.01,2013-10-10 14:02:00,
2013-10-10 10:03:00,45.8,40.9,30.31,SSE,152,4.0,6.0,83,0.00,,---,0.00,VWS V14.01,2013-10-10 14:03:00,
2013-10-10 10:04:00,45.9,41.0,30.31,SSE,163,2.0,6.0,83,0.00,,---,0.00,VWS V14.01,2013-10-10 14:04:00,
2013-10-10 10:05:00,45.9,41.0,30.31,SSE,148,3.0,6.0,83,0.00,,---,0.00,VWS V14.01,2013-10-10 14:05:00,
2013-10-10 10:06:00,46.0,41.1,30.31,South,169,3.0,6.0,83,0.00,,---,0.00,VWS V14.01,2013-10-10 14:06:00,
2013-10-10 10:07:00,51.0,38.0,30.31,SE,136,6.0,7.0,61,0.00,,---,0.00,VWS V14.01,2013-10-10 14:07:00,
2013-10-10 10:08:00,46.0,41.1,30.31,SSE,152,5.0,5.0,83,0.00,,---,0.00,VWS V14.01,2013-10-10 14:08:00,
2013-10-10 10:09:00,46.1,41.2,30.31,ESE,105,4.0,6.0,83,0.00,,---,0.00,VWS V14.01,2013-10-10 14:09:00,
2013-10-10 10:10:00,46.1,41.2,30.31,SSE,154,2.0,6.0,83,0.00,,---,0.00,VWS V14.01,2013-10-10 14:10:00,
2013-10-10 10:11:00,46.2,41.3,30.31,SE,146,4.0,6.0,83,0.00,,---,0.00,VWS V14.01,2013-10-10 14:11:00,
2013-10-10 10:12:00,51.1,37.3,30.31,SSE,152,3.0,7.0,59,0.00,,---,0.00,VWS V14.01,2013-10-10 14:12:00,
2013-10-10 10:13:00,46.3,41.1,30.31,SSE,158,5.0,6.0,82,0.00,,---,0.00,VWS V14.01,2013-10-10 14:13:00,
2013-10-10 10:14:00,46.3,41.1,30.31,SE,128,2.0,6.0,82,0.00,,---,0.00,VWS V14.01,2013-10-10 14:14:00,
2013-10-10 10:15:00,46.4,41.2,30.31,ESE,120,1.0,6.0,82,0.00,,---,0.00,VWS V14.01,2013-10-10 14:15:00,
2013-10-10 10:16:00,46.4,41.2,30.31,SSE,150,4.0,6.0,82,0.00,,---,0.00,VWS V14.01,2013-10-10 14:16:00,
2013-10-10 10:17:00,51.4,38.0,30.31,ESE,122,2.0,6.0,60,0.00,,---,0.00,VWS V14.01,2013-10-10 14:17:00,
2013-10-10 10:18:00,46.5,41.3,30.31,SE,128,3.0,5.0,82,0.00,,---,0.00,VWS V14.01,2013-10-10 14:18:00,
2013-10-10 10:19:00,46.6,41.1,30.31,SE,126,4.0,5.0,81,0.00,,---,0.00,VWS V14.01,2013-10-10 14:19:00,
2013-10-10 10:20:00,46.6,41.1,30.31,ESE,122,2.0,5.0,81,0.00,,---,0.00,VWS V14.01,2013-10-10 14:20:00,
2013-10-10 10:21:00,46.7,41.2,30.31,SSE,149,4.0,5.0,81,0.00,,---,0.00,VWS V14.01,2013-10-10 14:21:00,
2013-10-10 10:22:00,46.8,41.3,30.31,ESE,115,2.0,5.0,81,0.00,,---,0.00,VWS V14.01,2013-10-10 14:22:00,
2013-10-10 10:23:00,51.8,38.4,30.31,SSE,166,3.0,6.0,60,0.00,,---,0.00,VWS V14.01,2013-10-10 14:23:00,
2013-10-10 10:24:00,46.9,41.4,30.31,SE,145,2.0,5.0,81,0.00,,---,0.00,VWS V14.01,2013-10-10 14:24:00,
2013-10-10 10:25:00,46.9,41.4,30.31,SSE,152,2.0,5.0,81,0.00,,---,0.00,VWS V14.01,2013-10-10 14:25:00,
2013-10-10 10:26:00,46.9,41.4,30.31,SSE,152,1.0,5.0,81,0.00,,---,0.00,VWS V14.01,2013-10-10 14:26:00,
2013-10-10 10:27:00,47.0,41.2,30.31,SE,139,2.0,6.0,80,0.00,,---,0.00,VWS V14.01,2013-10-10 14:27:00,
2013-10-10 10:28:00,52.1,37.8,30.31,SE,139,2.0,6.0,58,0.00,,---,0.00,VWS V14.01,2013-10-10 14:28:00,
2013-10-10 10:29:00,47.1,41.3,30.31,SE,132,1.0,6.0,80,0.00,,---,0.00,VWS V14.01,2013-10-10 14:29:00,
2013-10-10 10:30:00,47.1,41.3,30.31,SE,124,4.0,6.0,80,0.00,,---,0.00,VWS V14.01,2013-10-10 14:30:00,
2013-10-10 10:31:00,47.1,41.3,30.31,SE,139,4.0,6.0,80,0.00,,---,0.00,VWS V14.01,2013-10-10 14:31:00,
2013-10-10 10:32:00,47.1,41.3,30.31,SE,139,4.0,7.0,80,0.00,,---,0.00,VWS V14.01,2013-10-10 14:32:00,
2013-10-10 10:33:00,52.6,38.3,30.31,SE,127,2.0,5.0,58,0.00,,---,0.00,VWS V14.01,2013-10-10 14:33:00,
2013-10-10 10:34:00,47.2,41.0,30.31,SE,135,5.0,7.0,79,0.00,,---,0.00,VWS V14.01,2013-10-10 14:34:00,
2013-10-10 10:35:00,47.2,41.0,30.31,South,172,6.0,7.0,79,0.00,,---,0.00,VWS V14.01,2013-10-10 14:35:00,
2013-10-10 10:36:00,47.2,41.0,30.31,SSE,150,3.0,7.0,79,0.00,,---,0.00,VWS V14.01,2013-10-10 14:36:00,
2013-10-10 10:37:00,47.2,41.0,30.31,SE,130,3.0,7.0,79,0.00,,---,0.00,VWS V14.01,2013-10-10 14:37:00,
2013-10-10 10:38:00,53.0,38.2,30.30,ESE,106,2.0,5.0,57,0.00,,---,0.00,VWS V14.01,2013-10-10 14:38:00,
2013-10-10 10:39:00,47.2,41.0,30.31,SSE,150,4.0,7.0,79,0.00,,---,0.00,VWS V14.01,2013-10-10 14:39:00,
2013-10-10 10:40:00,47.2,41.0,30.31,SE,126,4.0,7.0,79,0.00,,---,0.00,VWS V14.01,2013-10-10 14:40:00,
2013-10-10 10:41:00,47.2,41.0,30.31,SSE,150,2.0,7.0,79,0.00,,---,0.00,VWS V14.01,2013-10-10 14:41:00,
2013-10-10 10:42:00,47.2,41.0,30.31,ESE,122,5.0,7.0,79,0.00,,---,0.00,VWS V14.01,2013-10-10 14:42:00,
2013-10-10 10:43:00,53.3,37.6,30.31,ESE,111,4.0,6.0,55,0.00,,---,0.00,VWS V14.01,2013-10-10 14:43:00,
2013-10-10 10:44:00,47.2,41.0,30.31,SE,136,2.0,6.0,79,0.00,,---,0.00,VWS V14.01,2013-10-10 14:44:00,
2013-10-10 10:45:00,47.2,40.7,30.31,SSE,153,2.0,6.0,78,0.00,,---,0.00,VWS V14.01,2013-10-10 14:45:00,
2013-10-10 10:46:00,47.3,40.8,30.31,SSE,153,5.0,6.0,78,0.00,,---,0.00,VWS V14.01,2013-10-10 14:46:00,
2013-10-10 10:47:00,47.3,40.8,30.31,SSE,150,4.0,6.0,78,0.00,,---,0.00,VWS V14.01,2013-10-10 14:47:00,
2013-10-10 10:48:00,53.6,39.2,30.30,ESE,110,2.0,5.0,58,0.00,,---,0.00,VWS V14.01,2013-10-10 14:48:00,
2013-10-10 10:49:00,47.4,41.2,30.31,ESE,107,3.0,6.0,79,0.00,,---,0.00,VWS V14.01,2013-10-10 14:49:00,
2013-10-10 10:50:00,47.4,40.9,30.31,SE,125,5.0,6.0,78,0.00,,---,0.00,VWS V14.01,2013-10-10 14:50:00,
2013-10-10 10:51:00,47.5,41.0,30.31,SSE,153,3.0,6.0,78,0.00,,---,0.00,VWS V14.01,2013-10-10 14:51:00,
2013-10-10 10:52:00,47.5,41.0,30.31,SE,139,1.0,6.0,78,0.00,,---,0.00,VWS V14.01,2013-10-10 14:52:00,
2013-10-10 10:53:00,53.7,37.9,30.30,East,82,4.0,6.0,55,0.00,,---,0.00,VWS V14.01,2013-10-10 14:53:00,
2013-10-10 10:54:00,47.6,40.8,30.31,SE,134,5.0,6.0,77,0.00,,---,0.00,VWS V14.01,2013-10-10 14:54:00,
2013-10-10 10:55:00,47.7,40.8,30.31,SE,143,3.0,6.0,77,0.00,,---,0.00,VWS V14.01,2013-10-10 14:55:00,
2013-10-10 10:56:00,47.7,40.5,30.31,SE,139,4.0,6.0,76,0.00,,---,0.00,VWS V14.01,2013-10-10 14:56:00,
2013-10-10 10:57:00,47.7,40.5,30.31,SE,142,3.0,6.0,76,0.00,,---,0.00,VWS V14.01,2013-10-10 14:57:00,
2013-10-10 10:58:00,47.8,41.0,30.31,ESE,108,1.0,6.0,77,0.00,,---,0.00,VWS V14.01,2013-10-10 14:58:00,
2013-10-10 10:59:00,54.0,38.7,30.30,SSE,150,5.0,7.0,56,0.00,,---,0.00,VWS V14.01,2013-10-10 14:59:00,
2013-10-10 11:00:00,47.9,41.0,30.31,South,184,3.0,6.0,77,0.00,,---,0.00,VWS V14.01,2013-10-10 15:00:00,
2013-10-10 11:01:00,48.0,41.2,30.31,SSE,154,2.0,6.0,77,0.00,,---,0.00,VWS V14.01,2013-10-10 15:01:00,
2013-10-10 11:02:00,48.1,41.2,30.31,SE,146,6.0,6.0,77,0.00,,---,0.00,VWS V14.01,2013-10-10 15:02:00,
2013-10-10 11:03:00,48.2,41.0,30.31,SSE,159,3.0,6.0,76,0.00,,---,0.00,VWS V14.01,2013-10-10 15:03:00,
2013-10-10 11:04:00,54.5,38.2,30.30,ENE,67,2.0,6.0,54,0.00,,---,0.00,VWS V14.01,2013-10-10 15:04:00,
2013-10-10 11:05:00,48.4,41.5,30.31,SSE,162,2.0,6.0,77,0.00,,---,0.00,VWS V14.01,2013-10-10 15:05:00,
2013-10-10 11:06:00,48.5,41.3,30.31,SSE,150,5.0,6.0,76,0.00,,---,0.00,VWS V14.01,2013-10-10 15:06:00,
2013-10-10 11:07:00,48.6,40.7,30.31,SE,146,4.0,6.0,74,0.00,,---,0.00,VWS V14.01,2013-10-10 15:07:00,
2013-10-10 11:08:00,48.7,40.8,30.31,SE,129,3.0,5.0,74,0.00,,---,0.00,VWS V14.01,2013-10-10 15:08:00,
2013-10-10 11:09:00,54.5,35.2,30.30,ESE,120,3.0,6.0,48,0.00,,---,0.00,VWS V14.01,2013-10-10 15:09:00,
2013-10-10 11:10:00,48.8,40.5,30.31,ESE,104,4.0,6.0,73,0.00,,---,0.00,VWS V14.01,2013-10-10 15:10:00,
2013-10-10 11:11:00,48.9,39.9,30.31,ESE,115,7.0,8.0,71,0.00,,---,0.00,VWS V14.01,2013-10-10 15:11:00,
2013-10-10 11:12:00,48.9,39.6,30.31,SE,128,4.0,8.0,70,0.00,,---,0.00,VWS V14.01,2013-10-10 15:12:00,
2013-10-10 11:13:00,48.9,39.6,30.31,ESE,122,5.0,8.0,70,0.00,,---,0.00,VWS V14.01,2013-10-10 15:13:00,
2013-10-10 11:14:00,54.5,36.8,30.30,ENE,70,3.0,5.0,51,0.00,,---,0.00,VWS V14.01,2013-10-10 15:14:00,
2013-10-10 11:15:00,49.1,39.8,30.31,SE,134,3.0,8.0,70,0.00,,---,0.00,VWS V14.01,2013-10-10 15:15:00,
2013-10-10 11:16:00,49.1,39.8,30.31,SE,131,4.0,7.0,70,0.00,,---,0.00,VWS V14.01,2013-10-10 15:16:00,
2013-10-10 11:17:00,49.2,39.8,30.31,SSE,155,3.0,7.0,70,0.00,,---,0.00,VWS V14.01,2013-10-10 15:17:00,
2013-10-10 11:18:00,49.2,40.2,30.31,SSE,154,2.0,6.0,71,0.00,,---,0.00,VWS V14.01,2013-10-10 15:18:00,
2013-10-10 11:19:00,54.7,36.4,30.30,East,84,3.0,4.0,50,0.00,,---,0.00,VWS V14.01,2013-10-10 15:19:00,
2013-10-10 11:20:00,49.3,39.9,30.31,SSE,150,5.0,7.0,70,0.00,,---,0.00,VWS V14.01,2013-10-10 15:20:00,
2013-10-10 11:21:00,49.4,39.7,30.31,SE,126,3.0,7.0,69,0.00,,---,0.00,VWS V14.01,2013-10-10 15:21:00,
2013-10-10 11:22:00,49.4,39.3,30.31,SSE,150,3.0,7.0,68,0.00,,---,0.00,VWS V14.01,2013-10-10 15:22:00,
2013-10-10 11:23:00,49.5,39.8,30.31,SE,124,2.0,7.0,69,0.00,,---,0.00,VWS V14.01,2013-10-10 15:23:00,
2013-10-10 11:24:00,55.0,34.6,30.30,SSE,149,2.0,5.0,46,0.00,,---,0.00,VWS V14.01,2013-10-10 15:24:00,
2013-10-10 11:25:00,49.5,39.0,30.31,SE,132,4.0,8.0,67,0.00,,---,0.00,VWS V14.01,2013-10-10 15:25:00,
2013-10-10 11:26:00,49.5,38.6,30.31,ESE,118,6.0,8.0,66,0.00,,---,0.00,VWS V14.01,2013-10-10 15:26:00,
2013-10-10 11:27:00,49.5,38.6,30.31,SSE,156,6.0,9.0,66,0.00,,---,0.00,VWS V14.01,2013-10-10 15:27:00,
2013-10-10 11:28:00,49.5,39.0,30.31,SE,132,5.0,9.0,67,0.00,,---,0.00,VWS V14.01,2013-10-10 15:28:00,
2013-10-10 11:29:00,55.3,34.3,30.29,ESE,119,2.0,3.0,45,0.00,,---,0.00,VWS V14.01,2013-10-10 15:29:00,
2013-10-10 11:30:00,49.5,39.0,30.31,SE,146,5.0,9.0,67,0.00,,---,0.00,VWS V14.01,2013-10-10 15:30:00,
2013-10-10 11:31:00,49.5,38.6,30.31,SE,127,5.0,9.0,66,0.00,,---,0.00,VWS V14.01,2013-10-10 15:31:00,
2013-10-10 11:32:00,49.5,39.0,30.31,SE,142,4.0,9.0,67,0.00,,---,0.00,VWS V14.01,2013-10-10 15:32:00,
2013-10-10 11:33:00,49.5,39.4,30.31,SSE,150,5.0,9.0,68,0.00,,---,0.00,VWS V14.01,2013-10-10 15:33:00,
2013-10-10 11:34:00,55.6,34.0,30.29,NE,53,2.0,3.0,44,0.00,,---,0.00,VWS V14.01,2013-10-10 15:34:00,
2013-10-10 11:35:00,49.6,38.3,30.31,SSE,159,4.0,9.0,65,0.00,,---,0.00,VWS V14.01,2013-10-10 15:35:00,
2013-10-10 11:36:00,49.7,39.2,30.31,SSE,154,3.0,7.0,67,0.00,,---,0.00,VWS V14.01,2013-10-10 15:36:00,
2013-10-10 11:37:00,49.7,39.6,30.31,SE,124,5.0,7.0,68,0.00,,---,0.00,VWS V14.01,2013-10-10 15:37:00,
2013-10-10 11:38:00,49.8,39.3,30.31,SE,146,6.0,7.0,67,0.00,,---,0.00,VWS V14.01,2013-10-10 15:38:00,
2013-10-10 11:39:00,49.8,38.9,30.31,South,177,4.0,7.0,66,0.00,,---,0.00,VWS V14.01,2013-10-10 15:39:00,
2013-10-10 11:40:00,56.0,35.0,30.29,NNE,29,0.0,4.0,45,0.00,,---,0.00,VWS V14.01,2013-10-10 15:40:00,
2013-10-10 11:41:00,50.0,39.5,30.31,SE,134,6.0,6.0,67,0.00,,---,0.00,VWS V14.01,2013-10-10 15:41:00,
2013-10-10 11:42:00,50.0,39.1,30.31,SSE,150,3.0,6.0,66,0.00,,---,0.00,VWS V14.01,2013-10-10 15:42:00,
2013-10-10 11:43:00,50.0,39.9,30.31,SSE,156,5.0,6.0,68,0.00,,---,0.00,VWS V14.01,2013-10-10 15:43:00,
2013-10-10 11:44:00,50.1,39.6,30.31,SSE,152,3.0,6.0,67,0.00,,---,0.00,VWS V14.01,2013-10-10 15:44:00,
2013-10-10 11:45:00,56.4,34.2,30.29,ENE,68,4.0,4.0,43,0.00,,---,0.00,VWS V14.01,2013-10-10 15:45:00,
2013-10-10 11:46:00,50.1,39.2,30.31,SE,143,3.0,5.0,66,0.00,,---,0.00,VWS V14.01,2013-10-10 15:46:00,
2013-10-10 11:47:00,50.2,39.3,30.31,SSE,165,4.0,5.0,66,0.00,,---,0.00,VWS V14.01,2013-10-10 15:47:00,
2013-10-10 11:48:00,50.2,39.3,30.31,SE,146,1.0,5.0,66,0.00,,---,0.00,VWS V14.01,2013-10-10 15:48:00,
2013-10-10 11:49:00,50.3,39.4,30.31,SSE,154,3.0,4.0,66,0.00,,---,0.00,VWS V14.01,2013-10-10 15:49:00,
2013-10-10 11:50:00,56.3,29.7,30.29,ENE,62,2.0,5.0,36,0.00,,---,0.00,VWS V14.01,2013-10-10 15:50:00,
2013-10-10 11:51:00,50.3,38.2,30.31,SSE,149,4.0,5.0,63,0.00,,---,0.00,VWS V14.01,2013-10-10 15:51:00,
2013-10-10 11:52:00,50.4,38.3,30.31,SE,134,2.0,5.0,63,0.00,,---,0.00,VWS V14.01,2013-10-10 15:52:00,
2013-10-10 11:53:00,50.4,37.9,30.31,SE,146,3.0,6.0,62,0.00,,---,0.00,VWS V14.01,2013-10-10 15:53:00,
2013-10-10 11:54:00,50.4,38.3,30.31,SSE,150,3.0,6.0,63,0.00,,---,0.00,VWS V14.01,2013-10-10 15:54:00,
2013-10-10 11:55:00,56.2,30.3,30.29,East,82,1.0,4.0,37,0.00,,---,0.00,VWS V14.01,2013-10-10 15:55:00,
2013-10-10 11:56:00,50.5,38.0,30.31,SSE,149,1.0,6.0,62,0.00,,---,0.00,VWS V14.01,2013-10-10 15:56:00,
2013-10-10 11:57:00,50.6,38.9,30.31,SSE,148,5.0,6.0,64,0.00,,---,0.00,VWS V14.01,2013-10-10 15:57:00,
2013-10-10 11:58:00,50.7,38.2,30.31,SSE,163,2.0,5.0,62,0.00,,---,0.00,VWS V14.01,2013-10-10 15:58:00,
2013-10-10 11:59:00,50.8,38.7,30.31,SE,141,2.0,5.0,63,0.00,,---,0.00,VWS V14.01,2013-10-10 15:59:00,
2013-10-10 12:00:00,56.3,31.7,30.29,ESE,108,2.0,4.0,39,0.00,,---,0.00,VWS V14.01,2013-10-10 16:00:00,
2013-10-10 12:01:00,50.9,38.8,30.31,SE,126,2.0,5.0,63,0.00,,---,0.00,VWS V14.01,2013-10-10 16:01:00,
2013-10-10 12:02:00,50.9,38.8,30.31,SE,136,6.0,6.0,63,0.00,,---,0.00,VWS V14.01,2013-10-10 16:02:00,
2013-10-10 12:03:00,50.9,37.1,30.31,ESE,122,6.0,7.0,59,0.00,,---,0.00,VWS V14.01,2013-10-10 16:03:00,
2013-10-10 12:04:00,50.9,37.5,30.31,ESE,123,3.0,7.0,60,0.00,,---,0.00,VWS V14.01,2013-10-10 16:04:00,
2013-10-10 12:05:00,56.6,33.2,30.29,ENE,62,1.0,3.0,41,0.00,,---,0.00,VWS V14.01,2013-10-10 16:05:00,
2013-10-10 12:06:00,51.0,38.0,30.31,SE,136,6.0,7.0,61,0.00,,---,0.00,VWS V14.01,2013-10-10 16:06:00,
2013-10-10 12:07:00,51.0,37.6,30.31,SSE,148,4.0,7.0,60,0.00,,---,0.00,VWS V14.01,2013-10-10 16:07:00,
2013-10-10 12:08:00,51.0,38.0,30.31,SSE,156,4.0,7.0,61,0.00,,---,0.00,VWS V14.01,2013-10-10 16:08:00,
2013-10-10 12:09:00,51.0,37.2,30.31,SSE,160,4.0,7.0,59,0.00,,---,0.00,VWS V14.01,2013-10-10 16:09:00,
2013-10-10 12:10:00,56.6,29.3,30.29,NNE,23,1.0,3.0,35,0.00,,---,0.00,VWS V14.01,2013-10-10 16:10:00,
2013-10-10 12:11:00,51.1,37.3,30.31,SSE,152,3.0,7.0,59,0.00,,---,0.00,VWS V14.01,2013-10-10 16:11:00,
2013-10-10 12:12:00,51.2,37.4,30.31,SE,140,4.0,7.0,59,0.00,,---,0.00,VWS V14.01,2013-10-10 16:12:00,
2013-10-10 12:13:00,51.2,37.0,30.31,SSE,149,2.0,7.0,58,0.00,,---,0.00,VWS V14.01,2013-10-10 16:13:00,
2013-10-10 12:14:00,51.2,37.4,30.31,SE,136,2.0,6.0,59,0.00,,---,0.00,VWS V14.01,2013-10-10 16:14:00,
2013-10-10 12:15:00,56.8,31.5,30.29,ESE,112,2.0,3.0,38,0.00,,---,0.00,VWS V14.01,2013-10-10 16:15:00,
2013-10-10 12:16:00,51.4,38.0,30.31,ESE,122,2.0,6.0,60,0.00,,---,0.00,VWS V14.01,2013-10-10 16:16:00,
2013-10-10 12:17:00,51.5,37.7,30.31,SE,145,5.0,6.0,59,0.00,,---,0.00,VWS V14.01,2013-10-10 16:17:00,
2013-10-10 12:18:00,51.5,37.2,30.31,ESE,122,4.0,6.0,58,0.00,,---,0.00,VWS V14.01,2013-10-10 16:18:00,
2013-10-10 12:19:00,51.6,37.8,30.31,ESE,118,1.0,6.0,59,0.00,,---,0.00,VWS V14.01,2013-10-10 16:19:00,
2013-10-10 12:20:00,56.7,32.0,30.29,SE,125,0.0,3.0,39,0.00,,---,0.00,VWS V14.01,2013-10-10 16:20:00,
2013-10-10 12:21:00,51.7,37.8,30.31,SE,129,3.0,6.0,59,0.00,,---,0.00,VWS V14.01,2013-10-10 16:21:00,
2013-10-10 12:22:00,51.8,38.4,30.31,SSE,166,3.0,6.0,60,0.00,,---,0.00,VWS V14.01,2013-10-10 16:22:00,
2013-10-10 12:23:00,51.8,37.5,30.31,SE,143,2.0,6.0,58,0.00,,---,0.00,VWS V14.01,2013-10-10 16:23:00,
2013-10-10 12:24:00,51.9,38.0,30.31,East,94,3.0,6.0,59,0.00,,---,0.00,VWS V14.01,2013-10-10 16:24:00,
2013-10-10 12:25:00,57.0,34.8,30.28,East,85,1.0,2.0,43,0.00,,---,0.00,VWS V14.01,2013-10-10 16:25:00,
2013-10-10 12:26:00,52.0,38.1,30.31,SSE,156,5.0,6.0,59,0.00,,---,0.00,VWS V14.01,2013-10-10 16:26:00,
2013-10-10 12:27:00,52.1,37.8,30.31,SE,139,2.0,6.0,58,0.00,,---,0.00,VWS V14.01,2013-10-10 16:27:00,
2013-10-10 12:28:00,52.1,38.2,30.31,SE,146,2.0,6.0,59,0.00,,---,0.00,VWS V14.01,2013-10-10 16:28:00,
2013-10-10 12:29:00,52.3,38.4,30.31,SE,139,1.0,6.0,59,0.00,,---,0.00,VWS V14.01,2013-10-10 16:29:00,
2013-10-10 12:30:00,56.7,33.9,30.28,East,85,1.0,3.0,42,0.00,,---,0.00,VWS V14.01,2013-10-10 16:30:00,
2013-10-10 12:31:00,52.5,39.0,30.31,East,91,3.0,6.0,60,0.00,,---,0.00,VWS V14.01,2013-10-10 16:31:00,
2013-10-10 12:32:00,52.6,38.3,30.31,SE,127,2.0,5.0,58,0.00,,---,0.00,VWS V14.01,2013-10-10 16:32:00,
2013-10-10 12:33:00,52.7,38.3,30.31,SE,135,2.0,5.0,58,0.00,,---,0.00,VWS V14.01,2013-10-10 16:33:00,
2013-10-10 12:34:00,52.8,38.9,30.31,ESE,108,2.0,5.0,59,0.00,,---,0.00,VWS V14.01,2013-10-10 16:34:00,
2013-10-10 12:35:00,56.6,33.2,30.28,East,81,1.0,3.0,41,0.00,,---,0.00,VWS V14.01,2013-10-10 16:35:00,
2013-10-10 12:36:00,52.9,38.1,30.30,ESE,104,2.0,5.0,57,0.00,,---,0.00,VWS V14.01,2013-10-10 16:36:00,
2013-10-10 12:37:00,53.0,38.2,30.30,ESE,106,2.0,5.0,57,0.00,,---,0.00,VWS V14.01,2013-10-10 16:37:00,
2013-10-10 12:38:00,53.0,38.6,30.30,SE,146,2.0,5.0,58,0.00,,---,0.00,VWS V14.01,2013-10-10 16:38:00,
2013-10-10 12:39:00,53.1,38.7,30.31,ESE,114,4.0,5.0,58,0.00,,---,0.00,VWS V14.01,2013-10-10 16:39:00,
2013-10-10 12:40:00,56.6,32.0,30.28,East,100,2.0,2.0,39,0.00,,---,0.00,VWS V14.01,2013-10-10 16:40:00,
2013-10-10 12:41:00,53.2,38.4,30.31,ESE,103,5.0,6.0,57,0.00,,---,0.00,VWS V14.01,2013-10-10 16:41:00,
2013-10-10 12:42:00,53.3,37.6,30.31,ESE,111,4.0,6.0,55,0.00,,---,0.00,VWS V14.01,2013-10-10 16:42:00,
2013-10-10 12:43:00,53.3,38.0,30.30,SE,124,4.0,6.0,56,0.00,,---,0.00,VWS V14.01,2013-10-10 16:43:00,
2013-10-10 12:44:00,53.4,38.6,30.30,East,81,3.0,6.0,57,0.00,,---,0.00,VWS V14.01,2013-10-10 16:44:00,
2013-10-10 12:45:00,56.5,29.9,30.28,East,81,1.0,3.0,36,0.00,,---,0.00,VWS V14.01,2013-10-10 16:45:00,
2013-10-10 12:46:00,53.5,39.1,30.30,ESE,106,2.0,5.0,58,0.00,,---,0.00,VWS V14.01,2013-10-10 16:46:00,
2013-10-10 12:47:00,53.6,39.2,30.30,ESE,110,2.0,5.0,58,0.00,,---,0.00,VWS V14.01,2013-10-10 16:47:00,
2013-10-10 12:48:00,53.6,39.2,30.30,ESE,104,2.0,4.0,58,0.00,,---,0.00,VWS V14.01,2013-10-10 16:48:00,
2013-10-10 12:49:00,53.6,38.3,30.30,East,101,5.0,6.0,56,0.00,,---,0.00,VWS V14.01,2013-10-10 16:49:00,
2013-10-10 12:50:00,56.3,31.7,30.28,ESE,115,1.0,4.0,39,0.00,,---,0.00,VWS V14.01,2013-10-10 16:50:00,
2013-10-10 12:51:00,53.7,38.8,30.30,ESE,104,4.0,6.0,57,0.00,,---,0.00,VWS V14.01,2013-10-10 16:51:00,
2013-10-10 12:52:00,53.7,37.9,30.30,East,82,4.0,6.0,55,0.00,,---,0.00,VWS V14.01,2013-10-10 16:52:00,
2013-10-10 12:53:00,53.7,37.9,30.30,ESE,122,3.0,6.0,55,0.00,,---,0.00,VWS V14.01,2013-10-10 16:53:00,
2013-10-10 12:54:00,53.7,38.8,30.30,East,100,2.0,6.0,57,0.00,,---,0.00,VWS V14.01,2013-10-10 16:54:00,
2013-10-10 12:55:00,56.3,32.3,30.27,SSE,148,0.0,2.0,40,0.00,,---,0.00,VWS V14.01,2013-10-10 16:55:00,
2013-10-10 12:56:00,53.9,39.9,30.30,SE,128,4.0,5.0,59,0.00,,---,0.00,VWS V14.01,2013-10-10 16:56:00,
2013-10-10 12:57:00,53.9,38.6,30.30,SE,136,5.0,6.0,56,0.00,,---,0.00,VWS V14.01,2013-10-10 16:57:00,
2013-10-10 12:58:00,54.0,38.7,30.30,SSE,150,5.0,7.0,56,0.00,,---,0.00,VWS V14.01,2013-10-10 16:58:00,
2013-10-10 12:59:00,54.1,37.8,30.30,SE,129,2.0,7.0,54,0.00,,---,0.00,VWS V14.01,2013-10-10 16:59:00,
2013-10-10 13:00:00,56.5,32.5,30.27,ESE,118,1.0,4.0,40,0.00,,---,0.00,VWS V14.01,2013-10-10 17:00:00,
2013-10-10 13:01:00,54.3,39.4,30.30,SE,135,3.0,7.0,57,0.00,,---,0.00,VWS V14.01,2013-10-10 17:01:00,
2013-10-10 13:02:00,54.4,38.1,30.30,ESE,108,2.0,7.0,54,0.00,,---,0.00,VWS V14.01,2013-10-10 17:02:00,
2013-10-10 13:03:00,54.5,38.2,30.30,ENE,67,2.0,6.0,54,0.00,,---,0.00,VWS V14.01,2013-10-10 17:03:00,
2013-10-10 13:04:00,54.5,38.2,30.30,East,85,4.0,4.0,54,0.00,,---,0.00,VWS V14.01,2013-10-10 17:04:00,
2013-10-10 13:05:00,56.3,32.3,30.27,ESE,111,0.0,3.0,40,0.00,,---,0.00,VWS V14.01,2013-10-10 17:05:00,
2013-10-10 13:06:00,54.5,36.8,30.30,SE,136,3.0,6.0,51,0.00,,---,0.00,VWS V14.01,2013-10-10 17:06:00,
2013-10-10 13:07:00,54.5,35.8,30.30,ESE,107,2.0,6.0,49,0.00,,---,0.00,VWS V14.01,2013-10-10 17:07:00,
2013-10-10 13:08:00,54.5,35.2,30.30,ESE,120,3.0,6.0,48,0.00,,---,0.00,VWS V14.01,2013-10-10 17:08:00,
2013-10-10 13:09:00,54.4,36.2,30.30,ENE,73,2.0,6.0,50,0.00,,---,0.00,VWS V14.01,2013-10-10 17:09:00,
2013-10-10 13:10:00,56.4,33.6,30.27,ESE,111,0.0,0.0,42,0.00,,---,0.00,VWS V14.01,2013-10-10 17:10:00,
2013-10-10 13:11:00,54.4,36.7,30.30,East,99,4.0,5.0,51,0.00,,---,0.00,VWS V14.01,2013-10-10 17:11:00,
2013-10-10 13:12:00,54.4,36.7,30.30,East,98,3.0,5.0,51,0.00,,---,0.00,VWS V14.01,2013-10-10 17:12:00,
2013-10-10 13:13:00,54.5,36.8,30.30,ENE,70,3.0,5.0,51,0.00,,---,0.00,VWS V14.01,2013-10-10 17:13:00,
2013-10-10 13:14:00,54.5,37.2,30.30,East,83,2.0,5.0,52,0.00,,---,0.00,VWS V14.01,2013-10-10 17:14:00,
2013-10-10 13:15:00,56.3,33.5,30.27,ESE,109,0.0,1.0,42,0.00,,---,0.00,VWS V14.01,2013-10-10 17:15:00,
2013-10-10 13:16:00,54.6,36.3,30.30,ESE,120,2.0,4.0,50,0.00,,---,0.00,VWS V14.01,2013-10-10 17:16:00,
2013-10-10 13:17:00,54.6,36.3,30.30,East,88,2.0,4.0,50,0.00,,---,0.00,VWS V14.01,2013-10-10 17:17:00,
2013-10-10 13:18:00,54.7,36.4,30.30,East,84,3.0,4.0,50,0.00,,---,0.00,VWS V14.01,2013-10-10 17:18:00,
2013-10-10 13:19:00,54.7,35.9,30.30,ENE,76,5.0,5.0,49,0.00,,---,0.00,VWS V14.01,2013-10-10 17:19:00,
2013-10-10 13:20:00,56.2,34.6,30.27,NE,55,0.0,2.0,44,0.00,,---,0.00,VWS V14.01,2013-10-10 17:20:00,
2013-10-10 13:21:00,54.9,35.6,30.30,ESE,105,2.0,5.0,48,0.00,,---,0.00,VWS V14.01,2013-10-10 17:21:00,
2013-10-10 13:22:00,54.9,34.0,30.30,ENE,72,2.0,5.0,45,0.00,,---,0.00,VWS V14.01,2013-10-10 17:22:00,
2013-10-10 13:23:00,55.0,34.6,30.30,SSE,149,2.0,5.0,46,0.00,,---,0.00,VWS V14.01,2013-10-10 17:23:00,
2013-10-10 13:24:00,55.0,34.6,30.30,ESE,112,2.0,5.0,46,0.00,,---,0.00,VWS V14.01,2013-10-10 17:24:00,
2013-10-10 13:25:00,55.1,35.2,30.30,East,101,2.0,5.0,47,0.00,,---,0.00,VWS V14.01,2013-10-10 17:25:00,
2013-10-10 13:26:00,56.2,34.0,30.26,NNW,334,0.0,2.0,43,0.00,,---,0.00,VWS V14.01,2013-10-10 17:26:00,
2013-10-10 13:27:00,55.3,34.9,30.29,ESE,113,2.0,4.0,46,0.00,,---,0.00,VWS V14.01,2013-10-10 17:27:00,
2013-10-10 13:28:00,55.3,34.3,30.29,ESE,119,2.0,3.0,45,0.00,,---,0.00,VWS V14.01,2013-10-10 17:28:00,
2013-10-10 13:29:00,55.4,33.9,30.29,East,96,1.0,3.0,44,0.00,,---,0.00,VWS V14.01,2013-10-10 17:29:00,
2013-10-10 13:30:00,55.4,35.5,30.29,ENE,70,1.0,3.0,47,0.00,,---,0.00,VWS V14.01,2013-10-10 17:30:00,
2013-10-10 13:31:00,56.2,32.2,30.27,East,79,1.0,2.0,40,0.00,,---,0.00,VWS V14.01,2013-10-10 17:31:00,
2013-10-10 13:32:00,55.6,34.0,30.29,East,95,2.0,3.0,44,0.00,,---,0.00,VWS V14.01,2013-10-10 17:32:00,
2013-10-10 13:33:00,55.6,34.0,30.29,NE,53,2.0,3.0,44,0.00,,---,0.00,VWS V14.01,2013-10-10 17:33:00,
2013-10-10 13:34:00,55.7,35.3,30.29,ENE,67,2.0,3.0,46,0.00,,---,0.00,VWS V14.01,2013-10-10 17:34:00,
2013-10-10 13:35:00,55.7,34.1,30.29,East,96,3.0,4.0,44,0.00,,---,0.00,VWS V14.01,2013-10-10 17:35:00,
2013-10-10 13:36:00,56.0,31.4,30.27,East,101,2.0,3.0,39,0.00,,---,0.00,VWS V14.01,2013-10-10 17:36:00,
2013-10-10 13:37:00,55.8,34.2,30.29,East,96,0.0,4.0,44,0.00,,---,0.00,VWS V14.01,2013-10-10 17:37:00,
2013-10-10 13:38:00,55.9,36.5,30.29,North,6,1.0,4.0,48,0.00,,---,0.00,VWS V14.01,2013-10-10 17:38:00,
2013-10-10 13:39:00,56.0,35.0,30.29,NNE,29,0.0,4.0,45,0.00,,---,0.00,VWS V14.01,2013-10-10 17:39:00,
2013-10-10 13:40:00,56.1,35.6,30.29,NNE,17,1.0,3.0,46,0.00,,---,0.00,VWS V14.01,2013-10-10 17:40:00,
2013-10-10 13:41:00,56.0,32.0,30.26,ESE,108,0.0,2.0,40,0.00,,---,0.00,VWS V14.01,2013-10-10 17:41:00,
2013-10-10 13:42:00,56.3,35.2,30.29,East,97,0.0,3.0,45,0.00,,---,0.00,VWS V14.01,2013-10-10 17:42:00,
2013-10-10 13:43:00,56.3,35.8,30.29,East,89,1.0,3.0,46,0.00,,---,0.00,VWS V14.01,2013-10-10 17:43:00,
2013-10-10 13:44:00,56.4,34.2,30.29,ENE,68,4.0,4.0,43,0.00,,---,0.00,VWS V14.01,2013-10-10 17:44:00,
2013-10-10 13:45:00,56.4,33.6,30.29,North,6,3.0,5.0,42,0.00,,---,0.00,VWS V14.01,2013-10-10 17:45:00,
2013-10-10 13:46:00,56.4,32.4,30.29,NNE,15,4.0,5.0,40,0.00,,---,0.00,VWS V14.01,2013-10-10 17:46:00,
2013-10-10 13:47:00,56.2,36.8,30.26,ESE,118,2.0,2.0,48,0.00,,---,0.00,VWS V14.01,2013-10-10 17:47:00,
2013-10-10 13:48:00,56.3,31.0,30.29,ENE,61,1.0,5.0,38,0.00,,---,0.00,VWS V14.01,2013-10-10 17:48:00,
2013-10-10 13:49:00,56.3,29.7,30.29,ENE,62,2.0,5.0,36,0.00,,---,0.00,VWS V14.01,2013-10-10 17:49:00,
2013-10-10 13:50:00,56.3,30.4,30.29,ESE,117,3.0,5.0,37,0.00,,---,0.00,VWS V14.01,2013-10-10 17:50:00,
2013-10-10 13:51:00,56.3,31.0,30.29,ENE,78,2.0,4.0,38,0.00,,---,0.00,VWS V14.01,2013-10-10 17:51:00,
2013-10-10 13:52:00,56.0,38.2,30.26,East,82,0.0,4.0,51,0.00,,---,0.00,VWS V14.01,2013-10-10 17:52:00,
2013-10-10 13:53:00,56.2,28.9,30.29,East,91,2.0,4.0,35,0.00,,---,0.00,VWS V14.01,2013-10-10 17:53:00,
2013-10-10 13:54:00,56.2,30.3,30.29,East,82,1.0,4.0,37,0.00,,---,0.00,VWS V14.01,2013-10-10 17:54:00,
2013-10-10 13:55:00,56.2,32.2,30.29,ESE,106,2.0,3.0,40,0.00,,---,0.00,VWS V14.01,2013-10-10 17:55:00,
2013-10-10 13:56:00,56.2,31.0,30.29,ESE,110,2.0,3.0,38,0.00,,---,0.00,VWS V14.01,2013-10-10 17:56:00,
2013-10-10 13:57:00,56.2,31.0,30.29,SE,128,1.0,3.0,38,0.00,,---,0.00,VWS V14.01,2013-10-10 17:57:00,
2013-10-10 13:58:00,55.7,39.3,30.25,NE,51,2.0,3.0,54,0.00,,---,0.00,VWS V14.01,2013-10-10 17:58:00,
2013-10-10 13:59:00,56.3,31.7,30.29,ESE,108,2.0,4.0,39,0.00,,---,0.00,VWS V14.01,2013-10-10 17:59:00,
2013-10-10 14:00:00,56.3,31.7,30.29,ESE,108,0.0,4.0,39,0.00,,---,0.00,VWS V14.01,2013-10-10 18:00:00,
2013-10-10 14:01:00,56.3,32.3,30.29,ESE,108,0.0,4.0,40,0.00,,---,0.00,VWS V14.01,2013-10-10 18:01:00,
2013-10-10 14:02:00,56.4,33.6,30.29,ESE,109,1.0,4.0,42,0.00,,---,0.00,VWS V14.01,2013-10-10 18:02:00,
2013-10-10 14:03:00,55.4,39.5,30.26,NE,37,2.0,4.0,55,0.00,,---,0.00,VWS V14.01,2013-10-10 18:03:00,
2013-10-10 14:04:00,56.6,33.2,30.29,ENE,62,1.0,3.0,41,0.00,,---,0.00,VWS V14.01,2013-10-10 18:04:00,
2013-10-10 14:05:00,56.6,31.3,30.29,ENE,65,2.0,3.0,38,0.00,,---,0.00,VWS V14.01,2013-10-10 18:05:00,
2013-10-10 14:06:00,56.6,30.0,30.29,East,94,0.0,3.0,36,0.00,,---,0.00,VWS V14.01,2013-10-10 18:06:00,
2013-10-10 14:07:00,56.6,30.0,30.29,ENE,77,1.0,3.0,36,0.00,,---,0.00,VWS V14.01,2013-10-10 18:07:00,
2013-10-10 14:08:00,55.0,39.6,30.26,ENE,71,1.0,3.0,56,0.00,,---,0.00,VWS V14.01,2013-10-10 18:08:00,
2013-10-10 14:09:00,56.6,29.3,30.29,NNE,23,1.0,3.0,35,0.00,,---,0.00,VWS V14.01,2013-10-10 18:09:00,
2013-10-10 14:10:00,56.7,29.4,30.29,ENE,65,2.0,2.0,35,0.00,,---,0.00,VWS V14.01,2013-10-10 18:10:00,
2013-10-10 14:11:00,56.7,29.4,30.29,East,90,1.0,2.0,35,0.00,,---,0.00,VWS V14.01,2013-10-10 18:11:00,
2013-10-10 14:12:00,56.7,32.7,30.29,East,99,1.0,2.0,40,0.00,,---,0.00,VWS V14.01,2013-10-10 18:12:00,
2013-10-10 14:13:00,54.9,40.0,30.26,NE,46,3.0,5.0,57,0.00,,---,0.00,VWS V14.01,2013-10-10 18:13:00,
2013-10-10 14:14:00,56.8,31.5,30.29,ESE,112,2.0,3.0,38,0.00,,---,0.00,VWS V14.01,2013-10-10 18:14:00,
2013-10-10 14:15:00,56.7,30.1,30.29,ESE,110,1.0,3.0,36,0.00,,---,0.00,VWS V14.01,2013-10-10 18:15:00,
2013-10-10 14:16:00,56.7,30.1,30.28,SE,134,1.0,3.0,36,0.00,,---,0.00,VWS V14.01,2013-10-10 18:16:00,
2013-10-10 14:17:00,56.7,30.7,30.28,SE,132,1.0,3.0,37,0.00,,---,0.00,VWS V14.01,2013-10-10 18:17:00,
2013-10-10 14:18:00,54.7,39.8,30.25,NE,47,0.0,3.0,57,0.00,,---,0.00,VWS V14.01,2013-10-10 18:18:00,
2013-10-10 14:19:00,56.7,32.0,30.29,SE,125,0.0,3.0,39,0.00,,---,0.00,VWS V14.01,2013-10-10 18:19:00,
2013-10-10 14:20:00,56.8,34.0,30.28,SE,125,0.0,3.0,42,0.00,,---,0.00,VWS V14.01,2013-10-10 18:20:00,
2013-10-10 14:21:00,56.8,34.6,30.28,NNE,20,2.0,3.0,43,0.00,,---,0.00,VWS V14.01,2013-10-10 18:21:00,
2013-10-10 14:22:00,56.9,34.7,30.28,NNE,20,0.0,3.0,43,0.00,,---,0.00,VWS V14.01,2013-10-10 18:22:00,
2013-10-10 14:23:00,54.8,38.5,30.25,ENE,77,2.0,4.0,54,0.00,,---,0.00,VWS V14.01,2013-10-10 18:23:00,
2013-10-10 14:24:00,57.0,34.7,30.28,East,85,1.0,2.0,43,0.00,,---,0.00,VWS V14.01,2013-10-10 18:24:00,
2013-10-10 14:25:00,56.9,32.8,30.28,North,11,2.0,3.0,40,0.00,,---,0.00,VWS V14.01,2013-10-10 18:25:00,
2013-10-10 14:26:00,56.9,33.5,30.28,East,85,1.0,3.0,41,0.00,,---,0.00,VWS V14.01,2013-10-10 18:26:00,
2013-10-10 14:27:00,56.8,34.6,30.28,East,101,1.0,3.0,43,0.00,,---,0.00,VWS V14.01,2013-10-10 18:27:00,
2013-10-10 14:28:00,56.8,34.0,30.28,East,96,1.0,3.0,42,0.00,,---,0.00,VWS V14.01,2013-10-10 18:28:00,
2013-10-10 14:29:00,54.8,37.0,30.25,East,87,2.0,3.0,51,0.00,,---,0.00,VWS V14.01,2013-10-10 18:29:00,
2013-10-10 14:30:00,56.7,33.3,30.28,East,96,2.0,3.0,41,0.00,,---,0.00,VWS V14.01,2013-10-10 18:30:00,
2013-10-10 14:31:00,56.7,33.3,30.28,East,82,1.0,3.0,41,0.00,,---,0.00,VWS V14.01,2013-10-10 18:31:00,
2013-10-10 14:32:00,56.6,33.8,30.28,SE,132,1.0,3.0,42,0.00,,---,0.00,VWS V14.01,2013-10-10 18:32:00,
2013-10-10 14:33:00,56.6,32.6,30.28,East,87,1.0,3.0,40,0.00,,---,0.00,VWS V14.01,2013-10-10 18:33:00,
2013-10-10 14:34:00,54.8,37.0,30.25,SE,131,0.0,3.0,51,0.00,,---,0.00,VWS V14.01,2013-10-10 18:34:00,
2013-10-10 14:35:00,56.6,31.3,30.28,East,81,0.0,3.0,38,0.00,,---,0.00,VWS V14.01,2013-10-10 18:35:00,
2013-10-10 14:36:00,56.6,32.6,30.28,East,81,0.0,2.0,40,0.00,,---,0.00,VWS V14.01,2013-10-10 18:36:00,
2013-10-10 14:37:00,56.6,32.0,30.28,ESE,110,0.0,2.0,39,0.00,,---,0.00,VWS V14.01,2013-10-10 18:37:00,
2013-10-10 14:38:00,56.6,31.3,30.28,ESE,110,0.0,2.0,38,0.00,,---,0.00,VWS V14.01,2013-10-10 18:38:00,
2013-10-10 14:39:00,54.9,36.6,30.25,East,88,0.0,4.0,50,0.00,,---,0.00,VWS V14.01,2013-10-10 18:39:00,
2013-10-10 14:40:00,56.6,32.0,30.28,ESE,110,2.0,3.0,39,0.00,,---,0.00,VWS V14.01,2013-10-10 18:40:00,
2013-10-10 14:41:00,56.6,32.0,30.28,East,91,1.0,3.0,39,0.00,,---,0.00,VWS V14.01,2013-10-10 18:41:00,
2013-10-10 14:42:00,56.6,31.3,30.28,East,101,2.0,3.0,38,0.00,,---,0.00,VWS V14.01,2013-10-10 18:42:00,
2013-10-10 14:43:00,56.5,29.9,30.28,East,81,1.0,3.0,36,0.00,,---,0.00,VWS V14.01,2013-10-10 18:43:00,
2013-10-10 14:44:00,54.9,37.1,30.24,West,280,0.0,5.0,51,0.00,,---,0.00,VWS V14.01,2013-10-10 18:44:00,
2013-10-10 14:45:00,56.5,31.2,30.28,ESE,105,3.0,3.0,38,0.00,,---,0.00,VWS V14.01,2013-10-10 18:45:00,
2013-10-10 14:46:00,56.4,31.1,30.28,ENE,75,2.0,4.0,38,0.00,,---,0.00,VWS V14.01,2013-10-10 18:46:00,
2013-10-10 14:47:00,56.3,30.4,30.28,ENE,77,2.0,4.0,37,0.00,,---,0.00,VWS V14.01,2013-10-10 18:47:00,
2013-10-10 14:48:00,56.3,31.7,30.28,East,79,2.0,4.0,39,0.00,,---,0.00,VWS V14.01,2013-10-10 18:48:00,
2013-10-10 14:49:00,54.9,35.6,30.25,SSE,165,2.0,3.0,48,0.00,,---,0.00,VWS V14.01,2013-10-10 18:49:00,
2013-10-10 14:50:00,56.3,31.7,30.28,SE,142,1.0,4.0,39,0.00,,---,0.00,VWS V14.01,2013-10-10 18:50:00,
2013-10-10 14:51:00,56.2,31.6,30.27,SSE,148,1.0,3.0,39,0.00,,---,0.00,VWS V14.01,2013-10-10 18:51:00,
2013-10-10 14:52:00,56.2,31.6,30.28,SSE,148,0.0,3.0,39,0.00,,---,0.00,VWS V14.01,2013-10-10 18:52:00,
2013-10-10 14:53:00,56.2,32.2,30.27,SSE,148,0.0,2.0,40,0.00,,---,0.00,VWS V14.01,2013-10-10 18:53:00,
2013-10-10 14:54:00,54.9,36.1,30.25,East,97,4.0,5.0,49,0.00,,---,0.00,VWS V14.01,2013-10-10 18:54:00,
2013-10-10 14:55:00,56.4,31.8,30.27,SSE,148,0.0,1.0,39,0.00,,---,0.00,VWS V14.01,2013-10-10 18:55:00,
2013-10-10 14:56:00,56.5,33.7,30.27,ESE,119,1.0,1.0,42,0.00,,---,0.00,VWS V14.01,2013-10-10 18:56:00,
2013-10-10 14:57:00,56.5,33.1,30.27,ESE,105,2.0,3.0,41,0.00,,---,0.00,VWS V14.01,2013-10-10 18:57:00,
2013-10-10 14:58:00,56.5,33.1,30.27,ESE,117,3.0,4.0,41,0.00,,---,0.00,VWS V14.01,2013-10-10 18:58:00,
2013-10-10 14:59:00,54.9,34.5,30.25,East,86,3.0,4.0,46,0.00,,---,0.00,VWS V14.01,2013-10-10 18:59:00,
2013-10-10 15:00:00,56.5,33.1,30.27,SE,125,2.0,4.0,41,0.00,,---,0.00,VWS V14.01,2013-10-10 19:00:00,
2013-10-10 15:01:00,56.4,33.0,30.27,East,84,1.0,4.0,41,0.00,,---,0.00,VWS V14.01,2013-10-10 19:01:00,
2013-10-10 15:02:00,56.4,33.6,30.27,ESE,112,0.0,4.0,42,0.00,,---,0.00,VWS V14.01,2013-10-10 19:02:00,
2013-10-10 15:03:00,56.3,32.3,30.27,ESE,111,0.0,3.0,40,0.00,,---,0.00,VWS V14.01,2013-10-10 19:03:00,
2013-10-10 15:04:00,54.9,35.6,30.24,SSE,153,1.0,4.0,48,0.00,,---,0.00,VWS V14.01,2013-10-10 19:04:00,
2013-10-10 15:05:00,56.3,34.1,30.27,ESE,111,0.0,2.0,43,0.00,,---,0.00,VWS V14.01,2013-10-10 19:05:00,
2013-10-10 15:06:00,56.3,34.7,30.27,ESE,111,0.0,2.0,44,0.00,,---,0.00,VWS V14.01,2013-10-10 19:06:00,
2013-10-10 15:07:00,56.4,35.9,30.27,ESE,111,0.0,0.0,46,0.00,,---,0.00,VWS V14.01,2013-10-10 19:07:00,
2013-10-10 15:08:00,56.4,34.2,30.27,ESE,111,0.0,0.0,43,0.00,,---,0.00,VWS V14.01,2013-10-10 19:08:00,
2013-10-10 15:09:00,54.9,34.5,30.24,SSE,159,0.0,2.0,46,0.00,,---,0.00,VWS V14.01,2013-10-10 19:09:00,
2013-10-10 15:10:00,56.4,33.6,30.27,ESE,112,0.0,0.0,42,0.00,,---,0.00,VWS V14.01,2013-10-10 19:10:00,
2013-10-10 15:11:00,56.4,34.2,30.27,ESE,117,1.0,1.0,43,0.00,,---,0.00,VWS V14.01,2013-10-10 19:11:00,
2013-10-10 15:12:00,56.4,33.6,30.27,ESE,108,1.0,1.0,42,0.00,,---,0.00,VWS V14.01,2013-10-10 19:12:00,
2013-10-10 15:13:00,56.4,34.2,30.27,ESE,109,1.0,1.0,43,0.00,,---,0.00,VWS V14.01,2013-10-10 19:13:00,
2013-10-10 15:14:00,55.0,34.6,30.24,SW,214,1.0,2.0,46,0.00,,---,0.00,VWS V14.01,2013-10-10 19:14:00,
2013-10-10 15:15:00,56.3,32.9,30.27,ESE,105,0.0,1.0,41,0.00,,---,0.00,VWS V14.01,2013-10-10 19:15:00,
2013-10-10 15:16:00,56.3,33.5,30.27,ESE,106,0.0,1.0,42,0.00,,---,0.00,VWS V14.01,2013-10-10 19:16:00,
2013-10-10 15:17:00,56.2,34.6,30.27,ESE,105,0.0,1.0,44,0.00,,---,0.00,VWS V14.01,2013-10-10 19:17:00,
2013-10-10 15:18:00,56.3,34.7,30.27,NE,56,1.0,2.0,44,0.00,,---,0.00,VWS V14.01,2013-10-10 19:18:00,
2013-10-10 15:19:00,56.2,34.6,30.27,NE,55,0.0,2.0,44,0.00,,---,0.00,VWS V14.01,2013-10-10 19:19:00,
2013-10-10 15:20:00,55.0,36.7,30.24,SSE,155,2.0,2.0,50,0.00,,---,0.00,VWS V14.01,2013-10-10 19:20:00,
2013-10-10 15:21:00,56.2,35.2,30.27,ENE,64,0.0,2.0,45,0.00,,---,0.00,VWS V14.01,2013-10-10 19:21:00,
2013-10-10 15:22:00,56.2,32.8,30.26,NNW,345,0.0,2.0,41,0.00,,---,0.00,VWS V14.01,2013-10-10 19:22:00,
2013-10-10 15:23:00,56.2,32.8,30.26,NW,322,1.0,2.0,41,0.00,,---,0.00,VWS V14.01,2013-10-10 19:23:00,
2013-10-10 15:24:00,56.2,32.2,30.26,NNW,340,0.0,2.0,40,0.00,,---,0.00,VWS V14.01,2013-10-10 19:24:00,
2013-10-10 15:25:00,55.1,37.3,30.24,East,86,1.0,3.0,51,0.00,,---,0.00,VWS V14.01,2013-10-10 19:25:00,
2013-10-10 15:26:00,56.2,34.6,30.27,East,100,1.0,2.0,44,0.00,,---,0.00,VWS V14.01,2013-10-10 19:26:00,
2013-10-10 15:27:00,56.2,34.0,30.26,ENE,68,1.0,2.0,43,0.00,,---,0.00,VWS V14.01,2013-10-10 19:27:00,
2013-10-10 15:28:00,56.2,34.0,30.26,ENE,68,0.0,2.0,43,0.00,,---,0.00,VWS V14.01,2013-10-10 19:28:00,
2013-10-10 15:29:00,56.2,30.3,30.27,ENE,69,0.0,2.0,37,0.00,,---,0.00,VWS V14.01,2013-10-10 19:29:00,
2013-10-10 15:30:00,55.1,36.8,30.24,East,97,3.0,4.0,50,0.00,,---,0.00,VWS V14.01,2013-10-10 19:30:00,
2013-10-10 15:31:00,56.1,31.5,30.27,East,91,2.0,2.0,39,0.00,,---,0.00,VWS V14.01,2013-10-10 19:31:00,
2013-10-10 15:32:00,56.1,30.2,30.27,East,87,1.0,2.0,37,0.00,,---,0.00,VWS V14.01,2013-10-10 19:32:00,
2013-10-10 15:33:00,56.1,30.9,30.27,East,85,0.0,2.0,38,0.00,,---,0.00,VWS V14.01,2013-10-10 19:33:00,
2013-10-10 15:34:00,56.1,31.5,30.27,East,84,0.0,2.0,39,0.00,,---,0.00,VWS V14.01,2013-10-10 19:34:00,
2013-10-10 15:35:00,56.0,31.4,30.27,East,101,2.0,3.0,39,0.00,,---,0.00,VWS V14.01,2013-10-10 19:35:00,
2013-10-10 15:36:00,54.9,35.6,30.23,East,90,0.0,2.0,48,0.00,,---,0.00,VWS V14.01,2013-10-10 19:36:00,
2013-10-10 15:37:00,56.0,30.8,30.27,ESE,109,0.0,3.0,38,0.00,,---,0.00,VWS V14.01,2013-10-10 19:37:00,
2013-10-10 15:38:00,55.9,30.7,30.26,ESE,108,0.0,3.0,38,0.00,,---,0.00,VWS V14.01,2013-10-10 19:38:00,
2013-10-10 15:39:00,55.9,31.3,30.26,ESE,108,0.0,3.0,39,0.00,,---,0.00,VWS V14.01,2013-10-10 19:39:00,
2013-10-10 15:40:00,56.0,32.0,30.26,ESE,108,0.0,2.0,40,0.00,,---,0.00,VWS V14.01,2013-10-10 19:40:00,
2013-10-10 15:41:00,56.0,32.0,30.26,ESE,108,0.0,1.0,40,0.00,,---,0.00,VWS V14.01,2013-10-10 19:41:00,
2013-10-10 15:42:00,55.0,37.2,30.23,ENE,77,0.0,2.0,51,0.00,,---,0.00,VWS V14.01,2013-10-10 19:42:00,
2013-10-10 15:43:00,56.1,34.5,30.26,ENE,65,0.0,2.0,44,0.00,,---,0.00,VWS V14.01,2013-10-10 19:43:00,
2013-10-10 15:44:00,56.1,34.5,30.26,ENE,65,0.0,2.0,44,0.00,,---,0.00,VWS V14.01,2013-10-10 19:44:00,
2013-10-10 15:45:00,56.1,36.7,30.26,ENE,65,0.0,2.0,48,0.00,,---,0.00,VWS V14.01,2013-10-10 19:45:00,
2013-10-10 15:46:00,56.2,36.8,30.26,ESE,118,2.0,2.0,48,0.00,,---,0.00,VWS V14.01,2013-10-10 19:46:00,
2013-10-10 15:47:00,55.0,35.7,30.24,ESE,122,0.0,3.0,48,0.00,,---,0.00,VWS V14.01,2013-10-10 19:47:00,
2013-10-10 15:48:00,56.1,37.2,30.26,East,88,1.0,4.0,49,0.00,,---,0.00,VWS V14.01,2013-10-10 19:48:00,
2013-10-10 15:49:00,56.1,38.7,30.26,ENE,65,1.0,4.0,52,0.00,,---,0.00,VWS V14.01,2013-10-10 19:49:00,
2013-10-10 15:50:00,56.0,38.2,30.26,NE,51,0.0,4.0,51,0.00,,---,0.00,VWS V14.01,2013-10-10 19:50:00,
2013-10-10 15:51:00,56.0,38.2,30.26,East,82,0.0,4.0,51,0.00,,---,0.00,VWS V14.01,2013-10-10 19:51:00,
2013-10-10 15:52:00,55.0,37.2,30.24,ESE,104,0.0,2.0,51,0.00,,---,0.00,VWS V14.01,2013-10-10 19:52:00,
2013-10-10 15:53:00,55.9,39.0,30.26,East,82,1.0,3.0,53,0.00,,---,0.00,VWS V14.01,2013-10-10 19:53:00,
2013-10-10 15:54:00,55.9,39.0,30.26,ENE,73,2.0,3.0,53,0.00,,---,0.00,VWS V14.01,2013-10-10 19:54:00,
2013-10-10 15:55:00,55.8,39.4,30.25,NNE,32,0.0,3.0,54,0.00,,---,0.00,VWS V14.01,2013-10-10 19:55:00,
2013-10-10 15:56:00,55.7,39.3,30.25,NNE,13,3.0,3.0,54,0.00,,---,0.00,VWS V14.01,2013-10-10 19:56:00,
2013-10-10 15:57:00,54.9,37.1,30.23,NE,47,2.0,4.0,51,0.00,,---,0.00,VWS V14.01,2013-10-10 19:57:00,
2013-10-10 15:58:00,55.6,39.2,30.26,NE,53,2.0,3.0,54,0.00,,---,0.00,VWS V14.01,2013-10-10 19:58:00,
2013-10-10 15:59:00,55.5,39.6,30.26,East,86,2.0,3.0,55,0.00,,---,0.00,VWS V14.01,2013-10-10 19:59:00,
2013-10-10 16:00:00,55.5,40.5,30.26,ENE,77,3.0,3.0,57,0.00,,---,0.00,VWS V14.01,2013-10-10 20:00:00,
2013-10-10 16:01:00,55.4,40.0,30.26,NE,44,2.0,4.0,56,0.00,,---,0.00,VWS V14.01,2013-10-10 20:01:00,
2013-10-10 16:02:00,55.4,39.5,30.26,NE,37,2.0,4.0,55,0.00,,---,0.00,VWS V14.01,2013-10-10 20:02:00,
2013-10-10 16:03:00,54.8,37.5,30.23,ENE,75,1.0,2.0,52,0.00,,---,0.00,VWS V14.01,2013-10-10 20:03:00,
2013-10-10 16:04:00,55.3,39.4,30.26,East,89,1.0,4.0,55,0.00,,---,0.00,VWS V14.01,2013-10-10 20:04:00,
2013-10-10 16:05:00,55.2,39.8,30.26,East,91,2.0,4.0,56,0.00,,---,0.00,VWS V14.01,2013-10-10 20:05:00,
2013-10-10 16:06:00,55.1,40.2,30.26,ENE,72,1.0,3.0,57,0.00,,---,0.00,VWS V14.01,2013-10-10 20:06:00,
2013-10-10 16:07:00,55.0,39.6,30.26,ENE,71,1.0,3.0,56,0.00,,---,0.00,VWS V14.01,2013-10-10 20:07:00,
2013-10-10 16:08:00,54.7,37.4,30.23,SSE,159,0.0,3.0,52,0.00,,---,0.00,VWS V14.01,2013-10-10 20:08:00,
2013-10-10 16:09:00,54.9,39.5,30.25,ENE,72,1.0,3.0,56,0.00,,---,0.00,VWS V14.01,2013-10-10 20:09:00,
2013-10-10 16:10:00,54.9,39.5,30.26,ENE,65,2.0,3.0,56,0.00,,---,0.00,VWS V14.01,2013-10-10 20:10:00,
2013-10-10 16:11:00,54.9,40.4,30.26,ENE,63,2.0,2.0,58,0.00,,---,0.00,VWS V14.01,2013-10-10 20:11:00,
2013-10-10 16:12:00,54.9,40.0,30.26,NE,46,3.0,5.0,57,0.00,,---,0.00,VWS V14.01,2013-10-10 20:12:00,
2013-10-10 16:13:00,54.5,37.7,30.23,ESE,116,1.0,2.0,53,0.00,,---,0.00,VWS V14.01,2013-10-10 20:13:00,
2013-10-10 16:14:00,54.9,38.6,30.25,ENE,60,3.0,5.0,54,0.00,,---,0.00,VWS V14.01,2013-10-10 20:14:00,
2013-10-10 16:15:00,54.8,39.0,30.25,NE,47,2.0,5.0,55,0.00,,---,0.00,VWS V14.01,2013-10-10 20:15:00,
2013-10-10 16:16:00,54.8,39.4,30.25,NE,47,0.0,5.0,56,0.00,,---,0.00,VWS V14.01,2013-10-10 20:16:00,
2013-10-10 16:17:00,54.7,39.8,30.25,NE,47,0.0,3.0,57,0.00,,---,0.00,VWS V14.01,2013-10-10 20:17:00,
2013-10-10 16:18:00,54.3,37.5,30.23,NE,34,3.0,3.0,53,0.00,,---,0.00,VWS V14.01,2013-10-10 20:18:00,
2013-10-10 16:19:00,54.7,38.9,30.25,NNE,33,1.0,3.0,55,0.00,,---,0.00,VWS V14.01,2013-10-10 20:19:00,
2013-10-10 16:20:00,54.8,37.5,30.25,NNE,21,2.0,2.0,52,0.00,,---,0.00,VWS V14.01,2013-10-10 20:20:00,
2013-10-10 16:21:00,54.8,38.0,30.25,NNE,21,1.0,2.0,53,0.00,,---,0.00,VWS V14.01,2013-10-10 20:21:00,
2013-10-10 16:22:00,54.8,38.5,30.25,ENE,77,2.0,4.0,54,0.00,,---,0.00,VWS V14.01,2013-10-10 20:22:00,
2013-10-10 16:23:00,54.8,37.5,30.25,ESE,103,2.0,4.0,52,0.00,,---,0.00,VWS V14.01,2013-10-10 20:23:00,
2013-10-10 16:24:00,54.0,37.8,30.23,WNW,300,0.0,3.0,54,0.00,,---,0.00,VWS V14.01,2013-10-10 20:24:00,
2013-10-10 16:25:00,54.8,36.0,30.25,East,88,0.0,4.0,49,0.00,,---,0.00,VWS V14.01,2013-10-10 20:25:00,
2013-10-10 16:26:00,54.8,36.5,30.25,ESE,112,1.0,4.0,50,0.00,,---,0.00,VWS V14.01,2013-10-10 20:26:00,
2013-10-10 16:27:00,54.8,37.0,30.25,ESE,104,2.0,3.0,51,0.00,,---,0.00,VWS V14.01,2013-10-10 20:27:00,
2013-10-10 16:28:00,54.8,37.0,30.25,East,87,2.0,3.0,51,0.00,,---,0.00,VWS V14.01,2013-10-10 20:28:00,
2013-10-10 16:29:00,54.8,37.0,30.25,SE,131,2.0,3.0,51,0.00,,---,0.00,VWS V14.01,2013-10-10 20:29:00,
2013-10-10 16:30:00,53.8,39.4,30.22,WNW,297,3.0,5.0,58,0.00,,---,0.00,VWS V14.01,2013-10-10 20:30:00,
2013-10-10 16:31:00,54.8,36.5,30.25,SSE,166,1.0,3.0,50,0.00,,---,0.00,VWS V14.01,2013-10-10 20:31:00,
2013-10-10 16:32:00,54.8,37.0,30.25,SE,128,0.0,3.0,51,0.00,,---,0.00,VWS V14.01,2013-10-10 20:32:00,
2013-10-10 16:33:00,53.7,39.3,30.22,NW,305,0.0,5.0,58,0.00,,---,0.00,VWS V14.01,2013-10-10 20:33:00,
2013-10-10 16:34:00,54.9,38.1,30.25,SE,131,0.0,3.0,53,0.00,,---,0.00,VWS V14.01,2013-10-10 20:34:00,
2013-10-10 16:35:00,54.9,37.1,30.25,ESE,106,0.0,2.0,51,0.00,,---,0.00,VWS V14.01,2013-10-10 20:35:00,
2013-10-10 16:36:00,54.9,36.1,30.25,ESE,108,1.0,1.0,49,0.00,,---,0.00,VWS V14.01,2013-10-10 20:36:00,
2013-10-10 16:37:00,54.9,36.6,30.25,East,86,4.0,4.0,50,0.00,,---,0.00,VWS V14.01,2013-10-10 20:37:00,
2013-10-10 16:38:00,53.6,40.1,30.23,East,94,2.0,2.0,60,0.00,,---,0.00,VWS V14.01,2013-10-10 20:38:00,
2013-10-10 16:39:00,54.9,36.6,30.25,ESE,105,3.0,4.0,50,0.00,,---,0.00,VWS V14.01,2013-10-10 20:39:00,
2013-10-10 16:40:00,54.9,36.1,30.25,ESE,105,4.0,4.0,49,0.00,,---,0.00,VWS V14.01,2013-10-10 20:40:00,
2013-10-10 16:41:00,54.9,36.1,30.24,WSW,240,2.0,4.0,49,0.00,,---,0.00,VWS V14.01,2013-10-10 20:41:00,
2013-10-10 16:42:00,54.9,35.6,30.23,WNW,287,4.0,5.0,48,0.00,,---,0.00,VWS V14.01,2013-10-10 20:42:00,
2013-10-10 16:43:00,53.5,39.5,30.22,SSW,194,0.0,3.0,59,0.00,,---,0.00,VWS V14.01,2013-10-10 20:43:00,
2013-10-10 16:44:00,54.9,36.6,30.25,East,99,2.0,5.0,50,0.00,,---,0.00,VWS V14.01,2013-10-10 20:44:00,
2013-10-10 16:45:00,54.9,36.6,30.25,East,87,3.0,5.0,50,0.00,,---,0.00,VWS V14.01,2013-10-10 20:45:00,
2013-10-10 16:46:00,54.9,37.1,30.25,East,91,2.0,5.0,51,0.00,,---,0.00,VWS V14.01,2013-10-10 20:46:00,
2013-10-10 16:47:00,54.9,35.6,30.25,ESE,122,3.0,5.0,48,0.00,,---,0.00,VWS V14.01,2013-10-10 20:47:00,
2013-10-10 16:48:00,53.5,40.4,30.22,NNW,333,0.0,4.0,61,0.00,,---,0.00,VWS V14.01,2013-10-10 20:48:00,
2013-10-10 16:49:00,54.9,36.1,30.25,SSE,156,1.0,3.0,49,0.00,,---,0.00,VWS V14.01,2013-10-10 20:49:00,
2013-10-10 16:50:00,54.9,36.6,30.25,ESE,109,0.0,3.0,50,0.00,,---,0.00,VWS V14.01,2013-10-10 20:50:00,
2013-10-10 16:51:00,54.9,35.6,30.25,ESE,108,0.0,3.0,48,0.00,,---,0.00,VWS V14.01,2013-10-10 20:51:00,
2013-10-10 16:52:00,54.9,36.1,30.25,East,88,3.0,4.0,49,0.00,,---,0.00,VWS V14.01,2013-10-10 20:52:00,
2013-10-10 16:53:00,53.4,39.9,30.23,SE,132,3.0,3.0,60,0.00,,---,0.00,VWS V14.01,2013-10-10 20:53:00,
2013-10-10 16:54:00,54.9,35.1,30.25,ENE,68,0.0,5.0,47,0.00,,---,0.00,VWS V14.01,2013-10-10 20:54:00,
2013-10-10 16:55:00,54.9,35.6,30.25,NE,46,0.0,5.0,48,0.00,,---,0.00,VWS V14.01,2013-10-10 20:55:00,
2013-10-10 16:56:00,54.9,35.1,30.25,ENE,71,1.0,5.0,47,0.00,,---,0.00,VWS V14.01,2013-10-10 20:56:00,
2013-10-10 16:57:00,54.9,34.5,30.25,East,84,3.0,5.0,46,0.00,,---,0.00,VWS V14.01,2013-10-10 20:57:00,
2013-10-10 16:58:00,54.9,34.5,30.25,East,86,3.0,4.0,46,0.00,,---,0.00,VWS V14.01,2013-10-10 20:58:00,
2013-10-10 16:59:00,53.3,40.6,30.22,ENE,74,1.0,2.0,62,0.00,,---,0.00,VWS V14.01,2013-10-10 20:59:00,
2013-10-10 17:00:00,54.9,35.1,30.25,ESE,118,1.0,4.0,47,0.00,,---,0.00,VWS V14.01,2013-10-10 21:00:00,
2013-10-10 17:01:00,54.9,35.1,30.25,ESE,119,0.0,4.0,47,0.00,,---,0.00,VWS V14.01,2013-10-10 21:01:00,
2013-10-10 17:02:00,54.9,35.1,30.25,SE,142,2.0,4.0,47,0.00,,---,0.00,VWS V14.01,2013-10-10 21:02:00,
2013-10-10 17:03:00,54.9,35.6,30.24,SSE,153,1.0,4.0,48,0.00,,---,0.00,VWS V14.01,2013-10-10 21:03:00,
2013-10-10 17:04:00,53.2,40.5,30.22,SE,127,2.0,2.0,62,0.00,,---,0.00,VWS V14.01,2013-10-10 21:04:00,
2013-10-10 17:05:00,54.9,34.5,30.25,SE,132,1.0,2.0,46,0.00,,---,0.00,VWS V14.01,2013-10-10 21:05:00,
2013-10-10 17:06:00,54.9,36.1,30.24,SE,133,0.0,2.0,49,0.00,,---,0.00,VWS V14.01,2013-10-10 21:06:00,
2013-10-10 17:07:00,54.9,35.6,30.24,SSE,158,1.0,2.0,48,0.00,,---,0.00,VWS V14.01,2013-10-10 21:07:00,
2013-10-10 17:08:00,54.9,34.5,30.24,SSE,159,0.0,2.0,46,0.00,,---,0.00,VWS V14.01,2013-10-10 21:08:00,
2013-10-10 17:09:00,53.1,40.4,30.22,SSE,158,0.0,3.0,62,0.00,,---,0.00,VWS V14.01,2013-10-10 21:09:00,
2013-10-10 17:10:00,54.9,34.5,30.24,SE,134,1.0,2.0,46,0.00,,---,0.00,VWS V14.01,2013-10-10 21:10:00,
2013-10-10 17:11:00,55.0,34.6,30.24,SE,146,1.0,2.0,46,0.00,,---,0.00,VWS V14.01,2013-10-10 21:11:00,
2013-10-10 17:12:00,54.9,35.6,30.24,SW,214,1.0,2.0,48,0.00,,---,0.00,VWS V14.01,2013-10-10 21:12:00,
2013-10-10 17:13:00,55.0,34.6,30.24,SW,214,1.0,2.0,46,0.00,,---,0.00,VWS V14.01,2013-10-10 21:13:00,
2013-10-10 17:14:00,53.0,40.3,30.22,SE,129,0.0,1.0,62,0.00,,---,0.00,VWS V14.01,2013-10-10 21:14:00,
2013-10-10 17:15:00,55.0,36.2,30.24,South,190,1.0,2.0,49,0.00,,---,0.00,VWS V14.01,2013-10-10 21:15:00,
2013-10-10 17:16:00,55.0,35.2,30.24,WSW,253,1.0,2.0,47,0.00,,---,0.00,VWS V14.01,2013-10-10 21:16:00,
2013-10-10 17:17:00,55.0,35.7,30.23,West,264,1.0,2.0,48,0.00,,---,0.00,VWS V14.01,2013-10-10 21:17:00,
2013-10-10 17:18:00,55.0,35.7,30.23,SSW,210,1.0,2.0,48,0.00,,---,0.00,VWS V14.01,2013-10-10 21:18:00,
2013-10-10 17:19:00,52.9,41.1,30.22,South,190,2.0,3.0,64,0.00,,---,0.00,VWS V14.01,2013-10-10 21:19:00,
2013-10-10 17:20:00,55.0,35.2,30.24,SE,132,2.0,3.0,47,0.00,,---,0.00,VWS V14.01,2013-10-10 21:20:00,
2013-10-10 17:21:00,55.0,35.7,30.24,SE,141,1.0,3.0,48,0.00,,---,0.00,VWS V14.01,2013-10-10 21:21:00,
2013-10-10 17:22:00,55.0,35.7,30.24,SE,141,0.0,3.0,48,0.00,,---,0.00,VWS V14.01,2013-10-10 21:22:00,
2013-10-10 17:23:00,55.0,36.7,30.24,SE,141,0.0,3.0,50,0.00,,---,0.00,VWS V14.01,2013-10-10 21:23:00,
2013-10-10 17:24:00,52.8,41.4,30.23,East,96,2.0,3.0,65,0.00,,---,0.00,VWS V14.01,2013-10-10 21:24:00,
2013-10-10 17:25:00,55.1,36.3,30.24,East,95,1.0,2.0,49,0.00,,---,0.00,VWS V14.01,2013-10-10 21:25:00,
2013-10-10 17:26:00,55.1,36.3,30.23,East,93,0.0,2.0,49,0.00,,---,0.00,VWS V14.01,2013-10-10 21:26:00,
2013-10-10 17:27:00,55.1,36.3,30.23,SW,214,1.0,2.0,49,0.00,,---,0.00,VWS V14.01,2013-10-10 21:27:00,
2013-10-10 17:28:00,55.1,36.8,30.24,ESE,108,2.0,2.0,50,0.00,,---,0.00,VWS V14.01,2013-10-10 21:28:00,
2013-10-10 17:29:00,52.6,41.2,30.23,East,88,0.0,2.0,65,0.00,,---,0.00,VWS V14.01,2013-10-10 21:29:00,
2013-10-10 17:30:00,55.0,35.7,30.24,ESE,105,0.0,4.0,48,0.00,,---,0.00,VWS V14.01,2013-10-10 21:30:00,
2013-10-10 17:31:00,55.1,36.8,30.24,East,94,1.0,4.0,50,0.00,,---,0.00,VWS V14.01,2013-10-10 21:31:00,
2013-10-10 17:32:00,55.0,36.2,30.23,East,92,1.0,4.0,49,0.00,,---,0.00,VWS V14.01,2013-10-10 21:32:00,
2013-10-10 17:33:00,55.0,36.2,30.23,East,91,1.0,4.0,49,0.00,,---,0.00,VWS V14.01,2013-10-10 21:33:00,
2013-10-10 17:34:00,52.4,40.6,30.21,NNW,330,0.0,3.0,64,0.00,,---,0.00,VWS V14.01,2013-10-10 21:34:00,
2013-10-10 17:35:00,54.9,35.6,30.23,East,90,0.0,2.0,48,0.00,,---,0.00,VWS V14.01,2013-10-10 21:35:00,
2013-10-10 17:36:00,54.9,35.1,30.23,East,90,0.0,2.0,47,0.00,,---,0.00,VWS V14.01,2013-10-10 21:36:00,
2013-10-10 17:37:00,54.9,34.5,30.23,East,91,0.0,2.0,46,0.00,,---,0.00,VWS V14.01,2013-10-10 21:37:00,
2013-10-10 17:38:00,54.9,35.6,30.23,ESE,110,1.0,2.0,48,0.00,,---,0.00,VWS V14.01,2013-10-10 21:38:00,
2013-10-10 17:39:00,55.0,36.2,30.23,ESE,102,1.0,2.0,49,0.00,,---,0.00,VWS V14.01,2013-10-10 21:39:00,
2013-10-10 17:40:00,52.3,40.9,30.21,NNW,338,1.0,5.0,65,0.00,,---,0.00,VWS V14.01,2013-10-10 21:40:00,
2013-10-10 17:41:00,55.0,37.2,30.23,ENE,77,0.0,2.0,51,0.00,,---,0.00,VWS V14.01,2013-10-10 21:41:00,
2013-10-10 17:42:00,55.0,36.2,30.23,ENE,77,0.0,2.0,49,0.00,,---,0.00,VWS V14.01,2013-10-10 21:42:00,
2013-10-10 17:43:00,55.0,36.7,30.23,East,79,1.0,2.0,50,0.00,,---,0.00,VWS V14.01,2013-10-10 21:43:00,
2013-10-10 17:44:00,55.0,36.7,30.24,ESE,113,2.0,2.0,50,0.00,,---,0.00,VWS V14.01,2013-10-10 21:44:00,
2013-10-10 17:45:00,52.3,39.3,30.21,NNE,23,3.0,5.0,61,0.00,,---,0.00,VWS V14.01,2013-10-10 21:45:00,
2013-10-10 17:46:00,55.0,35.7,30.24,ESE,122,0.0,3.0,48,0.00,,---,0.00,VWS V14.01,2013-10-10 21:46:00,
2013-10-10 17:47:00,55.0,37.2,30.24,ESE,116,0.0,3.0,51,0.00,,---,0.00,VWS V14.01,2013-10-10 21:47:00,
2013-10-10 17:48:00,55.0,37.2,30.24,ESE,118,0.0,3.0,51,0.00,,---,0.00,VWS V14.01,2013-10-10 21:48:00,
2013-10-10 17:49:00,55.0,37.2,30.24,ESE,115,0.0,3.0,51,0.00,,---,0.00,VWS V14.01,2013-10-10 21:49:00,
2013-10-10 17:50:00,52.3,38.8,30.21,ENE,62,1.0,4.0,60,0.00,,---,0.00,VWS V14.01,2013-10-10 21:50:00,
2013-10-10 17:51:00,55.0,37.2,30.24,ESE,104,0.0,2.0,51,0.00,,---,0.00,VWS V14.01,2013-10-10 21:51:00,
2013-10-10 17:52:00,55.0,37.7,30.24,ESE,104,0.0,2.0,52,0.00,,---,0.00,VWS V14.01,2013-10-10 21:52:00,
2013-10-10 17:53:00,55.1,38.3,30.24,ESE,110,2.0,4.0,53,0.00,,---,0.00,VWS V14.01,2013-10-10 21:53:00,
2013-10-10 17:54:00,55.0,36.7,30.24,East,94,2.0,4.0,50,0.00,,---,0.00,VWS V14.01,2013-10-10 21:54:00,
2013-10-10 17:55:00,52.3,38.0,30.21,East,94,0.0,2.0,58,0.00,,---,0.00,VWS V14.01,2013-10-10 21:55:00,
2013-10-10 17:56:00,54.9,37.1,30.23,NE,47,2.0,4.0,51,0.00,,---,0.00,VWS V14.01,2013-10-10 21:56:00,
2013-10-10 17:57:00,54.9,36.6,30.23,NE,47,0.0,4.0,50,0.00,,---,0.00,VWS V14.01,2013-10-10 21:57:00,
2013-10-10 17:58:00,54.9,36.6,30.24,ESE,104,1.0,4.0,50,0.00,,---,0.00,VWS V14.01,2013-10-10 21:58:00,
2013-10-10 17:59:00,54.8,37.0,30.24,ESE,104,0.0,2.0,51,0.00,,---,0.00,VWS V14.01,2013-10-10 21:59:00,
2013-10-10 18:00:00,54.8,36.5,30.23,ESE,104,0.0,2.0,50,0.00,,---,0.00,VWS V14.01,2013-10-10 22:00:00,
2013-10-10 18:01:00,52.2,37.0,30.22,ESE,105,0.0,2.0,56,0.00,,---,0.00,VWS V14.01,2013-10-10 22:01:00,
2013-10-10 18:02:00,54.8,37.5,30.23,ENE,75,1.0,2.0,52,0.00,,---,0.00,VWS V14.01,2013-10-10 22:02:00,
2013-10-10 18:03:00,54.7,37.4,30.24,East,79,1.0,2.0,52,0.00,,---,0.00,VWS V14.01,2013-10-10 22:03:00,
2013-10-10 18:04:00,54.7,38.4,30.24,SE,125,3.0,3.0,54,0.00,,---,0.00,VWS V14.01,2013-10-10 22:04:00,
2013-10-10 18:05:00,54.7,37.4,30.24,ESE,120,2.0,3.0,52,0.00,,---,0.00,VWS V14.01,2013-10-10 22:05:00,
2013-10-10 18:06:00,52.1,36.4,30.22,SSE,158,0.0,3.0,55,0.00,,---,0.00,VWS V14.01,2013-10-10 22:06:00,
2013-10-10 18:07:00,54.7,37.4,30.23,SSE,159,0.0,3.0,52,0.00,,---,0.00,VWS V14.01,2013-10-10 22:07:00,
2013-10-10 18:08:00,54.6,38.8,30.23,SSE,159,0.0,3.0,55,0.00,,---,0.00,VWS V14.01,2013-10-10 22:08:00,
2013-10-10 18:09:00,54.6,37.8,30.23,ENE,58,1.0,3.0,53,0.00,,---,0.00,VWS V14.01,2013-10-10 22:09:00,
2013-10-10 18:10:00,54.6,37.8,30.23,East,89,0.0,2.0,53,0.00,,---,0.00,VWS V14.01,2013-10-10 22:10:00,
2013-10-10 18:11:00,52.0,35.4,30.21,SSE,150,1.0,1.0,53,0.00,,---,0.00,VWS V14.01,2013-10-10 22:11:00,
2013-10-10 18:12:00,54.5,37.7,30.23,ESE,116,1.0,2.0,53,0.00,,---,0.00,VWS V14.01,2013-10-10 22:12:00,
2013-10-10 18:13:00,54.5,37.7,30.23,ESE,115,0.0,2.0,53,0.00,,---,0.00,VWS V14.01,2013-10-10 22:13:00,
2013-10-10 18:14:00,54.5,37.7,30.23,West,267,2.0,2.0,53,0.00,,---,0.00,VWS V14.01,2013-10-10 22:14:00,
2013-10-10 18:15:00,54.4,38.1,30.23,NNW,330,1.0,2.0,54,0.00,,---,0.00,VWS V14.01,2013-10-10 22:15:00,
2013-10-10 18:16:00,51.9,35.3,30.20,NW,319,4.0,5.0,53,0.00,,---,0.00,VWS V14.01,2013-10-10 22:16:00,
2013-10-10 18:17:00,54.3,37.5,30.23,NE,34,3.0,3.0,53,0.00,,---,0.00,VWS V14.01,2013-10-10 22:17:00,
2013-10-10 18:18:00,54.3,38.5,30.23,NE,36,2.0,4.0,55,0.00,,---,0.00,VWS V14.01,2013-10-10 22:18:00,
2013-10-10 18:19:00,54.2,38.4,30.23,NE,56,2.0,4.0,55,0.00,,---,0.00,VWS V14.01,2013-10-10 22:19:00,
2013-10-10 18:20:00,54.2,37.9,30.23,ENE,65,2.0,4.0,54,0.00,,---,0.00,VWS V14.01,2013-10-10 22:20:00,
2013-10-10 18:21:00,54.1,38.3,30.23,ENE,65,0.0,4.0,55,0.00,,---,0.00,VWS V14.01,2013-10-10 22:21:00,
2013-10-10 18:22:00,51.6,33.1,30.21,North,11,2.0,3.0,49,0.00,,---,0.00,VWS V14.01,2013-10-10 22:22:00,
2013-10-10 18:23:00,54.0,37.8,30.23,WNW,300,0.0,3.0,54,0.00,,---,0.00,VWS V14.01,2013-10-10 22:23:00,
2013-10-10 18:24:00,54.0,38.7,30.23,WNW,298,1.0,3.0,56,0.00,,---,0.00,VWS V14.01,2013-10-10 22:24:00,
2013-10-10 18:25:00,54.0,38.7,30.22,NW,321,2.0,3.0,56,0.00,,---,0.00,VWS V14.01,2013-10-10 22:25:00,
2013-10-10 18:26:00,53.9,39.0,30.22,NW,323,2.0,3.0,57,0.00,,---,0.00,VWS V14.01,2013-10-10 22:26:00,
2013-10-10 18:27:00,52.5,30.1,30.21,SE,128,1.0,5.0,42,0.00,,---,0.00,VWS V14.01,2013-10-10 22:27:00,
2013-10-10 18:28:00,53.8,39.4,30.22,NW,311,4.0,4.0,58,0.00,,---,0.00,VWS V14.01,2013-10-10 22:28:00,
2013-10-10 18:29:00,53.8,39.4,30.22,WNW,297,3.0,5.0,58,0.00,,---,0.00,VWS V14.01,2013-10-10 22:29:00,
2013-10-10 18:30:00,53.7,39.3,30.21,WNW,295,3.0,5.0,58,0.00,,---,0.00,VWS V14.01,2013-10-10 22:30:00,
2013-10-10 18:31:00,53.7,38.8,30.21,WNW,302,2.0,5.0,57,0.00,,---,0.00,VWS V14.01,2013-10-10 22:31:00,
2013-10-10 18:32:00,52.9,29.2,30.21,NW,316,0.0,2.0,40,0.00,,---,0.00,VWS V14.01,2013-10-10 22:32:00,
2013-10-10 18:33:00,53.6,39.2,30.22,NNE,31,1.0,5.0,58,0.00,,---,0.00,VWS V14.01,2013-10-10 22:33:00,
2013-10-10 18:34:00,53.7,39.3,30.22,ENE,58,1.0,5.0,58,0.00,,---,0.00,VWS V14.01,2013-10-10 22:34:00,
2013-10-10 18:35:00,53.6,39.2,30.22,East,79,1.0,5.0,58,0.00,,---,0.00,VWS V14.01,2013-10-10 22:35:00,
2013-10-10 18:36:00,53.6,39.6,30.22,East,79,0.0,2.0,59,0.00,,---,0.00,VWS V14.01,2013-10-10 22:36:00,
2013-10-10 18:37:00,53.0,30.0,30.21,SSE,148,0.0,2.0,41,0.00,,---,0.00,VWS V14.01,2013-10-10 22:37:00,
2013-10-10 18:38:00,53.6,39.6,30.22,East,94,0.0,3.0,59,0.00,,---,0.00,VWS V14.01,2013-10-10 22:38:00,
2013-10-10 18:39:00,53.6,40.1,30.22,East,94,0.0,3.0,60,0.00,,---,0.00,VWS V14.01,2013-10-10 22:39:00,
2013-10-10 18:40:00,53.6,39.6,30.22,East,94,0.0,3.0,59,0.00,,---,0.00,VWS V14.01,2013-10-10 22:40:00,
2013-10-10 18:41:00,53.6,39.2,30.22,SSW,194,0.0,3.0,58,0.00,,---,0.00,VWS V14.01,2013-10-10 22:41:00,
2013-10-10 18:42:00,53.5,39.5,30.22,SSW,194,0.0,3.0,59,0.00,,---,0.00,VWS V14.01,2013-10-10 22:42:00,
2013-10-10 18:43:00,52.7,31.4,30.22,SE,124,2.0,3.0,44,0.00,,---,0.00,VWS V14.01,2013-10-10 22:43:00,
2013-10-10 18:44:00,53.5,39.1,30.22,SSW,201,1.0,1.0,58,0.00,,---,0.00,VWS V14.01,2013-10-10 22:44:00,
2013-10-10 18:45:00,53.5,39.5,30.22,NW,319,2.0,2.0,59,0.00,,---,0.00,VWS V14.01,2013-10-10 22:45:00,
2013-10-10 18:46:00,53.5,39.1,30.22,NW,321,3.0,4.0,58,0.00,,---,0.00,VWS V14.01,2013-10-10 22:46:00,
2013-10-10 18:47:00,53.5,40.4,30.22,NNW,333,0.0,4.0,61,0.00,,---,0.00,VWS V14.01,2013-10-10 22:47:00,
2013-10-10 18:48:00,52.4,33.3,30.22,East,95,1.0,1.0,48,0.00,,---,0.00,VWS V14.01,2013-10-10 22:48:00,
2013-10-10 18:49:00,53.4,40.3,30.22,ENE,77,1.0,4.0,61,0.00,,---,0.00,VWS V14.01,2013-10-10 22:49:00,
2013-10-10 18:50:00,53.4,39.9,30.22,SSE,153,1.0,4.0,60,0.00,,---,0.00,VWS V14.01,2013-10-10 22:50:00,
2013-10-10 18:51:00,53.4,39.9,30.22,SSE,162,1.0,3.0,60,0.00,,---,0.00,VWS V14.01,2013-10-10 22:51:00,
2013-10-10 18:52:00,53.4,39.9,30.23,SE,132,3.0,3.0,60,0.00,,---,0.00,VWS V14.01,2013-10-10 22:52:00,
2013-10-10 18:53:00,53.4,41.1,30.23,SE,138,2.0,3.0,63,0.00,,---,0.00,VWS V14.01,2013-10-10 22:53:00,
2013-10-10 18:54:00,51.7,33.2,30.22,East,96,0.0,1.0,49,0.00,,---,0.00,VWS V14.01,2013-10-10 22:54:00,
2013-10-10 18:55:00,53.3,40.6,30.22,SSW,205,1.0,3.0,62,0.00,,---,0.00,VWS V14.01,2013-10-10 22:55:00,
2013-10-10 18:56:00,53.3,40.6,30.22,ESE,104,0.0,3.0,62,0.00,,---,0.00,VWS V14.01,2013-10-10 22:56:00,
2013-10-10 18:57:00,53.3,41.0,30.22,ENE,73,2.0,3.0,63,0.00,,---,0.00,VWS V14.01,2013-10-10 22:57:00,
2013-10-10 18:58:00,53.3,40.6,30.22,ENE,74,1.0,2.0,62,0.00,,---,0.00,VWS V14.01,2013-10-10 22:58:00,
2013-10-10 18:59:00,53.2,40.5,30.22,ENE,73,1.0,2.0,62,0.00,,---,0.00,VWS V14.01,2013-10-10 22:59:00,
2013-10-10 19:00:00,51.6,32.6,30.21,NNW,342,2.0,3.0,48,0.00,,---,0.00,VWS V14.01,2013-10-10 23:00:00,
2013-10-10 19:01:00,53.2,40.5,30.22,North,6,0.0,2.0,62,0.00,,---,0.00,VWS V14.01,2013-10-10 23:01:00,
2013-10-10 19:02:00,53.2,40.5,30.22,North,9,1.0,2.0,62,0.00,,---,0.00,VWS V14.01,2013-10-10 23:02:00,
2013-10-10 19:03:00,53.2,40.5,30.22,SE,127,2.0,2.0,62,0.00,,---,0.00,VWS V14.01,2013-10-10 23:03:00,
2013-10-10 19:04:00,53.1,40.8,30.22,SSE,149,2.0,3.0,63,0.00,,---,0.00,VWS V14.01,2013-10-10 23:04:00,
2013-10-10 19:05:00,52.1,34.0,30.22,ESE,102,2.0,4.0,50,0.00,,---,0.00,VWS V14.01,2013-10-10 23:05:00,
2013-10-10 19:06:00,53.1,40.4,30.22,SSE,158,1.0,3.0,62,0.00,,---,0.00,VWS V14.01,2013-10-10 23:06:00,
2013-10-10 19:07:00,53.1,40.4,30.22,SSE,158,0.0,3.0,62,0.00,,---,0.00,VWS V14.01,2013-10-10 23:07:00,
2013-10-10 19:08:00,53.1,40.4,30.22,SSE,158,0.0,3.0,62,0.00,,---,0.00,VWS V14.01,2013-10-10 23:08:00,
2013-10-10 19:09:00,53.1,40.4,30.22,SSE,158,0.0,3.0,62,0.00,,---,0.00,VWS V14.01,2013-10-10 23:09:00,
2013-10-10 19:10:00,52.1,35.5,30.21,ENE,57,0.0,3.0,53,0.00,,---,0.00,VWS V14.01,2013-10-10 23:10:00,
2013-10-10 19:11:00,53.0,39.9,30.23,SE,128,0.0,1.0,61,0.00,,---,0.00,VWS V14.01,2013-10-10 23:11:00,
2013-10-10 19:12:00,53.0,40.3,30.22,SE,129,0.0,1.0,62,0.00,,---,0.00,VWS V14.01,2013-10-10 23:12:00,
2013-10-10 19:13:00,53.0,40.3,30.22,SE,129,0.0,1.0,62,0.00,,---,0.00,VWS V14.01,2013-10-10 23:13:00,
2013-10-10 19:14:00,53.0,40.3,30.22,SE,128,0.0,1.0,62,0.00,,---,0.00,VWS V14.01,2013-10-10 23:14:00,
2013-10-10 19:15:00,53.0,40.3,30.22,SE,128,0.0,1.0,62,0.00,,---,0.00,VWS V14.01,2013-10-10 23:15:00,
2013-10-10 19:16:00,52.2,34.6,30.21,NE,40,1.0,1.0,51,0.00,,---,0.00,VWS V14.01,2013-10-10 23:16:00,
2013-10-10 19:17:00,53.0,41.6,30.22,SSE,164,2.0,2.0,65,0.00,,---,0.00,VWS V14.01,2013-10-10 23:17:00,
2013-10-10 19:18:00,52.9,41.1,30.22,South,190,2.0,3.0,64,0.00,,---,0.00,VWS V14.01,2013-10-10 23:18:00,
2013-10-10 19:19:00,52.9,40.7,30.22,SSW,201,0.0,3.0,63,0.00,,---,0.00,VWS V14.01,2013-10-10 23:19:00,
2013-10-10 19:20:00,52.9,41.1,30.22,SSW,201,0.0,3.0,64,0.00,,---,0.00,VWS V14.01,2013-10-10 23:20:00,
2013-10-10 19:21:00,52.6,35.5,30.21,East,96,1.0,3.0,52,0.00,,---,0.00,VWS V14.01,2013-10-10 23:21:00,
2013-10-10 19:22:00,52.8,41.0,30.22,ESE,122,1.0,3.0,64,0.00,,---,0.00,VWS V14.01,2013-10-10 23:22:00,
2013-10-10 19:23:00,52.8,41.4,30.23,East,96,2.0,3.0,65,0.00,,---,0.00,VWS V14.01,2013-10-10 23:23:00,
2013-10-10 19:24:00,52.7,41.3,30.23,East,95,0.0,3.0,65,0.00,,---,0.00,VWS V14.01,2013-10-10 23:24:00,
2013-10-10 19:25:00,52.7,41.3,30.22,East,95,0.0,3.0,65,0.00,,---,0.00,VWS V14.01,2013-10-10 23:25:00,
2013-10-10 19:26:00,52.7,36.1,30.21,SE,142,1.0,2.0,53,0.00,,---,0.00,VWS V14.01,2013-10-10 23:26:00,
2013-10-10 19:27:00,52.6,41.2,30.23,East,87,0.0,3.0,65,0.00,,---,0.00,VWS V14.01,2013-10-10 23:27:00,
2013-10-10 19:28:00,52.6,41.2,30.23,East,88,0.0,2.0,65,0.00,,---,0.00,VWS V14.01,2013-10-10 23:28:00,
2013-10-10 19:29:00,52.5,41.5,30.22,ENE,78,2.0,2.0,66,0.00,,---,0.00,VWS V14.01,2013-10-10 23:29:00,
2013-10-10 19:30:00,52.5,41.5,30.22,NNE,15,2.0,2.0,66,0.00,,---,0.00,VWS V14.01,2013-10-10 23:30:00,
2013-10-10 19:31:00,52.7,37.0,30.21,ESE,120,0.0,2.0,55,0.00,,---,0.00,VWS V14.01,2013-10-10 23:31:00,
2013-10-10 19:32:00,52.4,41.4,30.22,NNW,330,1.0,3.0,66,0.00,,---,0.00,VWS V14.01,2013-10-10 23:32:00,
2013-10-10 19:33:00,52.4,40.6,30.21,NNW,330,0.0,3.0,64,0.00,,---,0.00,VWS V14.01,2013-10-10 23:33:00,
2013-10-10 19:34:00,52.4,41.0,30.21,NNW,330,1.0,3.0,65,0.00,,---,0.00,VWS V14.01,2013-10-10 23:34:00,
2013-10-10 19:35:00,52.4,41.8,30.21,North,355,3.0,3.0,67,0.00,,---,0.00,VWS V14.01,2013-10-10 23:35:00,
2013-10-10 19:36:00,52.4,42.2,30.21,North,352,4.0,4.0,68,0.00,,---,0.00,VWS V14.01,2013-10-10 23:36:00,
2013-10-10 19:37:00,52.3,36.2,30.22,South,180,2.0,2.0,54,0.00,,---,0.00,VWS V14.01,2013-10-10 23:37:00,
2013-10-10 19:38:00,52.3,40.5,30.21,NNW,348,1.0,5.0,64,0.00,,---,0.00,VWS V14.01,2013-10-10 23:38:00,
2013-10-10 19:39:00,52.3,40.9,30.21,NNW,338,1.0,5.0,65,0.00,,---,0.00,VWS V14.01,2013-10-10 23:39:00,
2013-10-10 19:40:00,52.3,40.9,30.21,NNE,20,2.0,5.0,65,0.00,,---,0.00,VWS V14.01,2013-10-10 23:40:00,
2013-10-10 19:41:00,52.3,40.1,30.21,NNE,32,1.0,5.0,63,0.00,,---,0.00,VWS V14.01,2013-10-10 23:41:00,
2013-10-10 19:42:00,51.9,37.6,30.22,SE,143,2.0,3.0,58,0.00,,---,0.00,VWS V14.01,2013-10-10 23:42:00,
2013-10-10 19:43:00,52.3,39.7,30.21,North,4,3.0,5.0,62,0.00,,---,0.00,VWS V14.01,2013-10-10 23:43:00,
2013-10-10 19:44:00,52.3,39.3,30.21,NNE,23,3.0,5.0,61,0.00,,---,0.00,VWS V14.01,2013-10-10 23:44:00,
2013-10-10 19:45:00,52.3,38.8,30.21,North,352,2.0,4.0,60,0.00,,---,0.00,VWS V14.01,2013-10-10 23:45:00,
2013-10-10 19:46:00,52.4,39.4,30.21,NW,314,3.0,4.0,61,0.00,,---,0.00,VWS V14.01,2013-10-10 23:46:00,
2013-10-10 19:47:00,52.4,39.4,30.20,NNW,340,2.0,4.0,61,0.00,,---,0.00,VWS V14.01,2013-10-10 23:47:00,
2013-10-10 19:48:00,52.0,36.3,30.21,NNW,328,3.0,3.0,55,0.00,,---,0.00,VWS V14.01,2013-10-10 23:48:00,
2013-10-10 19:49:00,52.3,38.8,30.21,ENE,62,1.0,4.0,60,0.00,,---,0.00,VWS V14.01,2013-10-10 23:49:00,
2013-10-10 19:50:00,52.3,38.0,30.21,East,87,1.0,4.0,58,0.00,,---,0.00,VWS V14.01,2013-10-10 23:50:00,
2013-10-10 19:51:00,52.3,38.0,30.21,ESE,105,0.0,4.0,58,0.00,,---,0.00,VWS V14.01,2013-10-10 23:51:00,
2013-10-10 19:52:00,52.3,37.5,30.21,East,93,1.0,2.0,57,0.00,,---,0.00,VWS V14.01,2013-10-10 23:52:00,
2013-10-10 19:53:00,52.2,36.1,30.21,ESE,120,0.0,3.0,54,0.00,,---,0.00,VWS V14.01,2013-10-10 23:53:00,
2013-10-10 19:54:00,52.3,38.0,30.21,East,94,0.0,2.0,58,0.00,,---,0.00,VWS V14.01,2013-10-10 23:54:00,
2013-10-10 19:55:00,52.3,37.5,30.21,East,93,0.0,2.0,57,0.00,,---,0.00,VWS V14.01,2013-10-10 23:55:00,
2013-10-10 19:56:00,52.3,38.0,30.21,ESE,105,1.0,2.0,58,0.00,,---,0.00,VWS V14.01,2013-10-10 23:56:00,
2013-10-10 19:57:00,52.3,37.1,30.21,ESE,106,0.0,2.0,56,0.00,,---,0.00,VWS V14.01,2013-10-10 23:57:00,
2013-10-10 19:58:00,51.7,36.1,30.21,North,349,2.0,3.0,55,0.00,,---,0.00,VWS V14.01,2013-10-10 23:58:00,
2013-10-10 19:59:00,52.2,37.4,30.21,ESE,106,0.0,2.0,57,0.00,,---,0.00,VWS V14.01,2013-10-10 23:59:00,
2013-10-10 20:00:00,52.2,37.0,30.22,ESE,105,0.0,2.0,56,0.00,,---,0.00,VWS V14.01,2013-10-11 00:00:00,
2013-10-10 20:01:00,52.2,37.0,30.22,SSE,156,2.0,2.0,56,0.00,,---,0.00,VWS V14.01,2013-10-11 00:01:00,
2013-10-10 20:02:00,52.2,37.0,30.22,South,179,2.0,3.0,56,0.00,,---,0.00,VWS V14.01,2013-10-11 00:02:00,
2013-10-10 20:03:00,51.6,36.9,30.21,SSE,156,3.0,3.0,57,0.00,,---,0.00,VWS V14.01,2013-10-11 00:03:00,
2013-10-10 20:04:00,52.2,36.5,30.22,SSE,160,0.0,3.0,55,0.00,,---,0.00,VWS V14.01,2013-10-11 00:04:00,
2013-10-10 20:05:00,52.1,36.4,30.22,SSE,158,0.0,3.0,55,0.00,,---,0.00,VWS V14.01,2013-10-11 00:05:00,
2013-10-10 20:06:00,52.1,36.0,30.22,SSE,153,0.0,3.0,54,0.00,,---,0.00,VWS V14.01,2013-10-11 00:06:00,
2013-10-10 20:07:00,52.1,36.4,30.22,SSE,148,0.0,2.0,55,0.00,,---,0.00,VWS V14.01,2013-10-11 00:07:00,
2013-10-10 20:08:00,51.2,37.8,30.21,ESE,122,0.0,4.0,60,0.00,,---,0.00,VWS V14.01,2013-10-11 00:08:00,
2013-10-10 20:09:00,52.1,36.0,30.21,SSE,148,0.0,1.0,54,0.00,,---,0.00,VWS V14.01,2013-10-11 00:09:00,
2013-10-10 20:10:00,52.0,35.4,30.21,SSE,150,1.0,1.0,53,0.00,,---,0.00,VWS V14.01,2013-10-11 00:10:00,
2013-10-10 20:11:00,52.0,35.4,30.21,SSE,150,1.0,2.0,53,0.00,,---,0.00,VWS V14.01,2013-10-11 00:11:00,
2013-10-10 20:12:00,52.0,35.9,30.21,SSE,155,0.0,2.0,54,0.00,,---,0.00,VWS V14.01,2013-10-11 00:12:00,
2013-10-10 20:13:00,50.5,38.4,30.21,East,79,1.0,1.0,63,0.00,,---,0.00,VWS V14.01,2013-10-11 00:13:00,
2013-10-10 20:14:00,51.9,35.8,30.21,NW,322,5.0,5.0,54,0.00,,---,0.00,VWS V14.01,2013-10-11 00:14:00,
2013-10-10 20:15:00,51.9,35.3,30.20,NW,319,4.0,5.0,53,0.00,,---,0.00,VWS V14.01,2013-10-11 00:15:00,
2013-10-10 20:16:00,51.8,39.2,30.20,NW,326,1.0,5.0,62,0.00,,---,0.00,VWS V14.01,2013-10-11 00:16:00,
2013-10-10 20:17:00,51.7,39.1,30.21,NE,39,1.0,5.0,62,0.00,,---,0.00,VWS V14.01,2013-10-11 00:17:00,
2013-10-10 20:18:00,51.6,37.3,30.21,East,96,1.0,5.0,58,0.00,,---,0.00,VWS V14.01,2013-10-11 00:18:00,
2013-10-10 20:19:00,50.4,35.8,30.21,NNE,27,0.0,1.0,57,0.00,,---,0.00,VWS V14.01,2013-10-11 00:19:00,
2013-10-10 20:20:00,51.6,35.0,30.21,North,1,1.0,4.0,53,0.00,,---,0.00,VWS V14.01,2013-10-11 00:20:00,
2013-10-10 20:21:00,51.6,33.1,30.21,North,11,2.0,3.0,49,0.00,,---,0.00,VWS V14.01,2013-10-11 00:21:00,
2013-10-10 20:22:00,51.8,32.8,30.21,NE,56,3.0,3.0,48,0.00,,---,0.00,VWS V14.01,2013-10-11 00:22:00,
2013-10-10 20:23:00,52.0,31.3,30.21,NE,46,2.0,5.0,45,0.00,,---,0.00,VWS V14.01,2013-10-11 00:23:00,
2013-10-10 20:24:00,50.7,35.1,30.21,NNE,27,0.0,0.0,55,0.00,,---,0.00,VWS V14.01,2013-10-11 00:24:00,
2013-10-10 20:25:00,52.3,30.5,30.21,East,91,0.0,5.0,43,0.00,,---,0.00,VWS V14.01,2013-10-11 00:25:00,
2013-10-10 20:26:00,52.5,30.1,30.21,SE,128,1.0,5.0,42,0.00,,---,0.00,VWS V14.01,2013-10-11 00:26:00,
2013-10-10 20:27:00,52.6,29.6,30.21,ESE,103,0.0,5.0,41,0.00,,---,0.00,VWS V14.01,2013-10-11 00:27:00,
2013-10-10 20:28:00,52.6,29.0,30.21,ENE,77,0.0,5.0,40,0.00,,---,0.00,VWS V14.01,2013-10-11 00:28:00,
2013-10-10 20:29:00,51.0,35.9,30.21,ESE,104,0.0,1.0,56,0.00,,---,0.00,VWS V14.01,2013-10-11 00:29:00,
2013-10-10 20:30:00,52.8,29.2,30.21,NW,318,1.0,2.0,40,0.00,,---,0.00,VWS V14.01,2013-10-11 00:30:00,
2013-10-10 20:31:00,52.9,29.2,30.21,NW,316,0.0,2.0,40,0.00,,---,0.00,VWS V14.01,2013-10-11 00:31:00,
2013-10-10 20:32:00,53.0,29.3,30.21,NW,316,1.0,2.0,40,0.00,,---,0.00,VWS V14.01,2013-10-11 00:32:00,
2013-10-10 20:33:00,53.0,30.0,30.21,SE,146,0.0,2.0,41,0.00,,---,0.00,VWS V14.01,2013-10-11 00:33:00,
2013-10-10 20:34:00,50.5,37.6,30.21,ESE,104,0.0,1.0,61,0.00,,---,0.00,VWS V14.01,2013-10-11 00:34:00,
2013-10-10 20:35:00,53.0,29.3,30.21,SSE,148,1.0,2.0,40,0.00,,---,0.00,VWS V14.01,2013-10-11 00:35:00,
2013-10-10 20:36:00,53.0,30.0,30.21,SSE,148,0.0,2.0,41,0.00,,---,0.00,VWS V14.01,2013-10-11 00:36:00,
2013-10-10 20:37:00,52.9,29.9,30.21,East,84,2.0,2.0,41,0.00,,---,0.00,VWS V14.01,2013-10-11 00:37:00,
2013-10-10 20:38:00,52.9,30.5,30.22,ENE,64,1.0,3.0,42,0.00,,---,0.00,VWS V14.01,2013-10-11 00:38:00,
2013-10-10 20:39:00,50.0,38.3,30.21,ESE,104,0.0,0.0,64,0.00,,---,0.00,VWS V14.01,2013-10-11 00:39:00,
2013-10-10 20:40:00,52.8,30.4,30.22,ENE,64,0.0,3.0,42,0.00,,---,0.00,VWS V14.01,2013-10-11 00:40:00,
2013-10-10 20:41:00,52.8,30.4,30.22,SE,128,2.0,3.0,42,0.00,,---,0.00,VWS V14.01,2013-10-11 00:41:00,
2013-10-10 20:42:00,52.7,31.4,30.22,SE,124,2.0,3.0,44,0.00,,---,0.00,VWS V14.01,2013-10-11 00:42:00,
2013-10-10 20:43:00,52.6,30.8,30.22,ESE,122,0.0,3.0,43,0.00,,---,0.00,VWS V14.01,2013-10-11 00:43:00,
2013-10-10 20:44:00,49.6,40.6,30.21,ESE,105,0.0,0.0,71,0.00,,---,0.00,VWS V14.01,2013-10-11 00:44:00,
2013-10-10 20:45:00,52.6,32.4,30.22,ESE,122,0.0,3.0,46,0.00,,---,0.00,VWS V14.01,2013-10-11 00:45:00,
2013-10-10 20:46:00,52.5,32.9,30.22,East,101,1.0,3.0,47,0.00,,---,0.00,VWS V14.01,2013-10-11 00:46:00,
2013-10-10 20:47:00,52.4,33.3,30.22,East,95,1.0,1.0,48,0.00,,---,0.00,VWS V14.01,2013-10-11 00:47:00,
2013-10-10 20:48:00,52.3,33.7,30.22,East,94,0.0,1.0,49,0.00,,---,0.00,VWS V14.01,2013-10-11 00:48:00,
2013-10-10 20:49:00,52.2,34.1,30.22,East,95,0.0,1.0,50,0.00,,---,0.00,VWS V14.01,2013-10-11 00:49:00,
2013-10-10 20:50:00,49.3,37.7,30.21,ESE,104,0.0,0.0,64,0.00,,---,0.00,VWS V14.01,2013-10-11 00:50:00,
2013-10-10 20:51:00,51.9,33.9,30.22,East,96,0.0,1.0,50,0.00,,---,0.00,VWS V14.01,2013-10-11 00:51:00,
2013-10-10 20:52:00,51.8,33.8,30.22,East,96,0.0,1.0,50,0.00,,---,0.00,VWS V14.01,2013-10-11 00:52:00,
2013-10-10 20:53:00,51.7,33.2,30.22,East,96,0.0,1.0,49,0.00,,---,0.00,VWS V14.01,2013-10-11 00:53:00,
2013-10-10 20:54:00,51.7,33.2,30.22,East,96,0.0,1.0,49,0.00,,---,0.00,VWS V14.01,2013-10-11 00:54:00,
2013-10-10 20:55:00,49.7,35.5,30.21,ESE,105,0.0,0.0,58,0.00,,---,0.00,VWS V14.01,2013-10-11 00:55:00,
2013-10-10 20:56:00,51.6,33.1,30.22,East,96,0.0,1.0,49,0.00,,---,0.00,VWS V14.01,2013-10-11 00:56:00,
2013-10-10 20:57:00,51.5,33.0,30.21,East,96,0.0,0.0,49,0.00,,---,0.00,VWS V14.01,2013-10-11 00:57:00,
2013-10-10 20:58:00,51.5,33.0,30.21,North,350,3.0,3.0,49,0.00,,---,0.00,VWS V14.01,2013-10-11 00:58:00,
2013-10-10 20:59:00,51.6,32.6,30.21,NNW,342,2.0,3.0,48,0.00,,---,0.00,VWS V14.01,2013-10-11 00:59:00,
2013-10-10 21:00:00,49.7,36.0,30.21,ESE,104,0.0,1.0,59,0.00,,---,0.00,VWS V14.01,2013-10-11 01:00:00,
2013-10-10 21:01:00,51.7,33.2,30.21,NNE,26,4.0,4.0,49,0.00,,---,0.00,VWS V14.01,2013-10-11 01:01:00,
2013-10-10 21:02:00,51.8,33.3,30.21,NE,53,1.0,4.0,49,0.00,,---,0.00,VWS V14.01,2013-10-11 01:02:00,
2013-10-10 21:03:00,52.0,33.5,30.22,ENE,74,2.0,4.0,49,0.00,,---,0.00,VWS V14.01,2013-10-11 01:03:00,
2013-10-10 21:04:00,52.1,34.0,30.22,ESE,102,2.0,4.0,50,0.00,,---,0.00,VWS V14.01,2013-10-11 01:04:00,
2013-10-10 21:05:00,49.5,36.6,30.21,ESE,104,0.0,1.0,61,0.00,,---,0.00,VWS V14.01,2013-10-11 01:05:00,
2013-10-10 21:06:00,52.2,34.1,30.21,East,89,0.0,3.0,50,0.00,,---,0.00,VWS V14.01,2013-10-11 01:06:00,
2013-10-10 21:07:00,52.1,35.5,30.21,ENE,57,2.0,3.0,53,0.00,,---,0.00,VWS V14.01,2013-10-11 01:07:00,
2013-10-10 21:08:00,52.1,35.0,30.21,ENE,57,1.0,3.0,52,0.00,,---,0.00,VWS V14.01,2013-10-11 01:08:00,
2013-10-10 21:09:00,52.1,35.5,30.21,ENE,57,0.0,3.0,53,0.00,,---,0.00,VWS V14.01,2013-10-11 01:09:00,
2013-10-10 21:10:00,52.1,35.0,30.21,ENE,57,0.0,3.0,52,0.00,,---,0.00,VWS V14.01,2013-10-11 01:10:00,
2013-10-10 21:11:00,49.5,36.2,30.21,ESE,104,0.0,0.0,60,0.00,,---,0.00,VWS V14.01,2013-10-11 01:11:00,
2013-10-10 21:12:00,52.1,34.5,30.21,ENE,57,0.0,3.0,51,0.00,,---,0.00,VWS V14.01,2013-10-11 01:12:00,
2013-10-10 21:13:00,52.1,35.0,30.21,ENE,57,1.0,1.0,52,0.00,,---,0.00,VWS V14.01,2013-10-11 01:13:00,
2013-10-10 21:14:00,52.1,34.5,30.21,ENE,57,0.0,1.0,51,0.00,,---,0.00,VWS V14.01,2013-10-11 01:14:00,
2013-10-10 21:15:00,52.2,34.6,30.21,NE,40,1.0,1.0,51,0.00,,---,0.00,VWS V14.01,2013-10-11 01:15:00,
2013-10-10 21:16:00,49.4,37.3,30.21,ESE,104,1.0,1.0,63,0.00,,---,0.00,VWS V14.01,2013-10-11 01:16:00,
2013-10-10 21:17:00,52.4,35.8,30.21,ENE,59,2.0,3.0,53,0.00,,---,0.00,VWS V14.01,2013-10-11 01:17:00,
2013-10-10 21:18:00,52.4,35.3,30.21,ENE,59,2.0,3.0,52,0.00,,---,0.00,VWS V14.01,2013-10-11 01:18:00,
2013-10-10 21:19:00,52.5,35.4,30.21,NE,54,0.0,3.0,52,0.00,,---,0.00,VWS V14.01,2013-10-11 01:19:00,
2013-10-10 21:20:00,52.6,35.5,30.21,East,96,1.0,3.0,52,0.00,,---,0.00,VWS V14.01,2013-10-11 01:20:00,
2013-10-10 21:21:00,49.3,32.0,30.21,ESE,105,0.0,1.0,51,0.00,,---,0.00,VWS V14.01,2013-10-11 01:21:00,
2013-10-10 21:22:00,52.6,36.0,30.21,East,94,0.0,3.0,53,0.00,,---,0.00,VWS V14.01,2013-10-11 01:22:00,
2013-10-10 21:23:00,52.6,36.0,30.21,East,91,0.0,3.0,53,0.00,,---,0.00,VWS V14.01,2013-10-11 01:23:00,
2013-10-10 21:24:00,52.6,36.0,30.21,SE,124,1.0,2.0,53,0.00,,---,0.00,VWS V14.01,2013-10-11 01:24:00,
2013-10-10 21:25:00,52.7,36.1,30.21,SE,142,1.0,2.0,53,0.00,,---,0.00,VWS V14.01,2013-10-11 01:25:00,
2013-10-10 21:26:00,49.7,34.7,30.21,SSE,150,1.0,1.0,56,0.00,,---,0.00,VWS V14.01,2013-10-11 01:26:00,
2013-10-10 21:27:00,52.7,36.1,30.21,ESE,120,1.0,2.0,53,0.00,,---,0.00,VWS V14.01,2013-10-11 01:27:00,
2013-10-10 21:28:00,52.7,36.5,30.21,ESE,120,0.0,2.0,54,0.00,,---,0.00,VWS V14.01,2013-10-11 01:28:00,
2013-10-10 21:29:00,52.7,37.0,30.21,ESE,120,0.0,2.0,55,0.00,,---,0.00,VWS V14.01,2013-10-11 01:29:00,
2013-10-10 21:30:00,52.7,37.0,30.21,ESE,120,0.0,2.0,55,0.00,,---,0.00,VWS V14.01,2013-10-11 01:30:00,
2013-10-10 21:31:00,52.6,36.9,30.21,ESE,120,0.0,2.0,55,0.00,,---,0.00,VWS V14.01,2013-10-11 01:31:00,
2013-10-10 21:32:00,49.5,36.6,30.22,SE,134,1.0,1.0,61,0.00,,---,0.00,VWS V14.01,2013-10-11 01:32:00,
2013-10-10 21:33:00,52.4,36.7,30.21,ESE,120,0.0,1.0,55,0.00,,---,0.00,VWS V14.01,2013-10-11 01:33:00,
2013-10-10 21:34:00,52.4,35.8,30.21,ESE,120,0.0,1.0,53,0.00,,---,0.00,VWS V14.01,2013-10-11 01:34:00,
2013-10-10 21:35:00,52.3,35.7,30.21,ESE,120,0.0,1.0,53,0.00,,---,0.00,VWS V14.01,2013-10-11 01:35:00,
2013-10-10 21:36:00,52.3,36.2,30.22,South,180,2.0,2.0,54,0.00,,---,0.00,VWS V14.01,2013-10-11 01:36:00,
2013-10-10 21:37:00,52.3,36.6,30.22,South,184,3.0,3.0,55,0.00,,---,0.00,VWS V14.01,2013-10-11 01:37:00,
2013-10-10 21:38:00,49.6,34.1,30.22,SE,142,0.0,1.0,55,0.00,,---,0.00,VWS V14.01,2013-10-11 01:38:00,
2013-10-10 21:39:00,52.2,37.9,30.22,SSE,152,3.0,3.0,58,0.00,,---,0.00,VWS V14.01,2013-10-11 01:39:00,
2013-10-10 21:40:00,52.1,37.8,30.22,SE,143,2.0,3.0,58,0.00,,---,0.00,VWS V14.01,2013-10-11 01:40:00,
2013-10-10 21:41:00,51.9,37.6,30.22,SE,143,2.0,3.0,58,0.00,,---,0.00,VWS V14.01,2013-10-11 01:41:00,
2013-10-10 21:42:00,51.9,36.7,30.22,SE,124,1.0,3.0,56,0.00,,---,0.00,VWS V14.01,2013-10-11 01:42:00,
2013-10-10 21:43:00,50.5,31.6,30.21,East,90,2.0,2.0,48,0.00,,---,0.00,VWS V14.01,2013-10-11 01:43:00,
2013-10-10 21:44:00,51.9,36.7,30.22,East,81,1.0,3.0,56,0.00,,---,0.00,VWS V14.01,2013-10-11 01:44:00,
2013-10-10 21:45:00,52.0,37.7,30.21,NE,34,1.0,3.0,58,0.00,,---,0.00,VWS V14.01,2013-10-11 01:45:00,
2013-10-10 21:46:00,51.9,36.7,30.21,NNW,345,3.0,3.0,56,0.00,,---,0.00,VWS V14.01,2013-10-11 01:46:00,
2013-10-10 21:47:00,52.0,36.3,30.21,NNW,328,3.0,3.0,55,0.00,,---,0.00,VWS V14.01,2013-10-11 01:47:00,
2013-10-10 21:48:00,51.1,31.6,30.21,NE,51,2.0,3.0,47,0.00,,---,0.00,VWS V14.01,2013-10-11 01:48:00,
2013-10-10 21:49:00,52.1,36.0,30.21,NNW,329,0.0,3.0,54,0.00,,---,0.00,VWS V14.01,2013-10-11 01:49:00,
2013-10-10 21:50:00,52.1,36.4,30.21,SE,134,2.0,3.0,55,0.00,,---,0.00,VWS V14.01,2013-10-11 01:50:00,
2013-10-10 21:51:00,52.2,36.1,30.21,ESE,122,3.0,3.0,54,0.00,,---,0.00,VWS V14.01,2013-10-11 01:51:00,
2013-10-10 21:52:00,52.2,36.1,30.21,ESE,120,0.0,3.0,54,0.00,,---,0.00,VWS V14.01,2013-10-11 01:52:00,
2013-10-10 21:53:00,51.5,35.0,30.21,ENE,67,1.0,2.0,53,0.00,,---,0.00,VWS V14.01,2013-10-11 01:53:00,
2013-10-10 21:54:00,52.2,37.0,30.21,East,84,1.0,3.0,56,0.00,,---,0.00,VWS V14.01,2013-10-11 01:54:00,
2013-10-10 21:55:00,52.0,38.1,30.21,East,84,1.0,3.0,59,0.00,,---,0.00,VWS V14.01,2013-10-11 01:55:00,
2013-10-10 21:56:00,51.8,37.5,30.21,North,1,2.0,3.0,58,0.00,,---,0.00,VWS V14.01,2013-10-11 01:56:00,
2013-10-10 21:57:00,51.7,36.1,30.21,North,349,2.0,3.0,55,0.00,,---,0.00,VWS V14.01,2013-10-11 01:57:00,
2013-10-10 21:58:00,51.7,32.7,30.21,NE,47,1.0,2.0,48,0.00,,---,0.00,VWS V14.01,2013-10-11 01:58:00,
2013-10-10 21:59:00,51.6,35.5,30.21,NNW,344,0.0,3.0,54,0.00,,---,0.00,VWS V14.01,2013-10-11 01:59:00,
2013-10-10 22:00:00,51.6,36.0,30.21,NNW,345,0.0,3.0,55,0.00,,---,0.00,VWS V14.01,2013-10-11 02:00:00,
2013-10-10 22:01:00,51.6,35.5,30.21,NNW,344,0.0,3.0,54,0.00,,---,0.00,VWS V14.01,2013-10-11 02:01:00,
2013-10-10 22:02:00,51.6,36.9,30.21,SSE,156,3.0,3.0,57,0.00,,---,0.00,VWS V14.01,2013-10-11 02:02:00,
2013-10-10 22:03:00,52.1,32.5,30.20,NNE,23,1.0,4.0,47,0.00,,---,0.00,VWS V14.01,2013-10-11 02:03:00,
2013-10-10 22:04:00,51.3,36.6,30.21,SSE,149,4.0,4.0,57,0.00,,---,0.00,VWS V14.01,2013-10-11 02:04:00,
2013-10-10 22:05:00,51.3,36.2,30.21,SE,142,2.0,4.0,56,0.00,,---,0.00,VWS V14.01,2013-10-11 02:05:00,
2013-10-10 22:06:00,51.3,37.5,30.21,SE,131,1.0,4.0,59,0.00,,---,0.00,VWS V14.01,2013-10-11 02:06:00,
2013-10-10 22:07:00,51.2,37.8,30.21,ESE,122,0.0,4.0,60,0.00,,---,0.00,VWS V14.01,2013-10-11 02:07:00,
2013-10-10 22:08:00,52.4,33.3,30.20,NE,51,0.0,2.0,48,0.00,,---,0.00,VWS V14.01,2013-10-11 02:08:00,
2013-10-10 22:09:00,51.0,38.9,30.21,East,95,1.0,4.0,63,0.00,,---,0.00,VWS V14.01,2013-10-11 02:09:00,
2013-10-10 22:10:00,50.8,39.1,30.21,East,95,0.0,2.0,64,0.00,,---,0.00,VWS V14.01,2013-10-11 02:10:00,
2013-10-10 22:11:00,50.6,39.3,30.21,East,94,0.0,1.0,65,0.00,,---,0.00,VWS V14.01,2013-10-11 02:11:00,
2013-10-10 22:12:00,50.5,38.4,30.21,East,79,1.0,1.0,63,0.00,,---,0.00,VWS V14.01,2013-10-11 02:12:00,
2013-10-10 22:13:00,50.3,37.0,30.21,NE,35,1.0,2.0,60,0.00,,---,0.00,VWS V14.01,2013-10-11 02:13:00,
2013-10-10 22:14:00,52.8,32.6,30.20,ENE,60,2.0,4.0,46,0.00,,---,0.00,VWS V14.01,2013-10-11 02:14:00,
2013-10-10 22:15:00,50.3,36.5,30.21,NE,36,0.0,2.0,59,0.00,,---,0.00,VWS V14.01,2013-10-11 02:15:00,
2013-10-10 22:16:00,50.3,36.1,30.21,NE,35,1.0,2.0,58,0.00,,---,0.00,VWS V14.01,2013-10-11 02:16:00,
2013-10-10 22:17:00,50.3,35.7,30.20,NNE,27,1.0,2.0,57,0.00,,---,0.00,VWS V14.01,2013-10-11 02:17:00,
2013-10-10 22:18:00,50.4,35.8,30.21,NNE,27,0.0,1.0,57,0.00,,---,0.00,VWS V14.01,2013-10-11 02:18:00,
2013-10-10 22:19:00,50.5,35.8,30.21,NNE,27,0.0,1.0,57,0.00,,---,0.00,VWS V14.01,2013-10-11 02:19:00,
2013-10-10 22:20:00,53.3,32.5,30.20,NE,39,1.0,4.0,45,0.00,,---,0.00,VWS V14.01,2013-10-11 02:20:00,
2013-10-10 22:21:00,50.6,35.5,30.21,NNE,27,0.0,1.0,56,0.00,,---,0.00,VWS V14.01,2013-10-11 02:21:00,
2013-10-10 22:22:00,50.7,34.7,30.21,NNE,27,0.0,1.0,54,0.00,,---,0.00,VWS V14.01,2013-10-11 02:22:00,
2013-10-10 22:23:00,50.7,35.1,30.21,NNE,27,0.0,0.0,55,0.00,,---,0.00,VWS V14.01,2013-10-11 02:23:00,
2013-10-10 22:24:00,50.8,33.8,30.21,NNE,27,0.0,0.0,52,0.00,,---,0.00,VWS V14.01,2013-10-11 02:24:00,
2013-10-10 22:25:00,53.6,31.7,30.20,NNE,25,1.0,4.0,43,0.00,,---,0.00,VWS V14.01,2013-10-11 02:25:00,
2013-10-10 22:26:00,51.0,35.4,30.21,ESE,104,0.0,1.0,55,0.00,,---,0.00,VWS V14.01,2013-10-11 02:26:00,
2013-10-10 22:27:00,51.0,35.9,30.21,ESE,105,0.0,1.0,56,0.00,,---,0.00,VWS V14.01,2013-10-11 02:27:00,
2013-10-10 22:28:00,51.0,35.9,30.21,ESE,104,0.0,1.0,56,0.00,,---,0.00,VWS V14.01,2013-10-11 02:28:00,
2013-10-10 22:29:00,51.0,36.8,30.21,ESE,105,0.0,1.0,58,0.00,,---,0.00,VWS V14.01,2013-10-11 02:29:00,
2013-10-10 22:30:00,50.9,37.9,30.21,ESE,104,0.0,1.0,61,0.00,,---,0.00,VWS V14.01,2013-10-11 02:30:00,
2013-10-10 22:31:00,53.5,31.0,30.20,ESE,103,1.0,4.0,42,0.00,,---,0.00,VWS V14.01,2013-10-11 02:31:00,
2013-10-10 22:32:00,50.6,36.4,30.21,ESE,104,0.0,1.0,58,0.00,,---,0.00,VWS V14.01,2013-10-11 02:32:00,
2013-10-10 22:33:00,50.5,37.6,30.21,ESE,104,0.0,1.0,61,0.00,,---,0.00,VWS V14.01,2013-10-11 02:33:00,
2013-10-10 22:34:00,50.4,37.9,30.21,ESE,104,0.0,1.0,62,0.00,,---,0.00,VWS V14.01,2013-10-11 02:34:00,
2013-10-10 22:35:00,50.3,37.8,30.21,ESE,104,0.0,0.0,62,0.00,,---,0.00,VWS V14.01,2013-10-11 02:35:00,
2013-10-10 22:36:00,53.1,31.8,30.20,ESE,105,0.0,1.0,44,0.00,,---,0.00,VWS V14.01,2013-10-11 02:36:00,
2013-10-10 22:37:00,50.1,38.0,30.21,ESE,104,0.0,0.0,63,0.00,,---,0.00,VWS V14.01,2013-10-11 02:37:00,
2013-10-10 22:38:00,50.0,38.3,30.21,ESE,104,0.0,0.0,64,0.00,,---,0.00,VWS V14.01,2013-10-11 02:38:00,
2013-10-10 22:39:00,49.9,39.0,30.20,ESE,104,0.0,0.0,66,0.00,,---,0.00,VWS V14.01,2013-10-11 02:39:00,
2013-10-10 22:40:00,49.8,40.0,30.20,ESE,104,0.0,0.0,69,0.00,,---,0.00,VWS V14.01,2013-10-11 02:40:00,
2013-10-10 22:41:00,52.7,32.0,30.20,East,94,0.0,2.0,45,0.00,,---,0.00,VWS V14.01,2013-10-11 02:41:00,
2013-10-10 22:42:00,49.6,40.2,30.21,ESE,104,0.0,0.0,70,0.00,,---,0.00,VWS V14.01,2013-10-11 02:42:00,
2013-10-10 22:43:00,49.6,40.6,30.21,ESE,105,0.0,0.0,71,0.00,,---,0.00,VWS V14.01,2013-10-11 02:43:00,
2013-10-10 22:44:00,49.4,40.0,30.21,ESE,104,0.0,0.0,70,0.00,,---,0.00,VWS V14.01,2013-10-11 02:44:00,
2013-10-10 22:45:00,49.3,39.6,30.21,ESE,104,0.0,0.0,69,0.00,,---,0.00,VWS V14.01,2013-10-11 02:45:00,
2013-10-10 22:46:00,52.0,34.9,30.21,SSE,160,1.0,2.0,52,0.00,,---,0.00,VWS V14.01,2013-10-11 02:46:00,
2013-10-10 22:47:00,49.2,38.0,30.21,ESE,104,0.0,0.0,65,0.00,,---,0.00,VWS V14.01,2013-10-11 02:47:00,
2013-10-10 22:48:00,49.2,38.0,30.21,ESE,104,0.0,0.0,65,0.00,,---,0.00,VWS V14.01,2013-10-11 02:48:00,
2013-10-10 22:49:00,49.3,37.7,30.21,ESE,104,0.0,0.0,64,0.00,,---,0.00,VWS V14.01,2013-10-11 02:49:00,
2013-10-10 22:50:00,49.3,37.2,30.20,ESE,104,0.0,0.0,63,0.00,,---,0.00,VWS V14.01,2013-10-11 02:50:00,
2013-10-10 22:51:00,51.1,35.0,30.21,SSE,160,1.0,4.0,54,0.00,,---,0.00,VWS V14.01,2013-10-11 02:51:00,
2013-10-10 22:52:00,49.5,35.8,30.21,ESE,104,0.0,0.0,59,0.00,,---,0.00,VWS V14.01,2013-10-11 02:52:00,
2013-10-10 22:53:00,49.6,35.4,30.21,ESE,104,0.0,0.0,58,0.00,,---,0.00,VWS V14.01,2013-10-11 02:53:00,
2013-10-10 22:54:00,49.7,35.5,30.21,ESE,105,0.0,0.0,58,0.00,,---,0.00,VWS V14.01,2013-10-11 02:54:00,
2013-10-10 22:55:00,49.8,36.5,30.21,ESE,104,0.0,1.0,60,0.00,,---,0.00,VWS V14.01,2013-10-11 02:55:00,
2013-10-10 22:56:00,50.6,35.0,30.21,SSW,194,0.0,1.0,55,0.00,,---,0.00,VWS V14.01,2013-10-11 02:56:00,
2013-10-10 22:57:00,49.7,35.5,30.21,ESE,105,0.0,1.0,58,0.00,,---,0.00,VWS V14.01,2013-10-11 02:57:00,
2013-10-10 22:58:00,49.7,35.1,30.21,ESE,104,0.0,1.0,57,0.00,,---,0.00,VWS V14.01,2013-10-11 02:58:00,
2013-10-10 22:59:00,49.7,36.0,30.21,ESE,104,0.0,1.0,59,0.00,,---,0.00,VWS V14.01,2013-10-11 02:59:00,
2013-10-10 23:00:00,49.7,36.4,30.21,ESE,104,0.0,1.0,60,0.00,,---,0.00,VWS V14.01,2013-10-11 03:00:00,
2013-10-10 23:01:00,50.3,34.3,30.21,SSW,194,0.0,0.0,54,0.00,,---,0.00,VWS V14.01,2013-10-11 03:01:00,
2013-10-10 23:02:00,49.6,37.1,30.21,ESE,104,0.0,1.0,62,0.00,,---,0.00,VWS V14.01,2013-10-11 03:02:00,
2013-10-10 23:03:00,49.6,36.7,30.21,ESE,104,0.0,1.0,61,0.00,,---,0.00,VWS V14.01,2013-10-11 03:03:00,
2013-10-10 23:04:00,49.5,36.6,30.21,ESE,104,0.0,1.0,61,0.00,,---,0.00,VWS V14.01,2013-10-11 03:04:00,
2013-10-10 23:05:00,49.5,36.2,30.20,ESE,104,0.0,1.0,60,0.00,,---,0.00,VWS V14.01,2013-10-11 03:05:00,
2013-10-10 23:06:00,49.5,35.8,30.20,ESE,104,0.0,0.0,59,0.00,,---,0.00,VWS V14.01,2013-10-11 03:06:00,
2013-10-10 23:07:00,49.9,36.2,30.20,SSW,194,0.0,1.0,59,0.00,,---,0.00,VWS V14.01,2013-10-11 03:07:00,
2013-10-10 23:08:00,49.5,34.9,30.20,ESE,104,0.0,0.0,57,0.00,,---,0.00,VWS V14.01,2013-10-11 03:08:00,
2013-10-10 23:09:00,49.5,34.9,30.20,ESE,104,0.0,0.0,57,0.00,,---,0.00,VWS V14.01,2013-10-11 03:09:00,
2013-10-10 23:10:00,49.5,36.2,30.21,ESE,104,0.0,0.0,60,0.00,,---,0.00,VWS V14.01,2013-10-11 03:10:00,
2013-10-10 23:11:00,49.5,37.0,30.21,ESE,104,0.0,1.0,62,0.00,,---,0.00,VWS V14.01,2013-10-11 03:11:00,
2013-10-10 23:12:00,49.1,36.2,30.20,SSW,194,0.0,0.0,61,0.00,,---,0.00,VWS V14.01,2013-10-11 03:12:00,
2013-10-10 23:13:00,49.5,36.6,30.21,ESE,104,0.0,1.0,61,0.00,,---,0.00,VWS V14.01,2013-10-11 03:13:00,
2013-10-10 23:14:00,49.4,36.9,30.21,ESE,104,0.0,1.0,62,0.00,,---,0.00,VWS V14.01,2013-10-11 03:14:00,
2013-10-10 23:15:00,49.4,37.3,30.21,ESE,104,1.0,1.0,63,0.00,,---,0.00,VWS V14.01,2013-10-11 03:15:00,
2013-10-10 23:16:00,49.4,36.9,30.21,ESE,104,1.0,1.0,62,0.00,,---,0.00,VWS V14.01,2013-10-11 03:16:00,
2013-10-10 23:17:00,48.6,34.5,30.20,NNW,345,2.0,2.0,58,0.00,,---,0.00,VWS V14.01,2013-10-11 03:17:00,
2013-10-10 23:18:00,49.3,35.6,30.21,ESE,104,0.0,1.0,59,0.00,,---,0.00,VWS V14.01,2013-10-11 03:18:00,
2013-10-10 23:19:00,49.3,33.8,30.21,ESE,104,0.0,1.0,55,0.00,,---,0.00,VWS V14.01,2013-10-11 03:19:00,
2013-10-10 23:20:00,49.3,32.0,30.21,ESE,105,0.0,1.0,51,0.00,,---,0.00,VWS V14.01,2013-10-11 03:20:00,
2013-10-10 23:21:00,49.5,33.1,30.21,ESE,104,0.0,1.0,53,0.00,,---,0.00,VWS V14.01,2013-10-11 03:21:00,
2013-10-10 23:22:00,48.9,36.1,30.20,NNW,348,0.0,2.0,61,0.00,,---,0.00,VWS V14.01,2013-10-11 03:22:00,
2013-10-10 23:23:00,49.6,35.4,30.21,ESE,104,0.0,1.0,58,0.00,,---,0.00,VWS V14.01,2013-10-11 03:23:00,
2013-10-10 23:24:00,49.7,35.5,30.21,ESE,104,0.0,1.0,58,0.00,,---,0.00,VWS V14.01,2013-10-11 03:24:00,
2013-10-10 23:25:00,49.7,34.7,30.21,SSE,150,1.0,1.0,56,0.00,,---,0.00,VWS V14.01,2013-10-11 03:25:00,
2013-10-10 23:26:00,49.7,35.5,30.21,SSE,150,1.0,1.0,58,0.00,,---,0.00,VWS V14.01,2013-10-11 03:26:00,
2013-10-10 23:27:00,48.6,34.9,30.20,NNW,347,0.0,0.0,59,0.00,,---,0.00,VWS V14.01,2013-10-11 03:27:00,
2013-10-10 23:28:00,49.7,36.4,30.21,SSE,150,0.0,1.0,60,0.00,,---,0.00,VWS V14.01,2013-10-11 03:28:00,
2013-10-10 23:29:00,49.6,36.7,30.21,SSE,150,0.0,1.0,61,0.00,,---,0.00,VWS V14.01,2013-10-11 03:29:00,
2013-10-10 23:30:00,49.5,37.0,30.21,SSE,150,1.0,1.0,62,0.00,,---,0.00,VWS V14.01,2013-10-11 03:30:00,
2013-10-10 23:31:00,49.5,36.6,30.22,SE,134,1.0,1.0,61,0.00,,---,0.00,VWS V14.01,2013-10-11 03:31:00,
2013-10-10 23:32:00,48.7,34.6,30.20,NNW,347,0.0,0.0,58,0.00,,---,0.00,VWS V14.01,2013-10-11 03:32:00,
2013-10-10 23:33:00,49.4,33.9,30.22,SE,143,1.0,2.0,55,0.00,,---,0.00,VWS V14.01,2013-10-11 03:33:00,
2013-10-10 23:34:00,49.4,33.9,30.22,SE,144,0.0,2.0,55,0.00,,---,0.00,VWS V14.01,2013-10-11 03:34:00,
2013-10-10 23:35:00,49.5,33.6,30.22,SE,144,0.0,2.0,54,0.00,,---,0.00,VWS V14.01,2013-10-11 03:35:00,
2013-10-10 23:36:00,49.6,34.6,30.22,SE,142,0.0,2.0,56,0.00,,---,0.00,VWS V14.01,2013-10-11 03:36:00,
2013-10-10 23:37:00,48.8,34.7,30.20,NNW,347,0.0,0.0,58,0.00,,---,0.00,VWS V14.01,2013-10-11 03:37:00,
2013-10-10 23:38:00,49.7,34.7,30.21,SE,141,1.0,1.0,56,0.00,,---,0.00,VWS V14.01,2013-10-11 03:38:00,
2013-10-10 23:39:00,49.8,33.4,30.21,SE,129,1.0,1.0,53,0.00,,---,0.00,VWS V14.01,2013-10-11 03:39:00,
2013-10-10 23:40:00,50.0,31.1,30.21,ESE,120,1.0,1.0,48,0.00,,---,0.00,VWS V14.01,2013-10-11 03:40:00,
2013-10-10 23:41:00,50.2,31.3,30.21,ESE,111,1.0,2.0,48,0.00,,---,0.00,VWS V14.01,2013-10-11 03:41:00,
2013-10-10 23:42:00,48.5,34.4,30.19,NNW,348,0.0,0.0,58,0.00,,---,0.00,VWS V14.01,2013-10-11 03:42:00,
2013-10-10 23:43:00,50.6,31.6,30.21,ENE,74,1.0,2.0,48,0.00,,---,0.00,VWS V14.01,2013-10-11 03:43:00,
2013-10-10 23:44:00,50.8,31.8,30.21,NE,55,1.0,2.0,48,0.00,,---,0.00,VWS V14.01,2013-10-11 03:44:00,
2013-10-10 23:45:00,50.9,31.4,30.21,NE,51,2.0,2.0,47,0.00,,---,0.00,VWS V14.01,2013-10-11 03:45:00,
2013-10-10 23:46:00,51.0,31.0,30.21,NE,50,3.0,3.0,46,0.00,,---,0.00,VWS V14.01,2013-10-11 03:46:00,
2013-10-10 23:47:00,48.4,34.3,30.19,NNW,347,0.0,0.0,58,0.00,,---,0.00,VWS V14.01,2013-10-11 03:47:00,
2013-10-10 23:48:00,51.2,31.7,30.21,NE,44,2.0,3.0,47,0.00,,---,0.00,VWS V14.01,2013-10-11 03:48:00,
2013-10-10 23:49:00,51.3,31.2,30.21,NE,44,2.0,3.0,46,0.00,,---,0.00,VWS V14.01,2013-10-11 03:49:00,
2013-10-10 23:50:00,51.4,30.8,30.21,ENE,63,1.0,3.0,45,0.00,,---,0.00,VWS V14.01,2013-10-11 03:50:00,
2013-10-10 23:51:00,51.4,32.4,30.21,ENE,67,0.0,3.0,48,0.00,,---,0.00,VWS V14.01,2013-10-11 03:51:00,
2013-10-10 23:52:00,48.0,36.4,30.19,NNW,347,0.0,0.0,64,0.00,,---,0.00,VWS V14.01,2013-10-11 03:52:00,
2013-10-10 23:53:00,51.4,33.9,30.21,NE,44,2.0,2.0,51,0.00,,---,0.00,VWS V14.01,2013-10-11 03:53:00,
2013-10-10 23:54:00,51.4,31.9,30.21,NE,44,2.0,2.0,47,0.00,,---,0.00,VWS V14.01,2013-10-11 03:54:00,
2013-10-10 23:55:00,51.5,32.0,30.21,NE,47,1.0,2.0,47,0.00,,---,0.00,VWS V14.01,2013-10-11 03:55:00,
2013-10-10 23:56:00,51.6,32.6,30.21,NE,47,1.0,2.0,48,0.00,,---,0.00,VWS V14.01,2013-10-11 03:56:00,
2013-10-10 23:57:00,47.2,36.4,30.19,NNW,347,0.0,1.0,66,0.00,,---,0.00,VWS V14.01,2013-10-11 03:57:00,
2013-10-10 23:58:00,51.7,32.7,30.21,NNE,27,2.0,2.0,48,0.00,,---,0.00,VWS V14.01,2013-10-11 03:58:00,
2013-10-10 23:59:00,51.8,32.2,30.21,North,5,3.0,3.0,47,0.00,,---,0.00,VWS V14.01,2013-10-11 03:59:00,